Darstellungsparameter: Aktuell verwendete Einstellungen:
Skalierung der Graphiken ... ?
xyx+y,   Skalierungsfaktor:      Skalierung: Modus: x, Faktor: 1
Darstellungszeitraum ... ?
Vom - - bis: - -   Zeitraum: 01.09.2006 - 01.10.2006
Min/Max/Avg-Anzeige ... ?
Zeige MMA aktuell
Zeige MMA Monat
Zeige MMA alles
Zeige --A aktuell
Zeige --A Monat
Zeige --A alles
Keine MMA-Anzeige
MMA:
Average (ber die Originaldaten)
MMA-Basis: 01.09.2006 - 01.10.2006
Quicknavigation für Darstellung... ?
Tage:      1T, 2T, 3T, 5T -1T -2T -3T -5T +1T +2T +3T +5T
Wochen: 1W, 2W, 3W -1W -2W -3W +1W +2W +3W
Monate: 1M, 3M, 6M -1M -3M -6M +1M +3M +6M
Jahre:    1J, 3J, 5J, 10J -1J -3J -5J -10J +1J +3J +5J +10J
Nutze für die Darstellung ... ?
Originaldaten oder Mittelwerte auf ...
Stundenbasis Tagesbasis Wochenbasis
Monatsbasis Jahresbasis      Datenbasis: Original-Daten
Darstellen als:
Statistik (Auto) Statistik J:M      Darstellung:
Zur Graphik,    zurück zur Übersicht aller Sensoren.
 
Tabellarische Datenbersicht: ?
 
Sensor: Nr:Datum:Temp:Abs-Feuchte:Windchill:Wind:
Aussen-T/F 1 01-09-2006 00:02:03 17.6 C 8.85 g/m*3 17.6 C 0 km/h
2 01-09-2006 00:12:03 17.7 C 8.9 g/m*3 17.7 C 0 km/h
3 01-09-2006 00:22:02 17.6 C 8.85 g/m*3 17.6 C 0 km/h
4 01-09-2006 00:32:02 17.5 C 8.95 g/m*3 17.5 C 0 km/h
5 01-09-2006 00:42:02 17.4 C 9.19 g/m*3 17.4 C 0 km/h
6 01-09-2006 00:52:02 17.2 C 9.23 g/m*3 17.2 C 0 km/h
7 01-09-2006 01:02:02 17.1 C 9.17 g/m*3 17.1 C 0 km/h
8 01-09-2006 01:12:02 17 C 9.26 g/m*3 17 C 0 km/h
9 01-09-2006 01:22:03 16.8 C 9.44 g/m*3 16.8 C 0 km/h
10 01-09-2006 01:32:02 16.8 C 9.58 g/m*3 16.8 C 0 km/h
11 01-09-2006 01:42:02 16.7 C 9.52 g/m*3 16.7 C 0 km/h
12 01-09-2006 01:52:02 16.7 C 9.38 g/m*3 16.7 C 0 km/h
13 01-09-2006 02:02:02 17 C 9.12 g/m*3 17 C 0 km/h
14 01-09-2006 02:12:02 16.9 C 9.49 g/m*3 16.9 C 0 km/h
15 01-09-2006 02:22:02 16.8 C 9.58 g/m*3 16.8 C 0 km/h
16 01-09-2006 02:32:02 16.6 C 9.61 g/m*3 16.6 C 0 km/h
17 01-09-2006 02:42:02 16.6 C 9.46 g/m*3 16.6 C 0 km/h
18 01-09-2006 02:53:03 16.6 C 9.32 g/m*3 16.6 C 0 km/h
19 01-09-2006 03:03:03 16.6 C 9.46 g/m*3 16.6 C 0 km/h
20 01-09-2006 03:13:04 16.5 C 9.41 g/m*3 16.5 C 0 km/h
21 01-09-2006 03:23:04 16.4 C 9.35 g/m*3 16.4 C 0 km/h
22 01-09-2006 03:33:02 16.4 C 9.49 g/m*3 16.4 C 0 km/h
23 01-09-2006 03:43:02 16.4 C 9.49 g/m*3 16.4 C 0 km/h
24 01-09-2006 03:53:02 16.4 C 9.49 g/m*3 16.4 C 0 km/h
25 01-09-2006 04:03:02 16.3 C 9.43 g/m*3 16.3 C 0 km/h
Sensor: Nr:Datum:Temp:Abs-Feuchte:Windchill:Wind:
Aussen-T/F 26 01-09-2006 04:13:02 16.2 C 9.52 g/m*3 16.2 C 0 km/h
27 01-09-2006 04:23:02 16.2 C 9.52 g/m*3 16.2 C 0 km/h
28 01-09-2006 04:33:01 16.2 C 9.52 g/m*3 16.2 C 0 km/h
29 01-09-2006 04:43:01 16.2 C 9.52 g/m*3 16.2 C 0 km/h
30 01-09-2006 04:53:02 16.1 C 9.6 g/m*3 16.1 C 0 km/h
31 01-09-2006 05:03:02 16 C 9.54 g/m*3 16 C 0 km/h
32 01-09-2006 05:13:02 16 C 9.54 g/m*3 16 C 0 km/h
33 01-09-2006 05:23:02 16 C 9.54 g/m*3 16 C 0 km/h
34 01-09-2006 05:33:03 15.9 C 9.62 g/m*3 15.9 C 0 km/h
35 01-09-2006 05:43:03 15.9 C 9.62 g/m*3 15.9 C 0 km/h
36 01-09-2006 05:53:02 15.8 C 9.69 g/m*3 15.8 C 0 km/h
37 01-09-2006 06:03:02 15.8 C 9.69 g/m*3 15.8 C 0 km/h
38 01-09-2006 06:13:02 15.8 C 9.69 g/m*3 15.8 C 0 km/h
39 01-09-2006 06:23:01 15.8 C 9.56 g/m*3 15.8 C 0 km/h
40 01-09-2006 06:33:01 15.7 C 9.63 g/m*3 15.7 C 0 km/h
41 01-09-2006 06:43:01 15.6 C 9.58 g/m*3 15.6 C 0 km/h
42 01-09-2006 06:53:02 15.6 C 9.71 g/m*3 15.6 C 0 km/h
43 01-09-2006 07:03:01 15.6 C 9.58 g/m*3 15.6 C 0 km/h
44 01-09-2006 07:13:01 15.8 C 9.69 g/m*3 15.8 C 0 km/h
45 01-09-2006 07:23:01 15.8 C 9.69 g/m*3 15.8 C 0 km/h
46 01-09-2006 07:33:02 15.6 C 9.71 g/m*3 15.6 C 0 km/h
47 01-09-2006 07:43:02 15.8 C 9.69 g/m*3 15.8 C 0 km/h
48 01-09-2006 07:53:01 15.8 C 9.69 g/m*3 15.8 C 0 km/h
49 01-09-2006 08:03:02 15.8 C 9.69 g/m*3 15.8 C 0 km/h
50 01-09-2006 08:13:02 15.7 C 9.63 g/m*3 15.7 C 0 km/h
Sensor: Nr:Datum:Temp:Abs-Feuchte:Windchill:Wind:
Aussen-T/F 51 01-09-2006 08:23:02 15.8 C 9.83 g/m*3 15.8 C 0 km/h
52 01-09-2006 08:33:02 16 C 9.81 g/m*3 16 C 0 km/h
53 01-09-2006 08:43:02 16.1 C 9.73 g/m*3 16.1 C 0 km/h
54 01-09-2006 08:53:02 16.6 C 9.46 g/m*3 16.6 C 0 km/h
55 01-09-2006 09:03:02 16.9 C 9.35 g/m*3 16.9 C 0 km/h
56 01-09-2006 09:13:03 17.2 C 9.23 g/m*3 17.2 C 0 km/h
57 01-09-2006 09:23:02 17.2 C 9.37 g/m*3 17.2 C 0 km/h
58 01-09-2006 09:33:02 17.2 C 9.23 g/m*3 17.2 C 0 km/h
59 01-09-2006 09:43:02 17.5 C 9.54 g/m*3 17.5 C 0 km/h
60 01-09-2006 09:53:02 18 C 9.37 g/m*3 18 C 0 km/h
61 01-09-2006 10:03:02 18.1 C 9.27 g/m*3 18.1 C 0 km/h
62 01-09-2006 10:13:02 18.4 C 9.12 g/m*3 18.4 C 0 km/h
63 01-09-2006 10:23:02 18.7 C 9.13 g/m*3 18.7 C 0 km/h
64 01-09-2006 10:33:02 19 C 8.96 g/m*3 19 C 0 km/h
65 01-09-2006 10:43:02 19.3 C 9.12 g/m*3 19.3 C 0 km/h
66 01-09-2006 10:53:01 19.6 C 8.95 g/m*3 19.6 C 0 km/h
67 01-09-2006 11:03:01 19.7 C 8.49 g/m*3 19.7 C 0 km/h
68 01-09-2006 11:13:01 20 C 8.81 g/m*3 20 C 0 km/h
69 01-09-2006 11:23:01 20.8 C 8.87 g/m*3 20.8 C 0 km/h
70 01-09-2006 11:33:02 21.2 C 8.71 g/m*3 21.2 C 0 km/h
71 01-09-2006 11:43:02 21.1 C 8.66 g/m*3 21.1 C 0 km/h
72 01-09-2006 11:53:03 21.5 C 8.86 g/m*3 21.5 C 0 km/h
73 01-09-2006 12:03:02 21.7 C 8.97 g/m*3 21.7 C 0 km/h
74 01-09-2006 12:13:02 22.1 C 8.98 g/m*3 22.1 C 0 km/h
75 01-09-2006 12:23:02 22.2 C 9.03 g/m*3 22.2 C 0 km/h
Sensor: Nr:Datum:Temp:Abs-Feuchte:Windchill:Wind:
Aussen-T/F 76 01-09-2006 12:33:02 22.1 C 9.17 g/m*3 22.1 C 0 km/h
77 01-09-2006 12:43:02 22.3 C 8.89 g/m*3 22.3 C 0 km/h
78 01-09-2006 12:53:02 22.7 C 8.89 g/m*3 22.7 C 0 km/h
79 01-09-2006 13:03:01 23.2 C 8.73 g/m*3 23.2 C 0 km/h
80 01-09-2006 13:13:01 23.5 C 8.88 g/m*3 23.5 C 0 km/h
81 01-09-2006 13:23:01 23.4 C 8.62 g/m*3 23.4 C 0 km/h
82 01-09-2006 13:33:01 23.1 C 8.48 g/m*3 23.1 C 0 km/h
83 01-09-2006 13:43:01 23.5 C 8.67 g/m*3 23.5 C 0 km/h
84 01-09-2006 13:53:02 23.7 C 8.34 g/m*3 23.7 C 0 km/h
85 01-09-2006 14:03:01 24.1 C 8.31 g/m*3 24.1 C 0 km/h
86 01-09-2006 14:13:01 24.5 C 8.5 g/m*3 24.5 C 0 km/h
87 01-09-2006 14:23:01 24.9 C 8.47 g/m*3 24.9 C 0 km/h
88 01-09-2006 14:33:02 24.9 C 8.47 g/m*3 24.9 C 0 km/h
89 01-09-2006 14:43:02 25.4 C 8.48 g/m*3 25.4 C 0 km/h
90 01-09-2006 14:53:02 26.1 C 8.57 g/m*3 26.1 C 0 km/h
91 01-09-2006 15:03:02 25.9 C 8.23 g/m*3 25.9 C 0 km/h
92 01-09-2006 15:13:02 26.2 C 8.12 g/m*3 26.2 C 0 km/h
93 01-09-2006 15:23:02 26.1 C 8.08 g/m*3 26.1 C 0 km/h
94 01-09-2006 15:33:03 27.2 C 8.33 g/m*3 27.2 C 0 km/h
95 01-09-2006 15:43:03 27.2 C 7.81 g/m*3 27.2 C 0 km/h
96 01-09-2006 15:53:02 27.3 C 7.85 g/m*3 27.3 C 0 km/h
97 01-09-2006 16:03:02 26.9 C 7.93 g/m*3 26.9 C 0 km/h
98 01-09-2006 16:13:02 26.7 C 8.35 g/m*3 26.7 C 0 km/h
99 01-09-2006 16:23:02 26.9 C 8.7 g/m*3 26.9 C 0 km/h
100 01-09-2006 16:33:03 27.2 C 7.81 g/m*3 27.2 C 0 km/h
Sensor: Nr:Datum:Temp:Abs-Feuchte:Windchill:Wind:
Aussen-T/F 101 01-09-2006 16:43:03 27 C 7.98 g/m*3 27 C 0 km/h
102 01-09-2006 16:53:02 27.2 C 8.07 g/m*3 27.2 C 0 km/h
103 01-09-2006 17:03:02 27 C 8.49 g/m*3 27 C 0 km/h
104 01-09-2006 17:13:02 26.4 C 8.96 g/m*3 26.4 C 0 km/h
105 01-09-2006 17:23:01 26.4 C 9.46 g/m*3 26.4 C 0 km/h
106 01-09-2006 17:33:02 26.4 C 9.71 g/m*3 26.4 C 0 km/h
107 01-09-2006 17:43:02 26.1 C 10.28 g/m*3 26.1 C 0 km/h
108 01-09-2006 17:53:02 25.6 C 10.71 g/m*3 25.6 C 0 km/h
109 01-09-2006 18:03:02 25.2 C 10.48 g/m*3 25.2 C 0 km/h
110 01-09-2006 18:13:02 24.7 C 10.64 g/m*3 24.7 C 0 km/h
111 01-09-2006 18:23:01 24.4 C 10.68 g/m*3 24.4 C 0 km/h
112 01-09-2006 18:33:01 24.2 C 10.78 g/m*3 24.2 C 0 km/h
113 01-09-2006 18:43:01 24.1 C 10.28 g/m*3 24.1 C 0 km/h
114 01-09-2006 18:53:02 23.9 C 10.82 g/m*3 23.9 C 0 km/h
115 01-09-2006 19:03:02 23.5 C 10.79 g/m*3 23.5 C 0 km/h
116 01-09-2006 19:13:02 23.1 C 10.75 g/m*3 23.1 C 0 km/h
117 01-09-2006 19:23:03 22.7 C 10.71 g/m*3 22.7 C 0 km/h
118 01-09-2006 19:33:02 22.5 C 10.79 g/m*3 22.5 C 0 km/h
119 01-09-2006 19:43:02 22.2 C 10.8 g/m*3 22.2 C 0 km/h
120 01-09-2006 19:53:02 21.9 C 10.81 g/m*3 21.9 C 0 km/h
121 01-09-2006 20:03:04 21.7 C 11.06 g/m*3 21.7 C 0 km/h
122 01-09-2006 20:13:05 21.6 C 11.19 g/m*3 21.6 C 0 km/h
123 01-09-2006 20:23:02 21.6 C 11.19 g/m*3 21.6 C 0 km/h
124 01-09-2006 20:33:02 21.1 C 11.24 g/m*3 21.1 C 0 km/h
125 01-09-2006 20:43:02 21 C 11.17 g/m*3 21 C 0 km/h
Sensor: Nr:Datum:Temp:Abs-Feuchte:Windchill:Wind:
Aussen-T/F 126 01-09-2006 20:53:02 20.7 C 11.16 g/m*3 20.7 C 0 km/h
127 01-09-2006 21:03:03 20.6 C 11.1 g/m*3 20.6 C 0 km/h
128 01-09-2006 21:13:03 20.5 C 11.03 g/m*3 20.5 C 0 km/h
129 01-09-2006 21:23:02 20.3 C 11.08 g/m*3 20.3 C 0 km/h
130 01-09-2006 21:33:02 20.2 C 11.02 g/m*3 20.2 C 0 km/h
131 01-09-2006 21:43:02 20.1 C 10.95 g/m*3 20.1 C 0 km/h
132 01-09-2006 21:53:02 20.1 C 10.95 g/m*3 20.1 C 0 km/h
133 01-09-2006 22:03:02 20.1 C 10.95 g/m*3 20.1 C 0 km/h
134 01-09-2006 22:13:02 20 C 10.71 g/m*3 20 C 0 km/h
135 01-09-2006 22:23:02 20 C 10.89 g/m*3 20 C 0 km/h
136 01-09-2006 22:33:02 19.9 C 10.82 g/m*3 19.9 C 0 km/h
137 01-09-2006 22:43:02 19.7 C 10.87 g/m*3 19.7 C 0 km/h
138 01-09-2006 22:53:03 19.6 C 10.8 g/m*3 19.6 C 0 km/h
139 01-09-2006 23:03:03 19.5 C 10.91 g/m*3 19.5 C 0 km/h
140 01-09-2006 23:13:03 19.4 C 11.01 g/m*3 19.4 C 0 km/h
141 01-09-2006 23:23:02 19.4 C 11.18 g/m*3 19.4 C 0 km/h
142 01-09-2006 23:33:02 19.4 C 11.18 g/m*3 19.4 C 0 km/h
143 01-09-2006 23:43:02 19.2 C 11.05 g/m*3 19.2 C 0 km/h
144 01-09-2006 23:53:02 19.2 C 10.88 g/m*3 19.2 C 0 km/h
145 02-09-2006 00:03:01 19.1 C 10.82 g/m*3 19.1 C 0 km/h
146 02-09-2006 00:13:01 18.9 C 11.02 g/m*3 18.9 C 0 km/h
147 02-09-2006 00:23:03 18.7 C 11.05 g/m*3 18.7 C 0 km/h
148 02-09-2006 00:33:02 18.7 C 11.05 g/m*3 18.7 C 0 km/h
149 02-09-2006 00:43:02 18.6 C 10.98 g/m*3 18.6 C 0 km/h
150 02-09-2006 00:53:02 18.7 C 11.21 g/m*3 18.7 C 0 km/h
Sensor: Nr:Datum:Temp:Abs-Feuchte:Windchill:Wind:
Aussen-T/F 151 02-09-2006 01:03:02 18.7 C 11.21 g/m*3 18.7 C 0 km/h
152 02-09-2006 01:13:02 18.6 C 11.3 g/m*3 18.6 C 0 km/h
153 02-09-2006 01:23:02 18.4 C 11.17 g/m*3 18.4 C 0 km/h
154 02-09-2006 01:33:03 18.3 C 11.26 g/m*3 18.3 C 0 km/h
155 02-09-2006 01:43:03 18.2 C 11.04 g/m*3 18.2 C 0 km/h
156 02-09-2006 01:53:03 18 C 11.06 g/m*3 18 C 0 km/h
157 02-09-2006 02:03:02 18 C 11.21 g/m*3 18 C 0 km/h
158 02-09-2006 02:13:02 17.9 C 10.99 g/m*3 17.9 C 0 km/h
159 02-09-2006 02:23:03 17.9 C 11.15 g/m*3 17.9 C 0 km/h
160 02-09-2006 02:33:03 17.8 C 11.23 g/m*3 17.8 C 0 km/h
161 02-09-2006 02:43:03 17.7 C 11.16 g/m*3 17.7 C 0 km/h
162 02-09-2006 02:54:04 17.7 C 11.16 g/m*3 17.7 C 0 km/h
163 02-09-2006 03:04:04 17.6 C 11.1 g/m*3 17.6 C 0 km/h
164 02-09-2006 03:14:04 17.8 C 11.23 g/m*3 17.8 C 0 km/h
165 02-09-2006 03:24:04 17.5 C 11.03 g/m*3 17.5 C 0 km/h
166 02-09-2006 03:34:03 17.3 C 11.2 g/m*3 17.3 C 0 km/h
167 02-09-2006 03:44:03 17.2 C 11.28 g/m*3 17.2 C 0 km/h
168 02-09-2006 03:54:03 17 C 11.14 g/m*3 17 C 0 km/h
169 02-09-2006 04:04:03 16.9 C 11.36 g/m*3 16.9 C 0 km/h
170 02-09-2006 04:14:03 16.9 C 11.51 g/m*3 16.9 C 0 km/h
171 02-09-2006 04:24:02 16.8 C 11.44 g/m*3 16.8 C 0 km/h
172 02-09-2006 04:34:02 16.8 C 11.44 g/m*3 16.8 C 0 km/h
173 02-09-2006 04:44:02 16.9 C 11.51 g/m*3 16.9 C 0 km/h
174 02-09-2006 04:54:03 16.8 C 11.44 g/m*3 16.8 C 0 km/h
175 02-09-2006 05:04:03 16.8 C 11.44 g/m*3 16.8 C 0 km/h
Sensor: Nr:Datum:Temp:Abs-Feuchte:Windchill:Wind:
Aussen-T/F 176 02-09-2006 05:14:03 16.8 C 11.44 g/m*3 16.8 C 0 km/h
177 02-09-2006 05:24:02 16.8 C 11.44 g/m*3 16.8 C 0 km/h
178 02-09-2006 05:34:02 16.8 C 11.44 g/m*3 16.8 C 0 km/h
179 02-09-2006 05:44:02 16.7 C 11.51 g/m*3 16.7 C 0 km/h
180 02-09-2006 05:54:02 16.6 C 11.44 g/m*3 16.6 C 0 km/h
181 02-09-2006 06:04:02 16.5 C 11.37 g/m*3 16.5 C 0 km/h
182 02-09-2006 06:14:02 16.2 C 11.17 g/m*3 16.2 C 0 km/h
183 02-09-2006 06:24:02 16.2 C 11.17 g/m*3 16.2 C 0 km/h
184 02-09-2006 06:34:02 16.3 C 11.38 g/m*3 16.3 C 0 km/h
185 02-09-2006 06:44:02 16.2 C 11.31 g/m*3 16.2 C 0 km/h
186 02-09-2006 06:54:02 16 C 11.17 g/m*3 16 C 0 km/h
187 02-09-2006 07:04:02 15.9 C 11.24 g/m*3 15.9 C 0 km/h
188 02-09-2006 07:14:02 15.9 C 11.38 g/m*3 15.9 C 0 km/h
189 02-09-2006 07:24:03 15.8 C 11.31 g/m*3 15.8 C 0 km/h
190 02-09-2006 07:34:02 15.9 C 11.38 g/m*3 15.9 C 0 km/h
191 02-09-2006 07:44:02 16.1 C 11.38 g/m*3 16.1 C 0 km/h
192 02-09-2006 07:54:02 16.4 C 11.72 g/m*3 16.4 C 0 km/h
193 02-09-2006 08:04:02 16.6 C 11.72 g/m*3 16.6 C 0 km/h
194 02-09-2006 08:14:02 16.8 C 11.87 g/m*3 16.8 C 0 km/h
195 02-09-2006 08:24:02 16.9 C 11.65 g/m*3 16.9 C 0 km/h
196 02-09-2006 08:34:02 17 C 11.72 g/m*3 17 C 0 km/h
197 02-09-2006 08:44:02 17.3 C 11.64 g/m*3 17.3 C 0 km/h
198 02-09-2006 08:54:02 17.5 C 11.78 g/m*3 17.5 C 0 km/h
199 02-09-2006 09:04:01 18 C 11.52 g/m*3 18 C 0 km/h
200 02-09-2006 09:14:01 18.3 C 11.41 g/m*3 18.3 C 0 km/h
Sensor: Nr:Datum:Temp:Abs-Feuchte:Windchill:Wind:
Aussen-T/F 201 02-09-2006 09:24:01 18.5 C 11.39 g/m*3 18.5 C 0 km/h
202 02-09-2006 09:34:02 19.1 C 11.47 g/m*3 19.1 C 0 km/h
203 02-09-2006 09:44:02 19.3 C 11.44 g/m*3 19.3 C 0 km/h
204 02-09-2006 09:54:02 19.7 C 11.89 g/m*3 19.7 C 0 km/h
205 02-09-2006 10:04:02 20.2 C 11.71 g/m*3 20.2 C 0 km/h
206 02-09-2006 10:14:02 20.4 C 10.97 g/m*3 20.4 C 0 km/h
207 02-09-2006 10:24:01 20.8 C 10.68 g/m*3 20.8 C 0 km/h
208 02-09-2006 10:34:02 21.5 C 10.94 g/m*3 21.5 C 0 km/h
209 02-09-2006 10:44:02 21.5 C 10.56 g/m*3 21.5 C 0 km/h
210 02-09-2006 10:54:01 21.5 C 10.75 g/m*3 21.5 C 0 km/h
211 02-09-2006 11:04:02 21.6 C 10.62 g/m*3 21.6 C 0 km/h
212 02-09-2006 11:14:02 22.4 C 10.72 g/m*3 22.4 C 0 km/h
213 02-09-2006 11:24:01 22.7 C 10.51 g/m*3 22.7 C 0 km/h
214 02-09-2006 11:34:02 22.9 C 10.42 g/m*3 22.9 C 0 km/h
215 02-09-2006 11:44:02 23.4 C 10.09 g/m*3 23.4 C 0 km/h
216 02-09-2006 11:54:01 23.5 C 10.36 g/m*3 23.5 C 0 km/h
217 02-09-2006 12:04:02 23.6 C 10.63 g/m*3 23.6 C 0 km/h
218 02-09-2006 12:14:02 24 C 10.44 g/m*3 24 C 0 km/h
219 02-09-2006 12:24:02 24.2 C 10.56 g/m*3 24.2 C 0 km/h
220 02-09-2006 12:34:01 24.3 C 10.62 g/m*3 24.3 C 0 km/h
221 02-09-2006 12:44:02 24 C 10.23 g/m*3 24 C 0 km/h
222 02-09-2006 12:54:02 24 C 10.44 g/m*3 24 C 0 km/h
223 02-09-2006 13:04:02 23.9 C 10.6 g/m*3 23.9 C 0 km/h
224 02-09-2006 13:14:02 23.7 C 10.48 g/m*3 23.7 C 0 km/h
225 02-09-2006 13:24:02 23.7 C 10.48 g/m*3 23.7 C 0 km/h
Sensor: Nr:Datum:Temp:Abs-Feuchte:Windchill:Wind:
Aussen-T/F 226 02-09-2006 13:34:02 23.7 C 10.27 g/m*3 23.7 C 0 km/h
227 02-09-2006 13:44:02 24 C 10.01 g/m*3 24 C 0 km/h
228 02-09-2006 13:54:02 23.7 C 10.27 g/m*3 23.7 C 0 km/h
229 02-09-2006 14:04:02 24.5 C 10.52 g/m*3 24.5 C 0 km/h
230 02-09-2006 14:14:02 25.1 C 9.95 g/m*3 25.1 C 0 km/h
231 02-09-2006 14:24:02 25.2 C 10.01 g/m*3 25.2 C 0 km/h
232 02-09-2006 14:34:02 25.2 C 10.01 g/m*3 25.2 C 0 km/h
233 02-09-2006 14:44:02 25.6 C 10.24 g/m*3 25.6 C 0 km/h
234 02-09-2006 14:54:03 25.9 C 9.93 g/m*3 25.9 C 0 km/h
235 02-09-2006 15:04:03 26.3 C 9.41 g/m*3 26.3 C 0 km/h
236 02-09-2006 15:14:03 26.5 C 10.01 g/m*3 26.5 C 0 km/h
237 02-09-2006 15:24:03 26.8 C 9.67 g/m*3 26.8 C 0 km/h
238 02-09-2006 15:34:04 26.3 C 9.65 g/m*3 26.3 C 0 km/h
239 02-09-2006 15:44:04 26.3 C 9.9 g/m*3 26.3 C 0 km/h
240 02-09-2006 15:54:02 26.2 C 10.09 g/m*3 26.2 C 0 km/h
241 02-09-2006 16:04:03 25.7 C 9.82 g/m*3 25.7 C 0 km/h
242 02-09-2006 16:14:03 25.9 C 9.68 g/m*3 25.9 C 0 km/h
243 02-09-2006 16:24:03 25.6 C 10 g/m*3 25.6 C 0 km/h
244 02-09-2006 16:34:04 25.2 C 10.01 g/m*3 25.2 C 0 km/h
245 02-09-2006 16:44:04 24.7 C 9.96 g/m*3 24.7 C 0 km/h
246 02-09-2006 16:54:02 24.8 C 10.24 g/m*3 24.8 C 0 km/h
247 02-09-2006 17:04:03 24.9 C 10.53 g/m*3 24.9 C 0 km/h
248 02-09-2006 17:14:03 24.5 C 10.3 g/m*3 24.5 C 0 km/h
249 02-09-2006 17:24:03 24.4 C 10.24 g/m*3 24.4 C 0 km/h
250 02-09-2006 17:34:03 24.3 C 10.18 g/m*3 24.3 C 0 km/h
Sensor: Nr:Datum:Temp:Abs-Feuchte:Windchill:Wind:
Aussen-T/F 251 02-09-2006 17:44:03 24.2 C 10.34 g/m*3 24.2 C 0 km/h
252 02-09-2006 17:54:04 24.1 C 10.28 g/m*3 24.1 C 0 km/h
253 02-09-2006 18:04:03 24 C 10.44 g/m*3 24 C 0 km/h
254 02-09-2006 18:14:03 23.8 C 10.54 g/m*3 23.8 C 0 km/h
255 02-09-2006 18:24:04 23.8 C 10.54 g/m*3 23.8 C 0 km/h
256 02-09-2006 18:34:03 23.7 C 10.91 g/m*3 23.7 C 0 km/h
257 02-09-2006 18:44:03 23.7 C 10.91 g/m*3 23.7 C 0 km/h
258 02-09-2006 18:54:02 23.4 C 9.88 g/m*3 23.4 C 0 km/h
259 02-09-2006 19:04:04 23.3 C 9.83 g/m*3 23.3 C 0 km/h
260 02-09-2006 19:14:04 23.2 C 9.77 g/m*3 23.2 C 0 km/h
261 02-09-2006 19:24:02 22.7 C 9.9 g/m*3 22.7 C 0 km/h
262 02-09-2006 19:34:04 22.7 C 10.1 g/m*3 22.7 C 0 km/h
263 02-09-2006 19:44:04 22.4 C 10.13 g/m*3 22.4 C 0 km/h
264 02-09-2006 19:54:02 22.3 C 9.87 g/m*3 22.3 C 0 km/h
265 02-09-2006 20:04:02 22.3 C 9.87 g/m*3 22.3 C 0 km/h
266 02-09-2006 20:14:02 22.3 C 9.87 g/m*3 22.3 C 0 km/h
267 02-09-2006 20:24:02 21.7 C 10.3 g/m*3 21.7 C 0 km/h
268 02-09-2006 20:34:03 21.4 C 10.12 g/m*3 21.4 C 0 km/h
269 02-09-2006 20:44:03 21.4 C 10.12 g/m*3 21.4 C 0 km/h
270 02-09-2006 20:54:02 21.3 C 10.07 g/m*3 21.3 C 0 km/h
271 02-09-2006 21:04:02 21.4 C 10.12 g/m*3 21.4 C 0 km/h
272 02-09-2006 21:14:02 21.3 C 9.88 g/m*3 21.3 C 0 km/h
273 02-09-2006 21:24:02 21.1 C 9.95 g/m*3 21.1 C 0 km/h
274 02-09-2006 21:34:02 21.1 C 10.13 g/m*3 21.1 C 0 km/h
275 02-09-2006 21:44:02 21 C 10.08 g/m*3 21 C 0 km/h
Sensor: Nr:Datum:Temp:Abs-Feuchte:Windchill:Wind:
Aussen-T/F 276 02-09-2006 21:54:02 21.1 C 9.95 g/m*3 21.1 C 0 km/h
277 02-09-2006 22:04:02 21.1 C 9.95 g/m*3 21.1 C 0 km/h
278 02-09-2006 22:14:02 21 C 9.89 g/m*3 21 C 0 km/h
279 02-09-2006 22:24:02 21 C 10.08 g/m*3 21 C 0 km/h
280 02-09-2006 22:34:03 21 C 10.08 g/m*3 21 C 0 km/h
281 02-09-2006 22:44:03 21 C 10.08 g/m*3 21 C 0 km/h
282 02-09-2006 22:54:03 21 C 10.08 g/m*3 21 C 0 km/h
283 02-09-2006 23:04:02 20.9 C 10.2 g/m*3 20.9 C 0 km/h
284 02-09-2006 23:14:02 20.7 C 10.26 g/m*3 20.7 C 0 km/h
285 02-09-2006 23:24:02 20.6 C 10.2 g/m*3 20.6 C 0 km/h
286 02-09-2006 23:34:03 20.6 C 10.38 g/m*3 20.6 C 0 km/h
287 02-09-2006 23:44:03 20.5 C 10.32 g/m*3 20.5 C 0 km/h
288 02-09-2006 23:54:02 20.5 C 10.32 g/m*3 20.5 C 0 km/h
289 03-09-2006 00:04:02 20.6 C 10.38 g/m*3 20.6 C 0 km/h
290 03-09-2006 00:14:02 20.6 C 10.2 g/m*3 20.6 C 0 km/h
291 03-09-2006 00:24:02 20.6 C 10.2 g/m*3 20.6 C 0 km/h
292 03-09-2006 00:34:03 20.8 C 10.14 g/m*3 20.8 C 0 km/h
293 03-09-2006 00:44:03 20.8 C 10.14 g/m*3 20.8 C 0 km/h
294 03-09-2006 00:54:03 20.8 C 9.96 g/m*3 20.8 C 0 km/h
295 03-09-2006 01:04:03 20.8 C 9.96 g/m*3 20.8 C 0 km/h
296 03-09-2006 01:14:03 20.7 C 9.9 g/m*3 20.7 C 0 km/h
297 03-09-2006 01:24:03 20.6 C 9.84 g/m*3 20.6 C 0 km/h
298 03-09-2006 01:34:03 20.5 C 9.96 g/m*3 20.5 C 0 km/h
299 03-09-2006 01:44:03 20.4 C 10.08 g/m*3 20.4 C 0 km/h
300 03-09-2006 01:54:03 20.4 C 10.08 g/m*3 20.4 C 0 km/h
Sensor: Nr:Datum:Temp:Abs-Feuchte:Windchill:Wind:
Aussen-T/F 301 03-09-2006 02:04:03 20.4 C 10.08 g/m*3 20.4 C 0 km/h
302 03-09-2006 02:14:03 20.4 C 10.08 g/m*3 20.4 C 0 km/h
303 03-09-2006 02:24:03 20.4 C 10.08 g/m*3 20.4 C 0 km/h
304 03-09-2006 02:34:03 20.4 C 10.26 g/m*3 20.4 C 0 km/h
305 03-09-2006 02:44:03 20.4 C 10.26 g/m*3 20.4 C 0 km/h
306 03-09-2006 02:55:04 20.4 C 10.44 g/m*3 20.4 C 0 km/h
307 03-09-2006 03:05:04 20.3 C 10.2 g/m*3 20.3 C 0 km/h
308 03-09-2006 03:15:04 20.2 C 10.32 g/m*3 20.2 C 0 km/h
309 03-09-2006 03:25:04 20.1 C 10.26 g/m*3 20.1 C 0 km/h
310 03-09-2006 03:35:02 20 C 10.2 g/m*3 20 C 0 km/h
311 03-09-2006 03:45:02 20.1 C 10.26 g/m*3 20.1 C 0 km/h
312 03-09-2006 03:55:02 20.1 C 10.26 g/m*3 20.1 C 0 km/h
313 03-09-2006 04:05:02 20 C 10.2 g/m*3 20 C 0 km/h
314 03-09-2006 04:15:02 19.9 C 10.48 g/m*3 19.9 C 0 km/h
315 03-09-2006 04:25:02 19.8 C 10.42 g/m*3 19.8 C 0 km/h
316 03-09-2006 04:35:02 19.8 C 10.59 g/m*3 19.8 C 0 km/h
317 03-09-2006 04:45:03 19.8 C 10.59 g/m*3 19.8 C 0 km/h
318 03-09-2006 04:55:04 19.7 C 10.53 g/m*3 19.7 C 0 km/h
319 03-09-2006 05:05:02 19.6 C 10.47 g/m*3 19.6 C 0 km/h
320 03-09-2006 05:15:03 19.6 C 10.47 g/m*3 19.6 C 0 km/h
321 03-09-2006 05:25:03 19.6 C 10.47 g/m*3 19.6 C 0 km/h
322 03-09-2006 05:35:03 19.5 C 10.41 g/m*3 19.5 C 0 km/h
323 03-09-2006 05:45:01 19.3 C 10.45 g/m*3 19.3 C 0 km/h
324 03-09-2006 05:55:01 19.2 C 10.39 g/m*3 19.2 C 0 km/h
325 03-09-2006 06:05:02 19.2 C 10.55 g/m*3 19.2 C 0 km/h
Sensor: Nr:Datum:Temp:Abs-Feuchte:Windchill:Wind:
Aussen-T/F 326 03-09-2006 06:15:02 19.2 C 10.55 g/m*3 19.2 C 0 km/h
327 03-09-2006 06:25:02 19.1 C 10.49 g/m*3 19.1 C 0 km/h
328 03-09-2006 06:35:02 19 C 10.43 g/m*3 19 C 0 km/h
329 03-09-2006 06:45:02 19.1 C 10.49 g/m*3 19.1 C 0 km/h
330 03-09-2006 06:55:02 19.1 C 10.49 g/m*3 19.1 C 0 km/h
331 03-09-2006 07:05:02 19.1 C 10.49 g/m*3 19.1 C 0 km/h
332 03-09-2006 07:15:02 19.3 C 10.62 g/m*3 19.3 C 0 km/h
333 03-09-2006 07:25:02 19.3 C 10.62 g/m*3 19.3 C 0 km/h
334 03-09-2006 07:35:02 19.5 C 10.74 g/m*3 19.5 C 0 km/h
335 03-09-2006 07:45:02 19.7 C 10.7 g/m*3 19.7 C 0 km/h
336 03-09-2006 07:55:02 19.7 C 10.87 g/m*3 19.7 C 0 km/h
337 03-09-2006 08:05:02 19.9 C 11 g/m*3 19.9 C 0 km/h
338 03-09-2006 08:15:02 20 C 10.89 g/m*3 20 C 0 km/h
339 03-09-2006 08:25:02 20.1 C 10.95 g/m*3 20.1 C 0 km/h
340 03-09-2006 08:35:02 20.1 C 10.95 g/m*3 20.1 C 0 km/h
341 03-09-2006 08:45:02 20.2 C 11.02 g/m*3 20.2 C 0 km/h
342 03-09-2006 08:55:02 20.4 C 11.14 g/m*3 20.4 C 0 km/h
343 03-09-2006 09:05:02 20.4 C 11.14 g/m*3 20.4 C 0 km/h
344 03-09-2006 09:15:02 20.5 C 11.21 g/m*3 20.5 C 0 km/h
345 03-09-2006 09:25:02 20.8 C 11.41 g/m*3 20.8 C 0 km/h
346 03-09-2006 09:35:02 20.8 C 11.41 g/m*3 20.8 C 0 km/h
347 03-09-2006 09:45:02 20.7 C 11.34 g/m*3 20.7 C 0 km/h
348 03-09-2006 09:55:02 20.6 C 11.28 g/m*3 20.6 C 0 km/h
349 03-09-2006 10:05:02 20.6 C 11.45 g/m*3 20.6 C 0 km/h
350 03-09-2006 10:15:02 20.6 C 11.45 g/m*3 20.6 C 0 km/h
Sensor: Nr:Datum:Temp:Abs-Feuchte:Windchill:Wind:
Aussen-T/F 351 03-09-2006 10:25:02 20.9 C 11.66 g/m*3 20.9 C 0 km/h
352 03-09-2006 10:35:03 21.1 C 11.42 g/m*3 21.1 C 0 km/h
353 03-09-2006 10:45:01 21.3 C 11.56 g/m*3 21.3 C 0 km/h
354 03-09-2006 10:55:01 21.2 C 11.49 g/m*3 21.2 C 0 km/h
355 03-09-2006 11:05:02 21.2 C 11.68 g/m*3 21.2 C 0 km/h
356 03-09-2006 11:15:02 21.3 C 11.93 g/m*3 21.3 C 0 km/h
357 03-09-2006 11:25:02 21.2 C 11.68 g/m*3 21.2 C 0 km/h
358 03-09-2006 11:35:01 21.2 C 11.86 g/m*3 21.2 C 0 km/h
359 03-09-2006 11:45:02 21.2 C 12.05 g/m*3 21.2 C 0 km/h
360 03-09-2006 11:55:02 21.6 C 12.33 g/m*3 21.6 C 0 km/h
361 03-09-2006 12:05:03 21.6 C 12.14 g/m*3 21.6 C 0 km/h
362 03-09-2006 12:15:03 21.6 C 12.14 g/m*3 21.6 C 0 km/h
363 03-09-2006 12:25:03 21.6 C 12.33 g/m*3 21.6 C 0 km/h
364 03-09-2006 12:35:03 21.7 C 12.4 g/m*3 21.7 C 0 km/h
365 03-09-2006 12:45:02 22.2 C 12.17 g/m*3 22.2 C 0 km/h
366 03-09-2006 12:55:02 22 C 12.03 g/m*3 22 C 0 km/h
367 03-09-2006 13:05:03 22.4 C 12.31 g/m*3 22.4 C 0 km/h
368 03-09-2006 13:15:02 23 C 12.33 g/m*3 23 C 0 km/h
369 03-09-2006 13:25:02 23 C 11.92 g/m*3 23 C 0 km/h
370 03-09-2006 13:35:02 23.3 C 12.34 g/m*3 23.3 C 0 km/h
371 03-09-2006 13:45:02 23.5 C 12.27 g/m*3 23.5 C 0 km/h
372 03-09-2006 13:55:02 23.4 C 12.2 g/m*3 23.4 C 0 km/h
373 03-09-2006 14:05:03 23.3 C 12.55 g/m*3 23.3 C 0 km/h
374 03-09-2006 14:15:02 23.7 C 12.83 g/m*3 23.7 C 0 km/h
375 03-09-2006 14:25:02 23.5 C 12.69 g/m*3 23.5 C 0 km/h
Sensor: Nr:Datum:Temp:Abs-Feuchte:Windchill:Wind:
Aussen-T/F 376 03-09-2006 14:35:02 23.5 C 12.9 g/m*3 23.5 C 0 km/h
377 03-09-2006 14:45:02 23.9 C 12.76 g/m*3 23.9 C 0 km/h
378 03-09-2006 14:55:02 23.4 C 12.83 g/m*3 23.4 C 0 km/h
379 03-09-2006 15:05:02 23.2 C 12.89 g/m*3 23.2 C 0 km/h
380 03-09-2006 15:15:03 23.3 C 12.96 g/m*3 23.3 C 0 km/h
381 03-09-2006 15:25:03 23.5 C 13.11 g/m*3 23.5 C 0 km/h
382 03-09-2006 15:35:02 23.4 C 13.04 g/m*3 23.4 C 0 km/h
383 03-09-2006 15:45:02 23.5 C 12.9 g/m*3 23.5 C 0 km/h
384 03-09-2006 15:55:02 23.7 C 13.26 g/m*3 23.7 C 0 km/h
385 03-09-2006 16:05:03 24.1 C 12.69 g/m*3 24.1 C 0 km/h
386 03-09-2006 16:15:02 24.5 C 13.2 g/m*3 24.5 C 0 km/h
387 03-09-2006 16:25:02 24.9 C 13.28 g/m*3 24.9 C 0 km/h
388 03-09-2006 16:35:02 25.6 C 12.86 g/m*3 25.6 C 0 km/h
389 03-09-2006 16:45:02 25.6 C 13.09 g/m*3 25.6 C 0 km/h
390 03-09-2006 16:55:02 25.3 C 12.88 g/m*3 25.3 C 0 km/h
391 03-09-2006 17:05:02 26.3 C 13.12 g/m*3 26.3 C 0 km/h
392 03-09-2006 17:15:01 25.2 C 12.8 g/m*3 25.2 C 0 km/h
393 03-09-2006 17:25:01 25.2 C 13.04 g/m*3 25.2 C 0 km/h
394 03-09-2006 17:35:01 25 C 12.89 g/m*3 25 C 0 km/h
395 03-09-2006 17:45:03 24.6 C 13.28 g/m*3 24.6 C 0 km/h
396 03-09-2006 17:55:03 24.8 C 13.43 g/m*3 24.8 C 0 km/h
397 03-09-2006 18:05:03 24.5 C 13.43 g/m*3 24.5 C 0 km/h
398 03-09-2006 18:15:02 24.1 C 13.57 g/m*3 24.1 C 0 km/h
399 03-09-2006 18:25:02 24.5 C 13.65 g/m*3 24.5 C 0 km/h
400 03-09-2006 18:35:03 24.3 C 13.5 g/m*3 24.3 C 0 km/h
Sensor: Nr:Datum:Temp:Abs-Feuchte:Windchill:Wind:
Aussen-T/F 401 03-09-2006 18:45:02 24.4 C 13.58 g/m*3 24.4 C 0 km/h
402 03-09-2006 18:55:02 24.1 C 13.57 g/m*3 24.1 C 0 km/h
403 03-09-2006 19:06:54 24.4 C 13.8 g/m*3 24.4 C 0 km/h
404 03-09-2006 19:16:54 23.8 C 13.98 g/m*3 23.8 C 0 km/h
405 03-09-2006 19:26:54 23.6 C 14.04 g/m*3 23.6 C 0 km/h
406 03-09-2006 19:36:54 23.4 C 13.88 g/m*3 23.4 C 0 km/h
407 03-09-2006 19:46:54 23.4 C 13.88 g/m*3 23.4 C 0 km/h
408 03-09-2006 19:56:55 23.3 C 14.01 g/m*3 23.3 C 0 km/h
409 03-09-2006 20:06:55 23.3 C 14.01 g/m*3 23.3 C 0 km/h
410 03-09-2006 20:16:55 23.3 C 14.01 g/m*3 23.3 C 0 km/h
411 03-09-2006 20:26:55 23.3 C 14.01 g/m*3 23.3 C 0 km/h
412 03-09-2006 20:36:55 23.2 C 14.14 g/m*3 23.2 C 0 km/h
413 03-09-2006 20:46:55 23.1 C 14.06 g/m*3 23.1 C 0 km/h
414 03-09-2006 20:56:55 23 C 14.39 g/m*3 23 C 0 km/h
415 03-09-2006 21:06:55 22.9 C 14.51 g/m*3 22.9 C 0 km/h
416 03-09-2006 21:16:55 22.9 C 14.71 g/m*3 22.9 C 0 km/h
417 03-09-2006 21:26:55 22.4 C 14.89 g/m*3 22.4 C 0 km/h
418 03-09-2006 21:36:55 22.1 C 15.23 g/m*3 22.1 C 0 km/h
419 03-09-2006 21:46:55 21.8 C 15.54 g/m*3 21.8 C 0 km/h
420 03-09-2006 21:56:55 21.7 C 15.64 g/m*3 21.7 C 0 km/h
421 03-09-2006 22:06:55 21.6 C 15.55 g/m*3 21.6 C 0 km/h
422 03-09-2006 22:16:55 21.6 C 15.55 g/m*3 21.6 C 0 km/h
423 03-09-2006 22:26:55 21.9 C 15.63 g/m*3 21.9 C 0 km/h
424 03-09-2006 22:36:55 22 C 15.53 g/m*3 22 C 0 km/h
425 03-09-2006 22:46:56 21.9 C 15.44 g/m*3 21.9 C 0 km/h
Sensor: Nr:Datum:Temp:Abs-Feuchte:Windchill:Wind:
Aussen-T/F 426 03-09-2006 22:56:56 22 C 15.33 g/m*3 22 C 0 km/h
427 03-09-2006 23:06:56 21.9 C 15.24 g/m*3 21.9 C 0 km/h
428 03-09-2006 23:16:56 21.9 C 15.24 g/m*3 21.9 C 0 km/h
429 03-09-2006 23:26:56 22.1 C 15.23 g/m*3 22.1 C 0 km/h
430 03-09-2006 23:36:56 22.1 C 15.03 g/m*3 22.1 C 0 km/h
431 03-09-2006 23:46:56 22.1 C 15.03 g/m*3 22.1 C 0 km/h
432 03-09-2006 23:56:56 22.1 C 15.03 g/m*3 22.1 C 0 km/h
433 04-09-2006 00:06:56 22.3 C 15.01 g/m*3 22.3 C 0 km/h
434 04-09-2006 00:16:56 22.2 C 14.92 g/m*3 22.2 C 0 km/h
435 04-09-2006 00:26:56 22 C 14.75 g/m*3 22 C 0 km/h
436 04-09-2006 00:36:56 21.9 C 15.05 g/m*3 21.9 C 0 km/h
437 04-09-2006 00:46:56 21.8 C 14.97 g/m*3 21.8 C 0 km/h
438 04-09-2006 00:56:56 21.8 C 14.97 g/m*3 21.8 C 0 km/h
439 04-09-2006 01:06:56 21.6 C 14.79 g/m*3 21.6 C 0 km/h
440 04-09-2006 01:16:56 21.4 C 14.81 g/m*3 21.4 C 0 km/h
441 04-09-2006 01:26:56 21.5 C 14.9 g/m*3 21.5 C 0 km/h
442 04-09-2006 01:36:57 21.6 C 14.79 g/m*3 21.6 C 0 km/h
443 04-09-2006 01:46:57 21.6 C 14.6 g/m*3 21.6 C 0 km/h
444 04-09-2006 01:56:57 21.5 C 14.71 g/m*3 21.5 C 0 km/h
445 04-09-2006 02:06:57 21.4 C 14.62 g/m*3 21.4 C 0 km/h
446 04-09-2006 02:16:57 21.3 C 14.17 g/m*3 21.3 C 0 km/h
447 04-09-2006 02:26:57 21 C 13.56 g/m*3 21 C 0 km/h
448 04-09-2006 02:36:57 20.9 C 13.3 g/m*3 20.9 C 0 km/h
449 04-09-2006 02:46:57 20.8 C 13.22 g/m*3 20.8 C 0 km/h
450 04-09-2006 02:56:57 20.9 C 12.38 g/m*3 20.9 C 0 km/h
Sensor: Nr:Datum:Temp:Abs-Feuchte:Windchill:Wind:
Aussen-T/F 451 04-09-2006 03:06:57 21.1 C 11.79 g/m*3 21.1 C 0 km/h
452 04-09-2006 03:16:57 21 C 11.54 g/m*3 21 C 0 km/h
453 04-09-2006 03:26:57 21 C 11.36 g/m*3 21 C 0 km/h
454 04-09-2006 03:36:57 20.8 C 11.41 g/m*3 20.8 C 0 km/h
455 04-09-2006 03:46:57 20.8 C 11.41 g/m*3 20.8 C 0 km/h
456 04-09-2006 03:56:57 20.6 C 11.1 g/m*3 20.6 C 0 km/h
457 04-09-2006 04:06:57 20.6 C 10.92 g/m*3 20.6 C 0 km/h
458 04-09-2006 04:16:57 20.5 C 10.68 g/m*3 20.5 C 0 km/h
459 04-09-2006 04:26:58 20.4 C 10.26 g/m*3 20.4 C 0 km/h
460 04-09-2006 04:36:58 20.4 C 10.26 g/m*3 20.4 C 0 km/h
461 04-09-2006 04:46:58 20.2 C 10.14 g/m*3 20.2 C 0 km/h
462 04-09-2006 04:56:58 20 C 10.2 g/m*3 20 C 0 km/h
463 04-09-2006 05:06:58 20 C 10.2 g/m*3 20 C 0 km/h
464 04-09-2006 05:16:58 19.9 C 10.48 g/m*3 19.9 C 0 km/h
465 04-09-2006 05:26:58 19.7 C 10.36 g/m*3 19.7 C 0 km/h
466 04-09-2006 05:36:58 19.5 C 10.57 g/m*3 19.5 C 0 km/h
467 04-09-2006 05:46:58 19.3 C 10.45 g/m*3 19.3 C 0 km/h
468 04-09-2006 05:56:58 19.2 C 10.39 g/m*3 19.2 C 0 km/h
469 04-09-2006 06:06:58 19.1 C 10.33 g/m*3 19.1 C 0 km/h
470 04-09-2006 06:16:58 19 C 10.43 g/m*3 19 C 0 km/h
471 04-09-2006 06:26:58 18.8 C 10.63 g/m*3 18.8 C 0 km/h
472 04-09-2006 06:36:58 18.5 C 10.76 g/m*3 18.5 C 0 km/h
473 04-09-2006 06:46:58 18.5 C 10.92 g/m*3 18.5 C 0 km/h
474 04-09-2006 06:56:58 18.5 C 10.92 g/m*3 18.5 C 0 km/h
475 04-09-2006 07:06:58 18.5 C 10.92 g/m*3 18.5 C 0 km/h
Sensor: Nr:Datum:Temp:Abs-Feuchte:Windchill:Wind:
Aussen-T/F 476 04-09-2006 07:16:59 18.5 C 11.08 g/m*3 18.5 C 0 km/h
477 04-09-2006 07:26:59 18.5 C 10.92 g/m*3 18.5 C 0 km/h
478 04-09-2006 07:36:59 18.6 C 10.66 g/m*3 18.6 C 0 km/h
479 04-09-2006 07:46:59 18.9 C 10.69 g/m*3 18.9 C 0 km/h
480 04-09-2006 07:56:59 19.1 C 10.49 g/m*3 19.1 C 0 km/h
481 04-09-2006 08:06:59 19.2 C 10.72 g/m*3 19.2 C 0 km/h
482 04-09-2006 08:16:59 19.3 C 10.62 g/m*3 19.3 C 0 km/h
483 04-09-2006 08:26:59 19.4 C 10.51 g/m*3 19.4 C 0 km/h
484 04-09-2006 08:36:01 19.5 C 10.57 g/m*3 19.5 C 0 km/h
485 04-09-2006 08:46:03 19.4 C 10.51 g/m*3 19.4 C 0 km/h
486 04-09-2006 08:56:03 19.5 C 10.41 g/m*3 19.5 C 0 km/h
487 04-09-2006 09:06:03 19.6 C 10.47 g/m*3 19.6 C 0 km/h
488 04-09-2006 09:16:02 19.6 C 10.47 g/m*3 19.6 C 0 km/h
489 04-09-2006 09:26:02 19.9 C 10.65 g/m*3 19.9 C 0 km/h
490 04-09-2006 09:36:02 20.4 C 10.61 g/m*3 20.4 C 0 km/h
491 04-09-2006 09:46:02 20.5 C 10.5 g/m*3 20.5 C 0 km/h
492 04-09-2006 09:56:02 20.6 C 10.56 g/m*3 20.6 C 0 km/h
493 04-09-2006 10:06:02 20.9 C 10.38 g/m*3 20.9 C 0 km/h
494 04-09-2006 10:16:02 21 C 10.08 g/m*3 21 C 0 km/h
495 04-09-2006 10:26:02 21 C 10.08 g/m*3 21 C 0 km/h
496 04-09-2006 10:36:02 21.1 C 10.13 g/m*3 21.1 C 0 km/h
497 04-09-2006 10:46:02 21.2 C 9.82 g/m*3 21.2 C 0 km/h
498 04-09-2006 10:56:02 21.8 C 10.17 g/m*3 21.8 C 0 km/h
499 04-09-2006 11:06:01 21.9 C 9.84 g/m*3 21.9 C 0 km/h
500 04-09-2006 11:16:01 22.3 C 9.68 g/m*3 22.3 C 0 km/h
Sensor: Nr:Datum:Temp:Abs-Feuchte:Windchill:Wind:
Aussen-T/F 501 04-09-2006 11:26:01 22.6 C 9.64 g/m*3 22.6 C 0 km/h
502 04-09-2006 11:36:02 22.1 C 9.56 g/m*3 22.1 C 0 km/h
503 04-09-2006 11:46:02 22.7 C 9.9 g/m*3 22.7 C 0 km/h
504 04-09-2006 11:56:02 22.9 C 9.61 g/m*3 22.9 C 0 km/h
505 04-09-2006 12:06:02 22.9 C 9.4 g/m*3 22.9 C 0 km/h
506 04-09-2006 12:16:02 23.1 C 9.1 g/m*3 23.1 C 0 km/h
507 04-09-2006 12:26:03 23.5 C 9.09 g/m*3 23.5 C 0 km/h
508 04-09-2006 12:36:02 23.3 C 9.62 g/m*3 23.3 C 0 km/h
509 04-09-2006 12:46:02 23.5 C 9.09 g/m*3 23.5 C 0 km/h
510 04-09-2006 12:56:02 23.3 C 9.2 g/m*3 23.3 C 0 km/h
511 04-09-2006 13:06:02 23.3 C 8.57 g/m*3 23.3 C 0 km/h
512 04-09-2006 13:16:02 23.1 C 8.68 g/m*3 23.1 C 0 km/h
513 04-09-2006 13:26:02 24.3 C 8.63 g/m*3 24.3 C 0 km/h
514 04-09-2006 13:36:02 24.6 C 8.55 g/m*3 24.6 C 0 km/h
515 04-09-2006 13:46:02 24.7 C 8.83 g/m*3 24.7 C 0 km/h
516 04-09-2006 13:56:02 24.4 C 8.9 g/m*3 24.4 C 0 km/h
517 04-09-2006 14:06:02 24.5 C 8.73 g/m*3 24.5 C 0 km/h
518 04-09-2006 14:16:02 24.6 C 9 g/m*3 24.6 C 0 km/h
519 04-09-2006 14:26:02 24.9 C 8.93 g/m*3 24.9 C 0 km/h
520 04-09-2006 14:36:02 25.3 C 8.9 g/m*3 25.3 C 0 km/h
521 04-09-2006 14:46:02 25 C 8.29 g/m*3 25 C 0 km/h
522 04-09-2006 14:56:02 24.9 C 8.47 g/m*3 24.9 C 0 km/h
523 04-09-2006 15:06:02 25 C 8.06 g/m*3 25 C 0 km/h
524 04-09-2006 15:16:02 25.1 C 8.1 g/m*3 25.1 C 0 km/h
525 04-09-2006 15:26:02 25 C 8.06 g/m*3 25 C 0 km/h
Sensor: Nr:Datum:Temp:Abs-Feuchte:Windchill:Wind:
Aussen-T/F 526 04-09-2006 15:36:02 25.3 C 8.19 g/m*3 25.3 C 0 km/h
527 04-09-2006 15:46:02 25.6 C 8.33 g/m*3 25.6 C 0 km/h
528 04-09-2006 15:56:02 25.8 C 8.19 g/m*3 25.8 C 0 km/h
529 04-09-2006 16:06:02 25.8 C 8.19 g/m*3 25.8 C 0 km/h
530 04-09-2006 16:16:02 26.3 C 7.67 g/m*3 26.3 C 0 km/h
531 04-09-2006 16:26:02 26.9 C 8.19 g/m*3 26.9 C 0 km/h
532 04-09-2006 16:36:03 27.4 C 7.89 g/m*3 27.4 C 0 km/h
533 04-09-2006 16:46:02 26.6 C 8.05 g/m*3 26.6 C 0 km/h
534 04-09-2006 16:56:02 27.4 C 8.16 g/m*3 27.4 C 0 km/h
535 04-09-2006 17:06:02 26.1 C 7.83 g/m*3 26.1 C 0 km/h
536 04-09-2006 17:16:02 26.1 C 8.32 g/m*3 26.1 C 0 km/h
537 04-09-2006 17:26:02 26 C 8.03 g/m*3 26 C 0 km/h
538 04-09-2006 17:36:03 25.6 C 8.33 g/m*3 25.6 C 0 km/h
539 04-09-2006 17:46:02 24.8 C 8.19 g/m*3 24.8 C 0 km/h
540 04-09-2006 17:56:02 24.9 C 8.24 g/m*3 24.9 C 0 km/h
541 04-09-2006 18:06:02 25.4 C 8 g/m*3 25.4 C 0 km/h
542 04-09-2006 18:16:02 25.8 C 7.94 g/m*3 25.8 C 0 km/h
543 04-09-2006 18:26:02 25.4 C 8.24 g/m*3 25.4 C 0 km/h
544 04-09-2006 18:36:02 24.7 C 8.15 g/m*3 24.7 C 0 km/h
545 04-09-2006 18:46:02 24.6 C 8.33 g/m*3 24.6 C 0 km/h
546 04-09-2006 18:56:02 24.5 C 8.28 g/m*3 24.5 C 0 km/h
547 04-09-2006 19:06:02 24.3 C 8.63 g/m*3 24.3 C 0 km/h
548 04-09-2006 19:16:01 24.1 C 8.75 g/m*3 24.1 C 0 km/h
549 04-09-2006 19:26:01 24.5 C 8.73 g/m*3 24.5 C 0 km/h
550 04-09-2006 19:36:02 24.1 C 8.75 g/m*3 24.1 C 0 km/h
Sensor: Nr:Datum:Temp:Abs-Feuchte:Windchill:Wind:
Aussen-T/F 551 04-09-2006 19:46:02 23.7 C 8.98 g/m*3 23.7 C 0 km/h
552 04-09-2006 19:56:03 23.3 C 9.2 g/m*3 23.3 C 0 km/h
553 04-09-2006 20:06:01 23 C 8.84 g/m*3 23 C 0 km/h
554 04-09-2006 20:16:02 22.8 C 9.14 g/m*3 22.8 C 0 km/h
555 04-09-2006 20:26:02 22.7 C 9.09 g/m*3 22.7 C 0 km/h
556 04-09-2006 20:36:02 22.4 C 9.14 g/m*3 22.4 C 0 km/h
557 04-09-2006 20:46:02 22.1 C 8.98 g/m*3 22.1 C 0 km/h
558 04-09-2006 20:56:02 21.9 C 9.26 g/m*3 21.9 C 0 km/h
559 04-09-2006 21:06:02 21.8 C 9.21 g/m*3 21.8 C 0 km/h
560 04-09-2006 21:16:02 21.7 C 9.35 g/m*3 21.7 C 0 km/h
561 04-09-2006 21:26:02 21.7 C 9.35 g/m*3 21.7 C 0 km/h
562 04-09-2006 21:36:02 21.2 C 9.45 g/m*3 21.2 C 0 km/h
563 04-09-2006 21:46:02 21.4 C 9.37 g/m*3 21.4 C 0 km/h
564 04-09-2006 21:56:02 21.4 C 9.37 g/m*3 21.4 C 0 km/h
565 04-09-2006 22:06:01 21.4 C 9.37 g/m*3 21.4 C 0 km/h
566 04-09-2006 22:16:02 21.3 C 9.32 g/m*3 21.3 C 0 km/h
567 04-09-2006 22:26:02 21.2 C 9.45 g/m*3 21.2 C 0 km/h
568 04-09-2006 22:36:02 20.9 C 9.65 g/m*3 20.9 C 0 km/h
569 04-09-2006 22:46:02 20.6 C 9.66 g/m*3 20.6 C 0 km/h
570 04-09-2006 22:56:02 20.3 C 9.85 g/m*3 20.3 C 0 km/h
571 04-09-2006 23:06:02 20.2 C 9.79 g/m*3 20.2 C 0 km/h
572 04-09-2006 23:16:02 20 C 9.85 g/m*3 20 C 0 km/h
573 04-09-2006 23:26:02 19.8 C 9.91 g/m*3 19.8 C 0 km/h
574 04-09-2006 23:36:02 19.7 C 10.02 g/m*3 19.7 C 0 km/h
575 04-09-2006 23:46:02 19.5 C 10.07 g/m*3 19.5 C 0 km/h
Sensor: Nr:Datum:Temp:Abs-Feuchte:Windchill:Wind:
Aussen-T/F 576 04-09-2006 23:56:02 19.5 C 10.07 g/m*3 19.5 C 0 km/h
577 05-09-2006 00:06:02 19.2 C 10.06 g/m*3 19.2 C 0 km/h
578 05-09-2006 00:16:02 19.1 C 10.16 g/m*3 19.1 C 0 km/h
579 05-09-2006 00:26:02 19 C 10.1 g/m*3 19 C 0 km/h
580 05-09-2006 00:36:03 18.8 C 10.31 g/m*3 18.8 C 0 km/h
581 05-09-2006 00:46:03 18.6 C 10.35 g/m*3 18.6 C 0 km/h
582 05-09-2006 00:56:03 18.4 C 10.38 g/m*3 18.4 C 0 km/h
583 05-09-2006 01:06:03 18.3 C 10.32 g/m*3 18.3 C 0 km/h
584 05-09-2006 01:16:03 18.3 C 10.32 g/m*3 18.3 C 0 km/h
585 05-09-2006 01:26:03 18.2 C 10.41 g/m*3 18.2 C 0 km/h
586 05-09-2006 01:36:03 18.1 C 10.51 g/m*3 18.1 C 0 km/h
587 05-09-2006 01:46:01 17.8 C 10.62 g/m*3 17.8 C 0 km/h
588 05-09-2006 01:56:01 17.8 C 10.62 g/m*3 17.8 C 0 km/h
589 05-09-2006 02:06:01 17.7 C 10.56 g/m*3 17.7 C 0 km/h
590 05-09-2006 02:16:02 17.7 C 10.71 g/m*3 17.7 C 0 km/h
591 05-09-2006 02:26:02 17.7 C 10.71 g/m*3 17.7 C 0 km/h
592 05-09-2006 02:36:01 17.5 C 10.59 g/m*3 17.5 C 0 km/h
593 05-09-2006 02:47:03 17.3 C 10.61 g/m*3 17.3 C 0 km/h
594 05-09-2006 02:57:04 17.2 C 10.69 g/m*3 17.2 C 0 km/h
595 05-09-2006 03:07:04 17 C 10.56 g/m*3 17 C 0 km/h
596 05-09-2006 03:17:04 16.9 C 10.64 g/m*3 16.9 C 0 km/h
597 05-09-2006 03:27:04 16.6 C 10.45 g/m*3 16.6 C 0 km/h
598 05-09-2006 03:37:01 16.6 C 10.31 g/m*3 16.6 C 0 km/h
599 05-09-2006 03:47:01 16.4 C 10.19 g/m*3 16.4 C 0 km/h
600 05-09-2006 03:57:01 16.2 C 10.07 g/m*3 16.2 C 0 km/h
Sensor: Nr:Datum:Temp:Abs-Feuchte:Windchill:Wind:
Aussen-T/F 601 05-09-2006 04:07:01 16.1 C 10.14 g/m*3 16.1 C 0 km/h
602 05-09-2006 04:17:02 15.7 C 10.57 g/m*3 15.7 C 0 km/h
603 05-09-2006 04:27:02 15.6 C 10.64 g/m*3 15.6 C 0 km/h
604 05-09-2006 04:37:02 15.5 C 10.57 g/m*3 15.5 C 0 km/h
605 05-09-2006 04:47:02 15.4 C 10.51 g/m*3 15.4 C 0 km/h
606 05-09-2006 04:57:02 15.3 C 10.32 g/m*3 15.3 C 0 km/h
607 05-09-2006 05:07:03 15.3 C 10.45 g/m*3 15.3 C 0 km/h
608 05-09-2006 05:17:03 15.1 C 10.58 g/m*3 15.1 C 0 km/h
609 05-09-2006 05:27:03 15 C 10.51 g/m*3 15 C 0 km/h
610 05-09-2006 05:37:03 14.9 C 10.58 g/m*3 14.9 C 0 km/h
611 05-09-2006 05:47:02 14.8 C 10.51 g/m*3 14.8 C 0 km/h
612 05-09-2006 05:57:02 14.6 C 10.26 g/m*3 14.6 C 0 km/h
613 05-09-2006 06:07:02 14.6 C 10.26 g/m*3 14.6 C 0 km/h
614 05-09-2006 06:17:02 14.6 C 10.39 g/m*3 14.6 C 0 km/h
615 05-09-2006 06:27:02 14.5 C 10.32 g/m*3 14.5 C 0 km/h
616 05-09-2006 06:37:02 14.4 C 10.26 g/m*3 14.4 C 0 km/h
617 05-09-2006 06:47:02 14.2 C 10.26 g/m*3 14.2 C 0 km/h
618 05-09-2006 06:57:02 14.2 C 10.38 g/m*3 14.2 C 0 km/h
619 05-09-2006 07:07:02 14.1 C 10.32 g/m*3 14.1 C 0 km/h
620 05-09-2006 07:17:02 14.1 C 10.32 g/m*3 14.1 C 0 km/h
621 05-09-2006 07:27:02 14.1 C 10.32 g/m*3 14.1 C 0 km/h
622 05-09-2006 07:37:02 14.1 C 10.44 g/m*3 14.1 C 0 km/h
623 05-09-2006 07:47:02 14.1 C 10.44 g/m*3 14.1 C 0 km/h
624 05-09-2006 07:57:02 14 C 10.25 g/m*3 14 C 0 km/h
625 05-09-2006 08:07:02 14.2 C 10.38 g/m*3 14.2 C 0 km/h
Sensor: Nr:Datum:Temp:Abs-Feuchte:Windchill:Wind:
Aussen-T/F 626 05-09-2006 08:17:02 14.3 C 10.44 g/m*3 14.3 C 0 km/h
627 05-09-2006 08:27:02 14.4 C 10.51 g/m*3 14.4 C 0 km/h
628 05-09-2006 08:37:02 14.6 C 10.64 g/m*3 14.6 C 0 km/h
629 05-09-2006 08:47:02 14.8 C 10.77 g/m*3 14.8 C 0 km/h
630 05-09-2006 08:57:02 15.1 C 10.71 g/m*3 15.1 C 0 km/h
631 05-09-2006 09:07:02 15.3 C 10.84 g/m*3 15.3 C 0 km/h
632 05-09-2006 09:17:02 16 C 11.04 g/m*3 16 C 0 km/h
633 05-09-2006 09:27:02 16.6 C 10.74 g/m*3 16.6 C 0 km/h
634 05-09-2006 09:37:02 17.1 C 10.77 g/m*3 17.1 C 0 km/h
635 05-09-2006 09:47:02 17 C 10.71 g/m*3 17 C 0 km/h
636 05-09-2006 09:57:02 17.4 C 10.97 g/m*3 17.4 C 0 km/h
637 05-09-2006 10:07:02 18.1 C 11.12 g/m*3 18.1 C 0 km/h
638 05-09-2006 10:17:02 17.9 C 10.99 g/m*3 17.9 C 0 km/h
639 05-09-2006 10:27:02 18 C 10.91 g/m*3 18 C 0 km/h
640 05-09-2006 10:37:02 18.3 C 11.1 g/m*3 18.3 C 0 km/h
641 05-09-2006 10:47:03 18.7 C 11.21 g/m*3 18.7 C 0 km/h
642 05-09-2006 10:57:03 18.7 C 11.21 g/m*3 18.7 C 0 km/h
643 05-09-2006 11:07:03 19.6 C 11.14 g/m*3 19.6 C 0 km/h
644 05-09-2006 11:17:03 19.6 C 10.97 g/m*3 19.6 C 0 km/h
645 05-09-2006 11:27:03 20.3 C 11.08 g/m*3 20.3 C 0 km/h
646 05-09-2006 11:37:03 21.2 C 10.56 g/m*3 21.2 C 0 km/h
647 05-09-2006 11:47:03 21.5 C 10.37 g/m*3 21.5 C 0 km/h
648 05-09-2006 11:57:03 21.6 C 10.24 g/m*3 21.6 C 0 km/h
649 05-09-2006 12:07:03 21.5 C 10.18 g/m*3 21.5 C 0 km/h
650 05-09-2006 12:17:03 21.7 C 10.49 g/m*3 21.7 C 0 km/h
Sensor: Nr:Datum:Temp:Abs-Feuchte:Windchill:Wind:
Aussen-T/F 651 05-09-2006 12:27:03 22.1 C 9.96 g/m*3 22.1 C 0 km/h
652 05-09-2006 12:37:02 22.5 C 10.39 g/m*3 22.5 C 0 km/h
653 05-09-2006 12:47:03 22.8 C 10.16 g/m*3 22.8 C 0 km/h
654 05-09-2006 12:57:03 22.8 C 10.16 g/m*3 22.8 C 0 km/h
655 05-09-2006 13:07:05 23.5 C 9.94 g/m*3 23.5 C 0 km/h
656 05-09-2006 13:17:03 23.6 C 9.78 g/m*3 23.6 C 0 km/h
657 05-09-2006 13:27:03 23.5 C 9.73 g/m*3 23.5 C 0 km/h
658 05-09-2006 13:37:02 23.5 C 9.73 g/m*3 23.5 C 0 km/h
659 05-09-2006 13:47:02 23.5 C 9.73 g/m*3 23.5 C 0 km/h
660 05-09-2006 13:57:02 24.9 C 9.84 g/m*3 24.9 C 0 km/h
661 05-09-2006 14:07:02 25.8 C 9.63 g/m*3 25.8 C 0 km/h
662 05-09-2006 14:17:02 26.6 C 9.82 g/m*3 26.6 C 0 km/h
663 05-09-2006 14:27:02 27.3 C 9.68 g/m*3 27.3 C 0 km/h
664 05-09-2006 14:37:02 26.1 C 9.79 g/m*3 26.1 C 0 km/h
665 05-09-2006 14:47:02 26 C 9.74 g/m*3 26 C 0 km/h
666 05-09-2006 14:57:02 26 C 9.74 g/m*3 26 C 0 km/h
667 05-09-2006 15:07:02 26.6 C 10.07 g/m*3 26.6 C 0 km/h
668 05-09-2006 15:17:02 26.9 C 10.49 g/m*3 26.9 C 0 km/h
669 05-09-2006 15:27:02 27.3 C 9.68 g/m*3 27.3 C 0 km/h
670 05-09-2006 15:37:01 27.9 C 10.01 g/m*3 27.9 C 0 km/h
671 05-09-2006 15:47:02 27 C 10.81 g/m*3 27 C 0 km/h
672 05-09-2006 15:57:02 25.9 C 10.89 g/m*3 25.9 C 0 km/h
673 05-09-2006 16:07:02 25.3 C 11.24 g/m*3 25.3 C 0 km/h
674 05-09-2006 16:17:02 25.2 C 11.17 g/m*3 25.2 C 0 km/h
675 05-09-2006 16:27:02 25.4 C 11.77 g/m*3 25.4 C 0 km/h
Sensor: Nr:Datum:Temp:Abs-Feuchte:Windchill:Wind:
Aussen-T/F 676 05-09-2006 16:37:02 25.4 C 11.77 g/m*3 25.4 C 0 km/h
677 05-09-2006 16:47:03 25.1 C 11.57 g/m*3 25.1 C 0 km/h
678 05-09-2006 16:57:03 25 C 11.97 g/m*3 25 C 0 km/h
679 05-09-2006 17:07:04 25.1 C 12.04 g/m*3 25.1 C 0 km/h
680 05-09-2006 17:17:03 25.8 C 11.8 g/m*3 25.8 C 0 km/h
681 05-09-2006 17:27:03 25.9 C 11.38 g/m*3 25.9 C 0 km/h
682 05-09-2006 17:37:02 26 C 10.96 g/m*3 26 C 0 km/h
683 05-09-2006 17:47:02 26 C 10.96 g/m*3 26 C 0 km/h
684 05-09-2006 17:57:02 25.8 C 11.56 g/m*3 25.8 C 0 km/h
685 05-09-2006 18:07:02 25.9 C 11.86 g/m*3 25.9 C 0 km/h
686 05-09-2006 18:17:02 25.9 C 11.86 g/m*3 25.9 C 0 km/h
687 05-09-2006 18:27:02 25.4 C 11.77 g/m*3 25.4 C 0 km/h
688 05-09-2006 18:37:02 25 C 11.97 g/m*3 25 C 0 km/h
689 05-09-2006 18:47:02 25.5 C 11.84 g/m*3 25.5 C 0 km/h
690 05-09-2006 18:57:02 25.8 C 12.04 g/m*3 25.8 C 0 km/h
691 05-09-2006 19:07:02 25.6 C 12.14 g/m*3 25.6 C 0 km/h
692 05-09-2006 19:17:02 25.2 C 12.11 g/m*3 25.2 C 0 km/h
693 05-09-2006 19:27:02 24.9 C 12.13 g/m*3 24.9 C 0 km/h
694 05-09-2006 19:37:02 23.9 C 12.33 g/m*3 23.9 C 0 km/h
695 05-09-2006 19:47:02 23.5 C 12.48 g/m*3 23.5 C 0 km/h
696 05-09-2006 19:57:02 23.5 C 12.48 g/m*3 23.5 C 0 km/h
697 05-09-2006 20:07:02 22.2 C 12.37 g/m*3 22.2 C 0 km/h
698 05-09-2006 20:17:02 21.7 C 12.4 g/m*3 21.7 C 0 km/h
699 05-09-2006 20:27:02 21.6 C 12.52 g/m*3 21.6 C 0 km/h
700 05-09-2006 20:37:02 20.9 C 12.38 g/m*3 20.9 C 0 km/h
Sensor: Nr:Datum:Temp:Abs-Feuchte:Windchill:Wind:
Aussen-T/F 701 05-09-2006 20:47:02 20.6 C 12.35 g/m*3 20.6 C 0 km/h
702 05-09-2006 20:57:02 20.5 C 12.63 g/m*3 20.5 C 0 km/h
703 05-09-2006 21:07:03 20.3 C 12.49 g/m*3 20.3 C 0 km/h
704 05-09-2006 21:17:02 20.2 C 12.41 g/m*3 20.2 C 0 km/h
705 05-09-2006 21:27:02 20 C 12.44 g/m*3 20 C 0 km/h
706 05-09-2006 21:37:02 19.9 C 12.71 g/m*3 19.9 C 0 km/h
707 05-09-2006 21:47:02 19.7 C 12.57 g/m*3 19.7 C 0 km/h
708 05-09-2006 21:57:02 19.6 C 12.66 g/m*3 19.6 C 0 km/h
709 05-09-2006 22:07:01 19.5 C 12.59 g/m*3 19.5 C 0 km/h
710 05-09-2006 22:17:01 19.3 C 12.44 g/m*3 19.3 C 0 km/h
711 05-09-2006 22:27:01 19.3 C 12.44 g/m*3 19.3 C 0 km/h
712 05-09-2006 22:37:02 19 C 12.22 g/m*3 19 C 0 km/h
713 05-09-2006 22:47:02 18.9 C 12.47 g/m*3 18.9 C 0 km/h
714 05-09-2006 22:57:02 18.8 C 12.4 g/m*3 18.8 C 0 km/h
715 05-09-2006 23:07:01 18.7 C 12.49 g/m*3 18.7 C 0 km/h
716 05-09-2006 23:17:01 18.7 C 12.49 g/m*3 18.7 C 0 km/h
717 05-09-2006 23:27:01 18.5 C 12.5 g/m*3 18.5 C 0 km/h
718 05-09-2006 23:37:02 18.3 C 12.35 g/m*3 18.3 C 0 km/h
719 05-09-2006 23:47:02 18.2 C 12.28 g/m*3 18.2 C 0 km/h
720 05-09-2006 23:57:02 18.1 C 12.21 g/m*3 18.1 C 0 km/h
721 06-09-2006 00:07:01 17.9 C 12.37 g/m*3 17.9 C 0 km/h
722 06-09-2006 00:17:02 17.8 C 12.29 g/m*3 17.8 C 0 km/h
723 06-09-2006 00:27:02 17.7 C 12.22 g/m*3 17.7 C 0 km/h
724 06-09-2006 00:37:02 17.6 C 12.15 g/m*3 17.6 C 0 km/h
725 06-09-2006 00:47:02 17.5 C 12.23 g/m*3 17.5 C 0 km/h
Sensor: Nr:Datum:Temp:Abs-Feuchte:Windchill:Wind:
Aussen-T/F 726 06-09-2006 00:57:03 17.4 C 12.15 g/m*3 17.4 C 0 km/h
727 06-09-2006 01:07:03 17.3 C 12.08 g/m*3 17.3 C 0 km/h
728 06-09-2006 01:17:03 17.1 C 11.94 g/m*3 17.1 C 0 km/h
729 06-09-2006 01:27:03 17 C 11.87 g/m*3 17 C 0 km/h
730 06-09-2006 01:37:03 17 C 12.01 g/m*3 17 C 0 km/h
731 06-09-2006 01:47:03 17 C 12.15 g/m*3 17 C 0 km/h
732 06-09-2006 01:57:03 16.9 C 12.23 g/m*3 16.9 C 0 km/h
733 06-09-2006 02:07:03 16.7 C 11.94 g/m*3 16.7 C 0 km/h
734 06-09-2006 02:17:03 16.6 C 11.87 g/m*3 16.6 C 0 km/h
735 06-09-2006 02:27:03 16.5 C 11.8 g/m*3 16.5 C 0 km/h
736 06-09-2006 02:37:03 16.4 C 11.72 g/m*3 16.4 C 0 km/h
737 06-09-2006 02:48:03 16.3 C 11.79 g/m*3 16.3 C 0 km/h
738 06-09-2006 02:58:03 16.3 C 11.79 g/m*3 16.3 C 0 km/h
739 06-09-2006 03:08:03 16.4 C 12 g/m*3 16.4 C 0 km/h
740 06-09-2006 03:18:03 16.2 C 11.86 g/m*3 16.2 C 0 km/h
741 06-09-2006 03:28:03 16 C 11.72 g/m*3 16 C 0 km/h
742 06-09-2006 03:38:02 15.9 C 11.78 g/m*3 15.9 C 0 km/h
743 06-09-2006 03:48:02 15.8 C 11.71 g/m*3 15.8 C 0 km/h
744 06-09-2006 03:58:03 15.7 C 11.64 g/m*3 15.7 C 0 km/h
745 06-09-2006 04:08:02 15.7 C 11.64 g/m*3 15.7 C 0 km/h
746 06-09-2006 04:18:02 15.6 C 11.57 g/m*3 15.6 C 0 km/h
747 06-09-2006 04:28:02 15.8 C 11.71 g/m*3 15.8 C 0 km/h
748 06-09-2006 04:38:02 15.8 C 11.71 g/m*3 15.8 C 0 km/h
749 06-09-2006 04:48:02 15.9 C 11.78 g/m*3 15.9 C 0 km/h
750 06-09-2006 04:58:02 15.8 C 11.85 g/m*3 15.8 C 0 km/h
Sensor: Nr:Datum:Temp:Abs-Feuchte:Windchill:Wind:
Aussen-T/F 751 06-09-2006 05:08:01 15.6 C 11.7 g/m*3 15.6 C 0 km/h
752 06-09-2006 05:18:02 15.5 C 11.63 g/m*3 15.5 C 0 km/h
753 06-09-2006 05:28:02 15.4 C 11.69 g/m*3 15.4 C 0 km/h
754 06-09-2006 05:38:02 15.4 C 11.69 g/m*3 15.4 C 0 km/h
755 06-09-2006 05:48:03 15.3 C 11.62 g/m*3 15.3 C 0 km/h
756 06-09-2006 05:58:03 15.2 C 11.55 g/m*3 15.2 C 0 km/h
757 06-09-2006 06:08:03 15.3 C 11.62 g/m*3 15.3 C 0 km/h
758 06-09-2006 06:18:02 15.3 C 11.49 g/m*3 15.3 C 0 km/h
759 06-09-2006 06:28:02 15.4 C 11.56 g/m*3 15.4 C 0 km/h
760 06-09-2006 06:38:02 15.5 C 11.63 g/m*3 15.5 C 0 km/h
761 06-09-2006 06:48:02 15.5 C 11.63 g/m*3 15.5 C 0 km/h
762 06-09-2006 06:58:02 15.4 C 11.56 g/m*3 15.4 C 0 km/h
763 06-09-2006 07:08:02 15.5 C 11.63 g/m*3 15.5 C 0 km/h
764 06-09-2006 07:18:01 15.4 C 11.56 g/m*3 15.4 C 0 km/h
765 06-09-2006 07:28:01 15.5 C 11.76 g/m*3 15.5 C 0 km/h
766 06-09-2006 07:38:01 15.1 C 11.35 g/m*3 15.1 C 0 km/h
767 06-09-2006 07:48:03 15 C 11.28 g/m*3 15 C 0 km/h
768 06-09-2006 07:58:03 15.1 C 11.35 g/m*3 15.1 C 0 km/h
769 06-09-2006 08:08:02 15.3 C 11.62 g/m*3 15.3 C 0 km/h
770 06-09-2006 08:18:02 15.3 C 11.49 g/m*3 15.3 C 0 km/h
771 06-09-2006 08:28:02 15.2 C 11.29 g/m*3 15.2 C 0 km/h
772 06-09-2006 08:38:02 15.1 C 11.35 g/m*3 15.1 C 0 km/h
773 06-09-2006 08:48:02 15.4 C 11.56 g/m*3 15.4 C 0 km/h
774 06-09-2006 08:58:02 15.6 C 11.7 g/m*3 15.6 C 0 km/h
775 06-09-2006 09:08:02 15.7 C 11.64 g/m*3 15.7 C 0 km/h
Sensor: Nr:Datum:Temp:Abs-Feuchte:Windchill:Wind:
Aussen-T/F 776 06-09-2006 09:18:02 16.6 C 12.01 g/m*3 16.6 C 0 km/h
777 06-09-2006 09:28:02 16.6 C 11.72 g/m*3 16.6 C 0 km/h
778 06-09-2006 09:38:02 16.5 C 11.51 g/m*3 16.5 C 0 km/h
779 06-09-2006 09:48:02 16.7 C 11.65 g/m*3 16.7 C 0 km/h
780 06-09-2006 09:58:02 17.1 C 11.79 g/m*3 17.1 C 0 km/h
781 06-09-2006 10:08:02 17.1 C 11.65 g/m*3 17.1 C 0 km/h
782 06-09-2006 10:18:02 17.4 C 12 g/m*3 17.4 C 0 km/h
783 06-09-2006 10:28:02 17.7 C 12.07 g/m*3 17.7 C 0 km/h
784 06-09-2006 10:38:02 18.1 C 12.21 g/m*3 18.1 C 0 km/h
785 06-09-2006 10:48:02 18.6 C 12.41 g/m*3 18.6 C 0 km/h
786 06-09-2006 10:58:02 19.1 C 12.13 g/m*3 19.1 C 0 km/h
787 06-09-2006 11:08:02 19.7 C 12.4 g/m*3 19.7 C 0 km/h
788 06-09-2006 11:18:02 20 C 12.27 g/m*3 20 C 0 km/h
789 06-09-2006 11:28:02 20.5 C 12.46 g/m*3 20.5 C 0 km/h
790 06-09-2006 11:38:02 21.2 C 12.6 g/m*3 21.2 C 0 km/h
791 06-09-2006 11:48:02 21.6 C 12.71 g/m*3 21.6 C 0 km/h
792 06-09-2006 11:58:02 22 C 12.81 g/m*3 22 C 0 km/h
793 06-09-2006 12:08:01 22.4 C 12.91 g/m*3 22.4 C 0 km/h
794 06-09-2006 12:18:01 23.2 C 12.89 g/m*3 23.2 C 0 km/h
795 06-09-2006 12:28:01 23.3 C 12.96 g/m*3 23.3 C 0 km/h
796 06-09-2006 12:38:01 23.7 C 12.83 g/m*3 23.7 C 0 km/h
797 06-09-2006 12:48:02 24.1 C 12.47 g/m*3 24.1 C 0 km/h
798 06-09-2006 12:58:02 24.4 C 12.69 g/m*3 24.4 C 0 km/h
799 06-09-2006 13:08:02 24.8 C 12.52 g/m*3 24.8 C 0 km/h
800 06-09-2006 13:18:01 25.3 C 12.64 g/m*3 25.3 C 0 km/h
Sensor: Nr:Datum:Temp:Abs-Feuchte:Windchill:Wind:
Aussen-T/F 801 06-09-2006 13:28:01 25.9 C 11.14 g/m*3 25.9 C 0 km/h
802 06-09-2006 13:38:01 26.3 C 10.89 g/m*3 26.3 C 0 km/h
803 06-09-2006 13:48:02 26.8 C 11.96 g/m*3 26.8 C 0 km/h
804 06-09-2006 13:58:02 27.3 C 10.2 g/m*3 27.3 C 0 km/h
805 06-09-2006 14:08:02 27.5 C 9.79 g/m*3 27.5 C 0 km/h
806 06-09-2006 14:18:01 28.3 C 9.95 g/m*3 28.3 C 0 km/h
807 06-09-2006 14:28:01 28.7 C 9.89 g/m*3 28.7 C 0 km/h
808 06-09-2006 14:38:01 29.2 C 9.58 g/m*3 29.2 C 0 km/h
809 06-09-2006 14:48:02 29.4 C 10.27 g/m*3 29.4 C 0 km/h
810 06-09-2006 14:58:02 29.7 C 10.14 g/m*3 29.7 C 0 km/h
811 06-09-2006 15:08:02 30.2 C 9.81 g/m*3 30.2 C 0 km/h
812 06-09-2006 15:18:02 30.3 C 9.86 g/m*3 30.3 C 0 km/h
813 06-09-2006 15:28:02 30.6 C 9.71 g/m*3 30.6 C 0 km/h
814 06-09-2006 15:38:02 30.4 C 10.85 g/m*3 30.4 C 0 km/h
815 06-09-2006 15:48:02 30.6 C 9.71 g/m*3 30.6 C 0 km/h
816 06-09-2006 15:58:02 30.7 C 9.76 g/m*3 30.7 C 0 km/h
817 06-09-2006 16:08:01 30.4 C 9.61 g/m*3 30.4 C 0 km/h
818 06-09-2006 16:18:01 30.7 C 9.45 g/m*3 30.7 C 0 km/h
819 06-09-2006 16:28:01 31.3 C 11.06 g/m*3 31.3 C 0 km/h
820 06-09-2006 16:38:01 31.5 C 10.19 g/m*3 31.5 C 0 km/h
821 06-09-2006 16:48:02 31.7 C 10.3 g/m*3 31.7 C 0 km/h
822 06-09-2006 16:58:02 31.8 C 9.69 g/m*3 31.8 C 0 km/h
823 06-09-2006 17:08:02 32 C 9.11 g/m*3 32 C 0 km/h
824 06-09-2006 17:18:02 32.1 C 9.16 g/m*3 32.1 C 0 km/h
825 06-09-2006 17:28:02 31.9 C 9.74 g/m*3 31.9 C 0 km/h
Sensor: Nr:Datum:Temp:Abs-Feuchte:Windchill:Wind:
Aussen-T/F 826 06-09-2006 17:38:02 31.9 C 8.73 g/m*3 31.9 C 0 km/h
827 06-09-2006 17:48:02 32.1 C 10.18 g/m*3 32.1 C 0 km/h
828 06-09-2006 17:58:03 32.1 C 10.18 g/m*3 32.1 C 0 km/h
829 06-09-2006 18:08:02 31.8 C 10.02 g/m*3 31.8 C 0 km/h
830 06-09-2006 18:18:03 31.5 C 9.2 g/m*3 31.5 C 0 km/h
831 06-09-2006 18:28:03 31.4 C 9.48 g/m*3 31.4 C 0 km/h
832 06-09-2006 18:38:03 31 C 10.56 g/m*3 31 C 0 km/h
833 06-09-2006 18:48:02 30.7 C 10.39 g/m*3 30.7 C 0 km/h
834 06-09-2006 18:58:02 30.3 C 10.79 g/m*3 30.3 C 0 km/h
835 06-09-2006 19:08:02 29.3 C 10.8 g/m*3 29.3 C 0 km/h
836 06-09-2006 19:18:02 28.2 C 10.72 g/m*3 28.2 C 0 km/h
837 06-09-2006 19:28:02 27.5 C 10.85 g/m*3 27.5 C 0 km/h
838 06-09-2006 19:38:02 27.1 C 10.61 g/m*3 27.1 C 0 km/h
839 06-09-2006 19:48:02 26.5 C 10.76 g/m*3 26.5 C 0 km/h
840 06-09-2006 19:58:02 25.8 C 10.83 g/m*3 25.8 C 0 km/h
841 06-09-2006 20:08:02 25.3 C 10.77 g/m*3 25.3 C 0 km/h
842 06-09-2006 20:18:01 24.9 C 10.99 g/m*3 24.9 C 0 km/h
843 06-09-2006 20:28:01 24.8 C 10.7 g/m*3 24.8 C 0 km/h
844 06-09-2006 20:38:01 24.6 C 10.8 g/m*3 24.6 C 0 km/h
845 06-09-2006 20:48:02 24.5 C 10.97 g/m*3 24.5 C 0 km/h
846 06-09-2006 20:58:02 24.3 C 10.84 g/m*3 24.3 C 0 km/h
847 06-09-2006 21:08:03 24.1 C 11.16 g/m*3 24.1 C 0 km/h
848 06-09-2006 21:18:02 23.9 C 11.47 g/m*3 23.9 C 0 km/h
849 06-09-2006 21:28:03 23.6 C 11.27 g/m*3 23.6 C 0 km/h
850 06-09-2006 21:38:02 23.3 C 11.71 g/m*3 23.3 C 0 km/h
Sensor: Nr:Datum:Temp:Abs-Feuchte:Windchill:Wind:
Aussen-T/F 851 06-09-2006 21:48:02 22.9 C 12.06 g/m*3 22.9 C 0 km/h
852 06-09-2006 21:58:02 22.6 C 11.85 g/m*3 22.6 C 0 km/h
853 06-09-2006 22:08:03 22.3 C 12.24 g/m*3 22.3 C 0 km/h
854 06-09-2006 22:18:02 22 C 12.23 g/m*3 22 C 0 km/h
855 06-09-2006 22:28:02 21.7 C 12.21 g/m*3 21.7 C 0 km/h
856 06-09-2006 22:38:02 21.6 C 12.33 g/m*3 21.6 C 0 km/h
857 06-09-2006 22:48:02 21.4 C 12.19 g/m*3 21.4 C 0 km/h
858 06-09-2006 22:58:03 21 C 12.09 g/m*3 21 C 0 km/h
859 06-09-2006 23:08:02 20.8 C 12.31 g/m*3 20.8 C 0 km/h
860 06-09-2006 23:18:01 20.6 C 12.35 g/m*3 20.6 C 0 km/h
861 06-09-2006 23:28:01 20.5 C 12.28 g/m*3 20.5 C 0 km/h
862 06-09-2006 23:38:02 20.4 C 12.21 g/m*3 20.4 C 0 km/h
863 06-09-2006 23:48:02 20.2 C 12.24 g/m*3 20.2 C 0 km/h
864 06-09-2006 23:58:02 20 C 12.1 g/m*3 20 C 0 km/h
865 07-09-2006 00:08:01 19.9 C 12.37 g/m*3 19.9 C 0 km/h
866 07-09-2006 00:18:02 19.7 C 12.23 g/m*3 19.7 C 0 km/h
867 07-09-2006 00:28:02 19.6 C 12.15 g/m*3 19.6 C 0 km/h
868 07-09-2006 00:38:01 19.5 C 12.25 g/m*3 19.5 C 0 km/h
869 07-09-2006 00:48:03 19.3 C 12.11 g/m*3 19.3 C 0 km/h
870 07-09-2006 00:58:03 19.3 C 12.11 g/m*3 19.3 C 0 km/h
871 07-09-2006 01:08:03 19 C 12.22 g/m*3 19 C 0 km/h
872 07-09-2006 01:18:03 18.9 C 12.15 g/m*3 18.9 C 0 km/h
873 07-09-2006 01:28:03 18.7 C 12.17 g/m*3 18.7 C 0 km/h
874 07-09-2006 01:38:03 18.5 C 12.02 g/m*3 18.5 C 0 km/h
875 07-09-2006 01:48:02 18.5 C 12.02 g/m*3 18.5 C 0 km/h
Sensor: Nr:Datum:Temp:Abs-Feuchte:Windchill:Wind:
Aussen-T/F 876 07-09-2006 01:58:02 18.4 C 12.11 g/m*3 18.4 C 0 km/h
877 07-09-2006 02:08:02 18.2 C 11.97 g/m*3 18.2 C 0 km/h
878 07-09-2006 02:18:02 18 C 11.83 g/m*3 18 C 0 km/h
879 07-09-2006 02:28:03 18 C 11.98 g/m*3 18 C 0 km/h
880 07-09-2006 02:38:02 17.9 C 12.06 g/m*3 17.9 C 0 km/h
881 07-09-2006 02:49:04 17.8 C 11.99 g/m*3 17.8 C 0 km/h
882 07-09-2006 02:59:04 17.7 C 11.92 g/m*3 17.7 C 0 km/h
883 07-09-2006 03:09:04 17.9 C 12.06 g/m*3 17.9 C 0 km/h
884 07-09-2006 03:19:03 17.4 C 11.86 g/m*3 17.4 C 0 km/h
885 07-09-2006 03:29:03 17.3 C 11.93 g/m*3 17.3 C 0 km/h
886 07-09-2006 03:39:02 17.2 C 11.86 g/m*3 17.2 C 0 km/h
887 07-09-2006 03:49:02 17.1 C 11.79 g/m*3 17.1 C 0 km/h
888 07-09-2006 03:59:02 17 C 11.72 g/m*3 17 C 0 km/h
889 07-09-2006 04:09:02 16.9 C 11.79 g/m*3 16.9 C 0 km/h
890 07-09-2006 04:19:02 16.8 C 11.72 g/m*3 16.8 C 0 km/h
891 07-09-2006 04:29:02 16.8 C 11.72 g/m*3 16.8 C 0 km/h
892 07-09-2006 04:39:02 16.6 C 11.72 g/m*3 16.6 C 0 km/h
893 07-09-2006 04:49:03 16.6 C 11.72 g/m*3 16.6 C 0 km/h
894 07-09-2006 04:59:03 16.5 C 11.65 g/m*3 16.5 C 0 km/h
895 07-09-2006 05:09:03 16.4 C 11.58 g/m*3 16.4 C 0 km/h
896 07-09-2006 05:19:02 16.4 C 11.72 g/m*3 16.4 C 0 km/h
897 07-09-2006 05:29:02 16.2 C 11.45 g/m*3 16.2 C 0 km/h
898 07-09-2006 05:39:02 16.1 C 11.51 g/m*3 16.1 C 0 km/h
899 07-09-2006 05:49:02 16 C 11.44 g/m*3 16 C 0 km/h
900 07-09-2006 05:59:02 15.9 C 11.51 g/m*3 15.9 C 0 km/h
Sensor: Nr:Datum:Temp:Abs-Feuchte:Windchill:Wind:
Aussen-T/F 901 07-09-2006 06:09:02 15.8 C 11.31 g/m*3 15.8 C 0 km/h
902 07-09-2006 06:19:01 15.7 C 11.37 g/m*3 15.7 C 0 km/h
903 07-09-2006 06:29:01 15.7 C 11.37 g/m*3 15.7 C 0 km/h
904 07-09-2006 06:39:02 15.7 C 11.37 g/m*3 15.7 C 0 km/h
905 07-09-2006 06:49:02 15.6 C 11.3 g/m*3 15.6 C 0 km/h
906 07-09-2006 06:59:02 15.6 C 11.44 g/m*3 15.6 C 0 km/h
907 07-09-2006 07:09:03 15.4 C 11.3 g/m*3 15.4 C 0 km/h
908 07-09-2006 07:19:02 15.3 C 11.23 g/m*3 15.3 C 0 km/h
909 07-09-2006 07:29:02 15.4 C 11.3 g/m*3 15.4 C 0 km/h
910 07-09-2006 07:39:01 15.2 C 11.29 g/m*3 15.2 C 0 km/h
911 07-09-2006 07:49:02 15.2 C 11.29 g/m*3 15.2 C 0 km/h
912 07-09-2006 07:59:02 15.2 C 11.42 g/m*3 15.2 C 0 km/h
913 07-09-2006 08:09:02 15.4 C 11.56 g/m*3 15.4 C 0 km/h
914 07-09-2006 08:19:02 15.4 C 11.56 g/m*3 15.4 C 0 km/h
915 07-09-2006 08:29:02 15.8 C 11.85 g/m*3 15.8 C 0 km/h
916 07-09-2006 08:39:02 16 C 11.72 g/m*3 16 C 0 km/h
917 07-09-2006 08:49:02 16.2 C 11.86 g/m*3 16.2 C 0 km/h
918 07-09-2006 08:59:02 16.6 C 12.15 g/m*3 16.6 C 0 km/h
919 07-09-2006 09:09:02 16.8 C 12.15 g/m*3 16.8 C 0 km/h
920 07-09-2006 09:19:02 16.8 C 11.87 g/m*3 16.8 C 0 km/h
921 07-09-2006 09:29:02 17.3 C 12.08 g/m*3 17.3 C 0 km/h
922 07-09-2006 09:39:02 17.2 C 11.86 g/m*3 17.2 C 0 km/h
923 07-09-2006 09:49:02 17.3 C 11.93 g/m*3 17.3 C 0 km/h
924 07-09-2006 09:59:02 17.7 C 12.22 g/m*3 17.7 C 0 km/h
925 07-09-2006 10:09:02 18 C 12.29 g/m*3 18 C 0 km/h
Sensor: Nr:Datum:Temp:Abs-Feuchte:Windchill:Wind:
Aussen-T/F 926 07-09-2006 10:19:02 18.5 C 12.5 g/m*3 18.5 C 0 km/h
927 07-09-2006 10:29:02 19 C 12.71 g/m*3 19 C 0 km/h
928 07-09-2006 10:39:02 19.5 C 12.75 g/m*3 19.5 C 0 km/h
929 07-09-2006 10:49:02 20 C 12.62 g/m*3 20 C 0 km/h
930 07-09-2006 10:59:02 20.5 C 12.99 g/m*3 20.5 C 0 km/h
931 07-09-2006 11:09:02 21 C 12.82 g/m*3 21 C 0 km/h
932 07-09-2006 11:19:02 21.5 C 13.01 g/m*3 21.5 C 0 km/h
933 07-09-2006 11:29:02 21.9 C 13.12 g/m*3 21.9 C 0 km/h
934 07-09-2006 11:39:02 22.4 C 13.31 g/m*3 22.4 C 0 km/h
935 07-09-2006 11:49:02 22.9 C 13.08 g/m*3 22.9 C 0 km/h
936 07-09-2006 11:59:02 23.8 C 13.12 g/m*3 23.8 C 0 km/h
937 07-09-2006 12:09:02 24.3 C 13.5 g/m*3 24.3 C 0 km/h
938 07-09-2006 12:19:02 24.6 C 13.05 g/m*3 24.6 C 0 km/h
939 07-09-2006 12:29:02 25.3 C 12.88 g/m*3 25.3 C 0 km/h
940 07-09-2006 12:39:02 25.3 C 13.11 g/m*3 25.3 C 0 km/h
941 07-09-2006 12:49:02 25.7 C 12.45 g/m*3 25.7 C 0 km/h
942 07-09-2006 12:59:02 25.9 C 12.35 g/m*3 25.9 C 0 km/h
943 07-09-2006 13:09:02 25.9 C 12.83 g/m*3 25.9 C 0 km/h
944 07-09-2006 13:19:02 26.3 C 12.87 g/m*3 26.3 C 0 km/h
945 07-09-2006 13:29:02 26.9 C 12.54 g/m*3 26.9 C 0 km/h
946 07-09-2006 13:39:01 27 C 12.1 g/m*3 27 C 0 km/h
947 07-09-2006 13:49:02 27.2 C 10.93 g/m*3 27.2 C 0 km/h
948 07-09-2006 13:59:02 27.5 C 11.38 g/m*3 27.5 C 0 km/h
949 07-09-2006 14:09:02 26.9 C 11.77 g/m*3 26.9 C 0 km/h
950 07-09-2006 14:19:02 27.1 C 11.39 g/m*3 27.1 C 0 km/h
Sensor: Nr:Datum:Temp:Abs-Feuchte:Windchill:Wind:
Aussen-T/F 951 07-09-2006 14:29:02 27.3 C 11.51 g/m*3 27.3 C 0 km/h
952 07-09-2006 14:39:01 26.4 C 12.2 g/m*3 26.4 C 0 km/h
953 07-09-2006 14:49:02 26.7 C 11.64 g/m*3 26.7 C 0 km/h
954 07-09-2006 14:59:02 26.4 C 11.95 g/m*3 26.4 C 0 km/h
955 07-09-2006 15:09:02 26.3 C 11.64 g/m*3 26.3 C 0 km/h
956 07-09-2006 15:19:02 24.8 C 11.61 g/m*3 24.8 C 0 km/h
957 07-09-2006 15:29:02 23.7 C 11.76 g/m*3 23.7 C 0 km/h
958 07-09-2006 15:39:02 23.1 C 11.78 g/m*3 23.1 C 0 km/h
959 07-09-2006 15:49:02 23.1 C 11.78 g/m*3 23.1 C 0 km/h
960 07-09-2006 15:59:02 23.3 C 11.92 g/m*3 23.3 C 0 km/h
961 07-09-2006 16:09:02 23 C 11.92 g/m*3 23 C 0 km/h
962 07-09-2006 16:19:02 21.7 C 11.83 g/m*3 21.7 C 0 km/h
963 07-09-2006 16:29:02 20.8 C 11.59 g/m*3 20.8 C 0 km/h
964 07-09-2006 16:39:02 20.1 C 11.3 g/m*3 20.1 C 0 km/h
965 07-09-2006 16:49:02 20.4 C 10.97 g/m*3 20.4 C 0 km/h
966 07-09-2006 16:59:02 20.4 C 10.61 g/m*3 20.4 C 0 km/h
967 07-09-2006 17:09:03 20.4 C 10.61 g/m*3 20.4 C 0 km/h
968 07-09-2006 17:19:03 19.7 C 10.7 g/m*3 19.7 C 0 km/h
969 07-09-2006 17:29:03 19.5 C 10.57 g/m*3 19.5 C 0 km/h
970 07-09-2006 17:39:02 19.6 C 10.8 g/m*3 19.6 C 0 km/h
971 07-09-2006 17:49:02 19.2 C 10.72 g/m*3 19.2 C 0 km/h
972 07-09-2006 17:59:02 18.9 C 11.02 g/m*3 18.9 C 0 km/h
973 07-09-2006 18:09:02 18.8 C 10.95 g/m*3 18.8 C 0 km/h
974 07-09-2006 18:19:02 18.8 C 10.63 g/m*3 18.8 C 0 km/h
975 07-09-2006 18:29:02 18.7 C 9.93 g/m*3 18.7 C 0 km/h
Sensor: Nr:Datum:Temp:Abs-Feuchte:Windchill:Wind:
Aussen-T/F 976 07-09-2006 18:39:02 18.6 C 9.87 g/m*3 18.6 C 0 km/h
977 07-09-2006 18:49:02 18.4 C 9.75 g/m*3 18.4 C 0 km/h
978 07-09-2006 18:59:02 18.3 C 9.54 g/m*3 18.3 C 0 km/h
979 07-09-2006 19:09:03 18.3 C 9.69 g/m*3 18.3 C 0 km/h
980 07-09-2006 19:19:02 18.5 C 9.81 g/m*3 18.5 C 0 km/h
981 07-09-2006 19:29:02 18.5 C 9.81 g/m*3 18.5 C 0 km/h
982 07-09-2006 19:39:02 18.1 C 9.58 g/m*3 18.1 C 0 km/h
983 07-09-2006 19:49:03 18.1 C 9.73 g/m*3 18.1 C 0 km/h
984 07-09-2006 19:59:03 18.2 C 9.95 g/m*3 18.2 C 0 km/h
985 07-09-2006 20:09:03 18.2 C 10.1 g/m*3 18.2 C 0 km/h
986 07-09-2006 20:19:03 18 C 9.98 g/m*3 18 C 0 km/h
987 07-09-2006 20:29:03 17.7 C 10.11 g/m*3 17.7 C 0 km/h
988 07-09-2006 20:39:02 17.3 C 10.02 g/m*3 17.3 C 0 km/h
989 07-09-2006 20:49:02 17.2 C 10.1 g/m*3 17.2 C 0 km/h
990 07-09-2006 20:59:02 17 C 10.27 g/m*3 17 C 0 km/h
991 07-09-2006 21:09:03 16.9 C 10.5 g/m*3 16.9 C 0 km/h
992 07-09-2006 21:19:02 16.7 C 10.52 g/m*3 16.7 C 0 km/h
993 07-09-2006 21:29:02 16.6 C 10.59 g/m*3 16.6 C 0 km/h
994 07-09-2006 21:39:02 16.6 C 10.45 g/m*3 16.6 C 0 km/h
995 07-09-2006 21:49:03 16.5 C 9.83 g/m*3 16.5 C 0 km/h
996 07-09-2006 21:59:03 16.4 C 9.49 g/m*3 16.4 C 0 km/h
997 07-09-2006 22:09:02 16.2 C 9.24 g/m*3 16.2 C 0 km/h
998 07-09-2006 22:19:02 16.1 C 8.91 g/m*3 16.1 C 0 km/h
999 07-09-2006 22:29:02 16 C 8.72 g/m*3 16 C 0 km/h
1000 07-09-2006 22:39:02 15.9 C 8.53 g/m*3 15.9 C 0 km/h
Sensor: Nr:Datum:Temp:Abs-Feuchte:Windchill:Wind:
Aussen-T/F 1001 07-09-2006 22:49:02 15.7 C 8.43 g/m*3 15.7 C 0 km/h
1002 07-09-2006 22:59:02 15.5 C 8.46 g/m*3 15.5 C 0 km/h
1003 07-09-2006 23:09:01 15.4 C 8.41 g/m*3 15.4 C 0 km/h
1004 07-09-2006 23:19:01 15.3 C 8.23 g/m*3 15.3 C 0 km/h
1005 07-09-2006 23:29:01 15.2 C 8.18 g/m*3 15.2 C 0 km/h
1006 07-09-2006 23:39:02 15 C 8.08 g/m*3 15 C 0 km/h
1007 07-09-2006 23:49:02 14.9 C 8.03 g/m*3 14.9 C 0 km/h
1008 07-09-2006 23:59:02 14.6 C 8.01 g/m*3 14.6 C 0 km/h
1009 08-09-2006 00:09:01 14.5 C 7.96 g/m*3 14.5 C 0 km/h
1010 08-09-2006 00:19:02 14.4 C 8.03 g/m*3 14.4 C 0 km/h
1011 08-09-2006 00:29:02 14.2 C 8.06 g/m*3 14.2 C 0 km/h
1012 08-09-2006 00:39:01 14.2 C 8.18 g/m*3 14.2 C 0 km/h
1013 08-09-2006 00:49:02 13.9 C 8.27 g/m*3 13.9 C 0 km/h
1014 08-09-2006 00:59:02 13.8 C 8.22 g/m*3 13.8 C 0 km/h
1015 08-09-2006 01:09:02 13.7 C 8.29 g/m*3 13.7 C 0 km/h
1016 08-09-2006 01:19:02 13.6 C 8.24 g/m*3 13.6 C 0 km/h
1017 08-09-2006 01:29:02 13.4 C 8.25 g/m*3 13.4 C 0 km/h
1018 08-09-2006 01:39:03 13.2 C 8.27 g/m*3 13.2 C 0 km/h
1019 08-09-2006 01:49:03 13 C 8.17 g/m*3 13 C 0 km/h
1020 08-09-2006 01:59:03 13 C 8.17 g/m*3 13 C 0 km/h
1021 08-09-2006 02:09:03 13.1 C 8.33 g/m*3 13.1 C 0 km/h
1022 08-09-2006 02:19:02 13.3 C 8.32 g/m*3 13.3 C 0 km/h
1023 08-09-2006 02:29:02 13.2 C 8.15 g/m*3 13.2 C 0 km/h
1024 08-09-2006 02:39:02 12.9 C 8.23 g/m*3 12.9 C 0 km/h
1025 08-09-2006 02:50:04 12.7 C 8.24 g/m*3 12.7 C 0 km/h
Sensor: Nr:Datum:Temp:Abs-Feuchte:Windchill:Wind:
Aussen-T/F 1026 08-09-2006 03:00:04 12.9 C 8.34 g/m*3 12.9 C 0 km/h
1027 08-09-2006 03:10:04 12.9 C 8.34 g/m*3 12.9 C 0 km/h
1028 08-09-2006 03:20:04 13.1 C 8.33 g/m*3 13.1 C 0 km/h
1029 08-09-2006 03:30:04 13.1 C 8.33 g/m*3 13.1 C 0 km/h
1030 08-09-2006 03:40:03 13.2 C 8.27 g/m*3 13.2 C 0 km/h
1031 08-09-2006 03:50:03 13.2 C 8.27 g/m*3 13.2 C 0 km/h
1032 08-09-2006 04:00:03 13 C 8.28 g/m*3 13 C 0 km/h
1033 08-09-2006 04:10:03 13 C 8.39 g/m*3 13 C 0 km/h
1034 08-09-2006 04:20:02 13.1 C 8.44 g/m*3 13.1 C 0 km/h
1035 08-09-2006 04:30:02 13 C 8.39 g/m*3 13 C 0 km/h
1036 08-09-2006 04:40:02 12.8 C 8.51 g/m*3 12.8 C 0 km/h
1037 08-09-2006 04:50:02 12.8 C 8.51 g/m*3 12.8 C 0 km/h
1038 08-09-2006 05:00:02 12.5 C 8.58 g/m*3 12.5 C 0 km/h
1039 08-09-2006 05:10:02 12.5 C 8.58 g/m*3 12.5 C 0 km/h
1040 08-09-2006 05:20:02 12.5 C 8.58 g/m*3 12.5 C 0 km/h
1041 08-09-2006 05:30:02 12.2 C 8.52 g/m*3 12.2 C 0 km/h
1042 08-09-2006 05:40:01 12 C 8.53 g/m*3 12 C 0 km/h
1043 08-09-2006 05:50:02 11.8 C 8.63 g/m*3 11.8 C 0 km/h
1044 08-09-2006 06:00:02 11.7 C 8.68 g/m*3 11.7 C 0 km/h
1045 08-09-2006 06:10:02 11.8 C 8.74 g/m*3 11.8 C 0 km/h
1046 08-09-2006 06:20:02 11.9 C 8.9 g/m*3 11.9 C 0 km/h
1047 08-09-2006 06:30:02 12.1 C 8.9 g/m*3 12.1 C 0 km/h
1048 08-09-2006 06:40:02 12.2 C 8.74 g/m*3 12.2 C 0 km/h
1049 08-09-2006 06:50:02 12.4 C 8.85 g/m*3 12.4 C 0 km/h
1050 08-09-2006 07:00:02 12.2 C 8.74 g/m*3 12.2 C 0 km/h
Sensor: Nr:Datum:Temp:Abs-Feuchte:Windchill:Wind:
Aussen-T/F 1051 08-09-2006 07:10:02 12.1 C 8.58 g/m*3 12.1 C 0 km/h
1052 08-09-2006 07:20:02 12.1 C 8.69 g/m*3 12.1 C 0 km/h
1053 08-09-2006 07:30:02 12.2 C 8.74 g/m*3 12.2 C 0 km/h
1054 08-09-2006 07:40:03 12 C 8.63 g/m*3 12 C 0 km/h
1055 08-09-2006 07:50:01 12 C 8.63 g/m*3 12 C 0 km/h
1056 08-09-2006 08:00:01 12.4 C 8.96 g/m*3 12.4 C 0 km/h
1057 08-09-2006 08:10:04 12.7 C 9.02 g/m*3 12.7 C 0 km/h
1058 08-09-2006 08:20:02 12.7 C 8.79 g/m*3 12.7 C 0 km/h
1059 08-09-2006 08:30:02 12.9 C 9.02 g/m*3 12.9 C 0 km/h
1060 08-09-2006 08:40:02 13.3 C 9.13 g/m*3 13.3 C 0 km/h
1061 08-09-2006 08:50:03 13.8 C 9.06 g/m*3 13.8 C 0 km/h
1062 08-09-2006 09:00:03 13.8 C 8.94 g/m*3 13.8 C 0 km/h
1063 08-09-2006 09:10:02 13.7 C 9 g/m*3 13.7 C 0 km/h
1064 08-09-2006 09:20:02 13.6 C 8.94 g/m*3 13.6 C 0 km/h
1065 08-09-2006 09:30:02 13.7 C 8.88 g/m*3 13.7 C 0 km/h
1066 08-09-2006 09:40:02 14.2 C 8.79 g/m*3 14.2 C 0 km/h
1067 08-09-2006 09:50:02 14.7 C 8.56 g/m*3 14.7 C 0 km/h
1068 08-09-2006 10:00:02 15.2 C 8.57 g/m*3 15.2 C 0 km/h
1069 08-09-2006 10:10:01 15 C 8.33 g/m*3 15 C 0 km/h
1070 08-09-2006 10:20:01 14.8 C 8.11 g/m*3 14.8 C 0 km/h
1071 08-09-2006 10:30:01 14.8 C 8.11 g/m*3 14.8 C 0 km/h
1072 08-09-2006 10:40:01 16.2 C 8.27 g/m*3 16.2 C 0 km/h
1073 08-09-2006 10:50:03 16.8 C 8.29 g/m*3 16.8 C 0 km/h
1074 08-09-2006 11:00:03 16.9 C 7.91 g/m*3 16.9 C 0 km/h
1075 08-09-2006 11:10:02 16.8 C 7.58 g/m*3 16.8 C 0 km/h
Sensor: Nr:Datum:Temp:Abs-Feuchte:Windchill:Wind:
Aussen-T/F 1076 08-09-2006 11:20:02 17.2 C 7.61 g/m*3 17.2 C 0 km/h
1077 08-09-2006 11:30:02 18.3 C 7.66 g/m*3 18.3 C 0 km/h
1078 08-09-2006 11:40:02 17.3 C 7.07 g/m*3 17.3 C 0 km/h
1079 08-09-2006 11:50:02 17.5 C 7.45 g/m*3 17.5 C 0 km/h
1080 08-09-2006 12:00:02 18.1 C 7.11 g/m*3 18.1 C 0 km/h
1081 08-09-2006 12:10:01 18.9 C 7.45 g/m*3 18.9 C 0 km/h
1082 08-09-2006 12:20:01 19.4 C 7.01 g/m*3 19.4 C 0 km/h
1083 08-09-2006 12:30:01 19 C 6.84 g/m*3 19 C 0 km/h
1084 08-09-2006 12:40:01 18.5 C 6.65 g/m*3 18.5 C 0 km/h
1085 08-09-2006 12:50:02 18.7 C 6.72 g/m*3 18.7 C 0 km/h
1086 08-09-2006 13:00:02 18.7 C 6.56 g/m*3 18.7 C 0 km/h
1087 08-09-2006 13:10:02 19.6 C 6.75 g/m*3 19.6 C 0 km/h
1088 08-09-2006 13:20:01 19.3 C 6.63 g/m*3 19.3 C 0 km/h
1089 08-09-2006 13:30:01 19.2 C 6.6 g/m*3 19.2 C 0 km/h
1090 08-09-2006 13:40:01 20 C 6.57 g/m*3 20 C 0 km/h
1091 08-09-2006 13:50:02 19.9 C 6.36 g/m*3 19.9 C 0 km/h
1092 08-09-2006 14:00:02 21.5 C 6.98 g/m*3 21.5 C 0 km/h
1093 08-09-2006 14:10:01 20.3 C 6.33 g/m*3 20.3 C 0 km/h
1094 08-09-2006 14:20:01 20.1 C 6.61 g/m*3 20.1 C 0 km/h
1095 08-09-2006 14:30:01 21.9 C 6.56 g/m*3 21.9 C 0 km/h
1096 08-09-2006 14:40:01 21 C 6.41 g/m*3 21 C 0 km/h
1097 08-09-2006 14:50:02 21.4 C 6.56 g/m*3 21.4 C 0 km/h
1098 08-09-2006 15:00:02 22.7 C 6.47 g/m*3 22.7 C 0 km/h
1099 08-09-2006 15:10:02 23.3 C 6.06 g/m*3 23.3 C 0 km/h
1100 08-09-2006 15:20:03 22.7 C 6.47 g/m*3 22.7 C 0 km/h
Sensor: Nr:Datum:Temp:Abs-Feuchte:Windchill:Wind:
Aussen-T/F 1101 08-09-2006 15:30:03 22.7 C 6.26 g/m*3 22.7 C 0 km/h
1102 08-09-2006 15:40:02 23 C 6.37 g/m*3 23 C 0 km/h
1103 08-09-2006 15:50:03 24.2 C 6.16 g/m*3 24.2 C 0 km/h
1104 08-09-2006 16:00:04 23.4 C 6.1 g/m*3 23.4 C 0 km/h
1105 08-09-2006 16:10:03 23.3 C 6.27 g/m*3 23.3 C 0 km/h
1106 08-09-2006 16:20:02 24 C 5.87 g/m*3 24 C 0 km/h
1107 08-09-2006 16:30:02 23.4 C 6.1 g/m*3 23.4 C 0 km/h
1108 08-09-2006 16:40:02 24.3 C 5.97 g/m*3 24.3 C 0 km/h
1109 08-09-2006 16:50:02 24.5 C 6.27 g/m*3 24.5 C 0 km/h
1110 08-09-2006 17:00:02 22.5 C 5.99 g/m*3 22.5 C 0 km/h
1111 08-09-2006 17:10:02 24.1 C 6.35 g/m*3 24.1 C 0 km/h
1112 08-09-2006 17:20:01 24.3 C 5.97 g/m*3 24.3 C 0 km/h
1113 08-09-2006 17:30:01 24.2 C 5.72 g/m*3 24.2 C 0 km/h
1114 08-09-2006 17:40:02 23.6 C 5.96 g/m*3 23.6 C 0 km/h
1115 08-09-2006 17:50:03 23.3 C 6.27 g/m*3 23.3 C 0 km/h
1116 08-09-2006 18:00:03 23.3 C 5.85 g/m*3 23.3 C 0 km/h
1117 08-09-2006 18:10:03 23.8 C 5.59 g/m*3 23.8 C 0 km/h
1118 08-09-2006 18:20:03 22.9 C 5.72 g/m*3 22.9 C 0 km/h
1119 08-09-2006 18:30:03 22.7 C 6.06 g/m*3 22.7 C 0 km/h
1120 08-09-2006 18:40:03 22.4 C 6.16 g/m*3 22.4 C 0 km/h
1121 08-09-2006 18:50:02 22.3 C 6.12 g/m*3 22.3 C 0 km/h
1122 08-09-2006 19:00:03 22.1 C 6.05 g/m*3 22.1 C 0 km/h
1123 08-09-2006 19:10:02 22.3 C 6.52 g/m*3 22.3 C 0 km/h
1124 08-09-2006 19:20:02 22 C 6.4 g/m*3 22 C 0 km/h
1125 08-09-2006 19:30:02 21.6 C 6.83 g/m*3 21.6 C 0 km/h
Sensor: Nr:Datum:Temp:Abs-Feuchte:Windchill:Wind:
Aussen-T/F 1126 08-09-2006 19:40:03 20.6 C 7.16 g/m*3 20.6 C 0 km/h
1127 08-09-2006 19:50:02 19.5 C 7.22 g/m*3 19.5 C 0 km/h
1128 08-09-2006 20:00:02 18.4 C 7.24 g/m*3 18.4 C 0 km/h
1129 08-09-2006 20:10:02 18 C 6.91 g/m*3 18 C 0 km/h
1130 08-09-2006 20:20:01 17.5 C 7.01 g/m*3 17.5 C 0 km/h
1131 08-09-2006 20:30:01 16.8 C 7.01 g/m*3 16.8 C 0 km/h
1132 08-09-2006 20:40:04 16.3 C 7.08 g/m*3 16.3 C 0 km/h
1133 08-09-2006 20:50:03 15.8 C 7.27 g/m*3 15.8 C 0 km/h
1134 08-09-2006 21:00:03 15.6 C 7.31 g/m*3 15.6 C 0 km/h
1135 08-09-2006 21:10:03 15.5 C 7.27 g/m*3 15.5 C 0 km/h
1136 08-09-2006 21:20:02 15.1 C 7.22 g/m*3 15.1 C 0 km/h
1137 08-09-2006 21:30:02 15.2 C 7.4 g/m*3 15.2 C 0 km/h
1138 08-09-2006 21:40:02 15 C 7.44 g/m*3 15 C 0 km/h
1139 08-09-2006 21:50:02 14.8 C 7.6 g/m*3 14.8 C 0 km/h
1140 08-09-2006 22:00:02 14.6 C 7.63 g/m*3 14.6 C 0 km/h
1141 08-09-2006 22:10:02 14.5 C 7.71 g/m*3 14.5 C 0 km/h
1142 08-09-2006 22:20:02 14.5 C 7.71 g/m*3 14.5 C 0 km/h
1143 08-09-2006 22:30:02 14.2 C 7.69 g/m*3 14.2 C 0 km/h
1144 08-09-2006 22:40:02 14.1 C 7.65 g/m*3 14.1 C 0 km/h
1145 08-09-2006 22:50:02 14.1 C 7.77 g/m*3 14.1 C 0 km/h
1146 08-09-2006 23:00:02 13.8 C 7.74 g/m*3 13.8 C 0 km/h
1147 08-09-2006 23:10:02 13.7 C 7.7 g/m*3 13.7 C 0 km/h
1148 08-09-2006 23:20:01 13.5 C 7.6 g/m*3 13.5 C 0 km/h
1149 08-09-2006 23:30:01 13.4 C 7.67 g/m*3 13.4 C 0 km/h
1150 08-09-2006 23:40:02 13.2 C 7.46 g/m*3 13.2 C 0 km/h
Sensor: Nr:Datum:Temp:Abs-Feuchte:Windchill:Wind:
Aussen-T/F 1151 08-09-2006 23:50:02 13.1 C 7.53 g/m*3 13.1 C 0 km/h
1152 09-09-2006 00:00:02 12.9 C 7.66 g/m*3 12.9 C 0 km/h
1153 09-09-2006 00:10:03 12.7 C 7.79 g/m*3 12.7 C 0 km/h
1154 09-09-2006 00:20:04 12.5 C 7.59 g/m*3 12.5 C 0 km/h
1155 09-09-2006 00:30:04 12.4 C 7.54 g/m*3 12.4 C 0 km/h
1156 09-09-2006 00:40:03 12.2 C 7.55 g/m*3 12.2 C 0 km/h
1157 09-09-2006 00:50:02 12.1 C 7.51 g/m*3 12.1 C 0 km/h
1158 09-09-2006 01:00:02 12 C 7.57 g/m*3 12 C 0 km/h
1159 09-09-2006 01:10:03 11.9 C 7.63 g/m*3 11.9 C 0 km/h
1160 09-09-2006 01:20:03 11.6 C 7.48 g/m*3 11.6 C 0 km/h
1161 09-09-2006 01:30:03 11.5 C 7.64 g/m*3 11.5 C 0 km/h
1162 09-09-2006 01:40:02 11.4 C 7.6 g/m*3 11.4 C 0 km/h
1163 09-09-2006 01:50:02 11.2 C 7.6 g/m*3 11.2 C 0 km/h
1164 09-09-2006 02:00:03 11 C 7.51 g/m*3 11 C 0 km/h
1165 09-09-2006 02:10:02 10.9 C 7.66 g/m*3 10.9 C 0 km/h
1166 09-09-2006 02:20:03 10.9 C 7.76 g/m*3 10.9 C 0 km/h
1167 09-09-2006 02:30:03 10.8 C 7.81 g/m*3 10.8 C 0 km/h
1168 09-09-2006 02:40:02 10.7 C 7.76 g/m*3 10.7 C 0 km/h
1169 09-09-2006 02:51:04 10.6 C 7.71 g/m*3 10.6 C 0 km/h
1170 09-09-2006 03:01:04 10.5 C 7.76 g/m*3 10.5 C 0 km/h
1171 09-09-2006 03:11:03 10.4 C 7.81 g/m*3 10.4 C 0 km/h
1172 09-09-2006 03:21:04 10.4 C 7.81 g/m*3 10.4 C 0 km/h
1173 09-09-2006 03:31:02 10.2 C 7.71 g/m*3 10.2 C 0 km/h
1174 09-09-2006 03:41:03 10.1 C 7.66 g/m*3 10.1 C 0 km/h
1175 09-09-2006 03:51:03 10.1 C 7.66 g/m*3 10.1 C 0 km/h
Sensor: Nr:Datum:Temp:Abs-Feuchte:Windchill:Wind:
Aussen-T/F 1176 09-09-2006 04:01:03 9.9 C 7.66 g/m*3 9.9 C 0 km/h
1177 09-09-2006 04:11:03 9.8 C 7.7 g/m*3 9.8 C 0 km/h
1178 09-09-2006 04:21:03 9.8 C 7.79 g/m*3 9.8 C 0 km/h
1179 09-09-2006 04:31:02 9.7 C 7.74 g/m*3 9.7 C 0 km/h
1180 09-09-2006 04:41:02 9.6 C 7.69 g/m*3 9.6 C 0 km/h
1181 09-09-2006 04:51:03 9.5 C 7.65 g/m*3 9.5 C 0 km/h
1182 09-09-2006 05:01:02 9.4 C 7.69 g/m*3 9.4 C 0 km/h
1183 09-09-2006 05:11:02 9.3 C 7.64 g/m*3 9.3 C 0 km/h
1184 09-09-2006 05:21:02 9.2 C 7.59 g/m*3 9.2 C 0 km/h
1185 09-09-2006 05:31:02 9.3 C 7.73 g/m*3 9.3 C 0 km/h
1186 09-09-2006 05:41:02 9.1 C 7.54 g/m*3 9.1 C 0 km/h
1187 09-09-2006 05:51:02 9.1 C 7.63 g/m*3 9.1 C 0 km/h
1188 09-09-2006 06:01:02 9 C 7.58 g/m*3 9 C 0 km/h
1189 09-09-2006 06:11:02 9 C 7.58 g/m*3 9 C 0 km/h
1190 09-09-2006 06:21:02 8.9 C 7.62 g/m*3 8.9 C 0 km/h
1191 09-09-2006 06:31:02 8.7 C 7.52 g/m*3 8.7 C 0 km/h
1192 09-09-2006 06:41:02 8.7 C 7.52 g/m*3 8.7 C 0 km/h
1193 09-09-2006 06:51:02 8.6 C 7.48 g/m*3 8.6 C 0 km/h
1194 09-09-2006 07:01:02 8.6 C 7.48 g/m*3 8.6 C 0 km/h
1195 09-09-2006 07:11:02 8.6 C 7.48 g/m*3 8.6 C 0 km/h
1196 09-09-2006 07:21:01 8.6 C 7.56 g/m*3 8.6 C 0 km/h
1197 09-09-2006 07:31:01 8.6 C 7.56 g/m*3 8.6 C 0 km/h
1198 09-09-2006 07:41:01 8.7 C 7.61 g/m*3 8.7 C 0 km/h
1199 09-09-2006 07:51:02 8.7 C 7.61 g/m*3 8.7 C 0 km/h
1200 09-09-2006 08:01:02 8.8 C 7.75 g/m*3 8.8 C 0 km/h
Sensor: Nr:Datum:Temp:Abs-Feuchte:Windchill:Wind:
Aussen-T/F 1201 09-09-2006 08:11:02 8.8 C 7.75 g/m*3 8.8 C 0 km/h
1202 09-09-2006 08:21:02 8.9 C 7.8 g/m*3 8.9 C 0 km/h
1203 09-09-2006 08:31:01 9 C 7.76 g/m*3 9 C 0 km/h
1204 09-09-2006 08:41:01 9.2 C 7.86 g/m*3 9.2 C 0 km/h
1205 09-09-2006 08:51:02 9.3 C 8 g/m*3 9.3 C 0 km/h
1206 09-09-2006 09:01:02 9.6 C 8.15 g/m*3 9.6 C 0 km/h
1207 09-09-2006 09:11:02 9.8 C 8.26 g/m*3 9.8 C 0 km/h
1208 09-09-2006 09:21:01 10.1 C 8.32 g/m*3 10.1 C 0 km/h
1209 09-09-2006 09:31:01 10.7 C 8.64 g/m*3 10.7 C 0 km/h
1210 09-09-2006 09:41:01 11.1 C 8.76 g/m*3 11.1 C 0 km/h
1211 09-09-2006 09:51:02 11.7 C 8.89 g/m*3 11.7 C 0 km/h
1212 09-09-2006 10:01:02 12.4 C 8.74 g/m*3 12.4 C 0 km/h
1213 09-09-2006 10:11:02 12.7 C 8.79 g/m*3 12.7 C 0 km/h
1214 09-09-2006 10:21:02 13.4 C 8.25 g/m*3 13.4 C 0 km/h
1215 09-09-2006 10:31:03 14 C 8.32 g/m*3 14 C 0 km/h
1216 09-09-2006 10:41:03 14.4 C 8.16 g/m*3 14.4 C 0 km/h
1217 09-09-2006 10:51:02 15 C 7.95 g/m*3 15 C 0 km/h
1218 09-09-2006 11:01:02 15.4 C 8.01 g/m*3 15.4 C 0 km/h
1219 09-09-2006 11:11:02 15.6 C 7.85 g/m*3 15.6 C 0 km/h
1220 09-09-2006 11:21:02 16.2 C 8 g/m*3 16.2 C 0 km/h
1221 09-09-2006 11:34:02 16.7 C 7.96 g/m*3 16.7 C 0 km/h
1222 09-09-2006 11:44:02 17.2 C 7.91 g/m*3 17.2 C 0 km/h
1223 09-09-2006 11:54:03 17.5 C 8.05 g/m*3 17.5 C 0 km/h
1224 09-09-2006 12:04:03 18.1 C 7.88 g/m*3 18.1 C 0 km/h
1225 09-09-2006 12:14:03 18.4 C 8.02 g/m*3 18.4 C 0 km/h
Sensor: Nr:Datum:Temp:Abs-Feuchte:Windchill:Wind:
Aussen-T/F 1226 09-09-2006 12:24:02 18.7 C 7.84 g/m*3 18.7 C 0 km/h
1227 09-09-2006 12:34:02 19.2 C 7.75 g/m*3 19.2 C 0 km/h
1228 09-09-2006 12:44:02 19.4 C 7.84 g/m*3 19.4 C 0 km/h
1229 09-09-2006 12:54:02 19.6 C 7.77 g/m*3 19.6 C 0 km/h
1230 09-09-2006 13:04:02 19.9 C 7.9 g/m*3 19.9 C 0 km/h
1231 09-09-2006 13:14:02 20.2 C 7.34 g/m*3 20.2 C 0 km/h
1232 09-09-2006 13:24:01 20.9 C 7.47 g/m*3 20.9 C 0 km/h
1233 09-09-2006 13:34:03 21.3 C 7.46 g/m*3 21.3 C 0 km/h
1234 09-09-2006 13:44:03 21.7 C 7.06 g/m*3 21.7 C 0 km/h
1235 09-09-2006 13:54:01 22.2 C 6.48 g/m*3 22.2 C 0 km/h
1236 09-09-2006 14:04:02 22.8 C 6.71 g/m*3 22.8 C 0 km/h
1237 09-09-2006 14:14:02 23.4 C 6.73 g/m*3 23.4 C 0 km/h
1238 09-09-2006 14:24:01 23.7 C 6.42 g/m*3 23.7 C 0 km/h
1239 09-09-2006 14:34:02 24 C 6.53 g/m*3 24 C 0 km/h
1240 09-09-2006 14:44:02 24.6 C 6.53 g/m*3 24.6 C 0 km/h
1241 09-09-2006 14:54:03 24.8 C 6.37 g/m*3 24.8 C 0 km/h
1242 09-09-2006 15:04:03 25.1 C 6.25 g/m*3 25.1 C 0 km/h
1243 09-09-2006 15:14:03 25.4 C 6.12 g/m*3 25.4 C 0 km/h
1244 09-09-2006 15:24:03 25.6 C 5.95 g/m*3 25.6 C 0 km/h
1245 09-09-2006 15:34:03 25.5 C 6.16 g/m*3 25.5 C 0 km/h
1246 09-09-2006 15:44:03 26.3 C 6.44 g/m*3 26.3 C 0 km/h
1247 09-09-2006 15:54:02 26.3 C 5.94 g/m*3 26.3 C 0 km/h
1248 09-09-2006 16:04:03 26.8 C 6.36 g/m*3 26.8 C 0 km/h
1249 09-09-2006 16:14:03 27 C 5.92 g/m*3 27 C 0 km/h
1250 09-09-2006 16:24:02 27.3 C 6.02 g/m*3 27.3 C 0 km/h
Sensor: Nr:Datum:Temp:Abs-Feuchte:Windchill:Wind:
Aussen-T/F 1251 09-09-2006 16:34:08 27.7 C 6.15 g/m*3 27.7 C 0 km/h
1252 09-09-2006 16:44:08 28.2 C 5.77 g/m*3 28.2 C 0 km/h
1253 09-09-2006 16:54:03 27.9 C 5.68 g/m*3 27.9 C 0 km/h
1254 09-09-2006 17:04:02 28.3 C 5.81 g/m*3 28.3 C 0 km/h
1255 09-09-2006 17:14:02 28.9 C 5.71 g/m*3 28.9 C 0 km/h
1256 09-09-2006 17:24:02 28.7 C 5.65 g/m*3 28.7 C 0 km/h
1257 09-09-2006 17:34:02 28.9 C 5.71 g/m*3 28.9 C 0 km/h
1258 09-09-2006 17:44:02 28.9 C 5.71 g/m*3 28.9 C 0 km/h
1259 09-09-2006 17:54:02 28.8 C 5.68 g/m*3 28.8 C 0 km/h
1260 09-09-2006 18:04:02 28.7 C 5.65 g/m*3 28.7 C 0 km/h
1261 09-09-2006 18:14:02 28.3 C 5.81 g/m*3 28.3 C 0 km/h
1262 09-09-2006 18:24:02 27.4 C 5.26 g/m*3 27.4 C 0 km/h
1263 09-09-2006 18:34:02 27.9 C 5.68 g/m*3 27.9 C 0 km/h
1264 09-09-2006 18:44:02 27.5 C 5.56 g/m*3 27.5 C 0 km/h
1265 09-09-2006 18:54:02 27.3 C 6.54 g/m*3 27.3 C 0 km/h
1266 09-09-2006 19:04:03 26.9 C 6.65 g/m*3 26.9 C 0 km/h
1267 09-09-2006 19:14:03 26.1 C 6.12 g/m*3 26.1 C 0 km/h
1268 09-09-2006 19:24:02 24.5 C 6.71 g/m*3 24.5 C 0 km/h
1269 09-09-2006 19:34:02 23.4 C 6.73 g/m*3 23.4 C 0 km/h
1270 09-09-2006 19:44:02 22.3 C 6.71 g/m*3 22.3 C 0 km/h
1271 09-09-2006 19:54:02 21.2 C 6.86 g/m*3 21.2 C 0 km/h
1272 09-09-2006 20:04:02 20.6 C 6.98 g/m*3 20.6 C 0 km/h
1273 09-09-2006 20:14:02 19.9 C 6.87 g/m*3 19.9 C 0 km/h
1274 09-09-2006 20:24:02 19.6 C 6.92 g/m*3 19.6 C 0 km/h
1275 09-09-2006 20:34:02 19.4 C 7.01 g/m*3 19.4 C 0 km/h
Sensor: Nr:Datum:Temp:Abs-Feuchte:Windchill:Wind:
Aussen-T/F 1276 09-09-2006 20:44:02 19.1 C 7.05 g/m*3 19.1 C 0 km/h
1277 09-09-2006 20:54:02 18.7 C 7.2 g/m*3 18.7 C 0 km/h
1278 09-09-2006 21:04:03 18.1 C 7.11 g/m*3 18.1 C 0 km/h
1279 09-09-2006 21:14:03 17.8 C 7.29 g/m*3 17.8 C 0 km/h
1280 09-09-2006 21:24:02 17.7 C 7.24 g/m*3 17.7 C 0 km/h
1281 09-09-2006 21:34:02 17.5 C 7.31 g/m*3 17.5 C 0 km/h
1282 09-09-2006 21:44:02 17.3 C 7.37 g/m*3 17.3 C 0 km/h
1283 09-09-2006 21:54:01 17.2 C 7.47 g/m*3 17.2 C 0 km/h
1284 09-09-2006 22:04:01 17 C 7.38 g/m*3 17 C 0 km/h
1285 09-09-2006 22:14:01 16.8 C 7.58 g/m*3 16.8 C 0 km/h
1286 09-09-2006 22:24:02 16.4 C 7.54 g/m*3 16.4 C 0 km/h
1287 09-09-2006 22:34:02 16.4 C 7.68 g/m*3 16.4 C 0 km/h
1288 09-09-2006 22:44:02 16.2 C 7.72 g/m*3 16.2 C 0 km/h
1289 09-09-2006 22:54:02 15.9 C 7.72 g/m*3 15.9 C 0 km/h
1290 09-09-2006 23:04:02 15.6 C 7.71 g/m*3 15.6 C 0 km/h
1291 09-09-2006 23:14:02 15.4 C 7.75 g/m*3 15.4 C 0 km/h
1292 09-09-2006 23:24:01 15.1 C 7.74 g/m*3 15.1 C 0 km/h
1293 09-09-2006 23:34:01 15.1 C 7.87 g/m*3 15.1 C 0 km/h
1294 09-09-2006 23:44:01 14.8 C 7.98 g/m*3 14.8 C 0 km/h
1295 09-09-2006 23:54:02 14.8 C 8.11 g/m*3 14.8 C 0 km/h
1296 10-09-2006 00:04:02 14.6 C 8.01 g/m*3 14.6 C 0 km/h
1297 10-09-2006 00:14:02 14.3 C 7.99 g/m*3 14.3 C 0 km/h
1298 10-09-2006 00:24:03 14.3 C 7.99 g/m*3 14.3 C 0 km/h
1299 10-09-2006 00:34:02 14.3 C 7.99 g/m*3 14.3 C 0 km/h
1300 10-09-2006 00:44:02 14.3 C 7.99 g/m*3 14.3 C 0 km/h
Sensor: Nr:Datum:Temp:Abs-Feuchte:Windchill:Wind:
Aussen-T/F 1301 10-09-2006 00:54:02 14.3 C 7.99 g/m*3 14.3 C 0 km/h
1302 10-09-2006 01:04:02 14.3 C 7.99 g/m*3 14.3 C 0 km/h
1303 10-09-2006 01:14:02 14.3 C 7.99 g/m*3 14.3 C 0 km/h
1304 10-09-2006 01:24:03 14.3 C 7.99 g/m*3 14.3 C 0 km/h
1305 10-09-2006 01:34:02 14.3 C 7.99 g/m*3 14.3 C 0 km/h
1306 10-09-2006 01:44:02 14.3 C 7.99 g/m*3 14.3 C 0 km/h
1307 10-09-2006 01:54:03 14.3 C 7.99 g/m*3 14.3 C 0 km/h
1308 10-09-2006 02:04:03 14.3 C 7.99 g/m*3 14.3 C 0 km/h
1309 10-09-2006 02:14:03 14.3 C 7.99 g/m*3 14.3 C 0 km/h
1310 10-09-2006 02:24:02 14.3 C 7.99 g/m*3 14.3 C 0 km/h
1311 10-09-2006 02:34:02 14.3 C 7.99 g/m*3 14.3 C 0 km/h
1312 10-09-2006 02:44:02 14.3 C 7.99 g/m*3 14.3 C 0 km/h
1313 10-09-2006 02:55:05 14.3 C 7.99 g/m*3 14.3 C 0 km/h
1314 10-09-2006 03:05:05 14.3 C 7.99 g/m*3 14.3 C 0 km/h
1315 10-09-2006 03:15:04 14.3 C 7.99 g/m*3 14.3 C 0 km/h
1316 10-09-2006 03:25:04 14.3 C 7.99 g/m*3 14.3 C 0 km/h
1317 10-09-2006 03:35:02 14.3 C 7.99 g/m*3 14.3 C 0 km/h
1318 10-09-2006 03:45:02 14.3 C 7.99 g/m*3 14.3 C 0 km/h
1319 10-09-2006 03:55:02 14.3 C 7.99 g/m*3 14.3 C 0 km/h
1320 10-09-2006 04:05:03 14.3 C 7.99 g/m*3 14.3 C 0 km/h
1321 10-09-2006 04:15:02 14.3 C 7.99 g/m*3 14.3 C 0 km/h
1322 10-09-2006 04:25:03 14.3 C 7.99 g/m*3 14.3 C 0 km/h
1323 10-09-2006 04:35:02 14.3 C 7.99 g/m*3 14.3 C 0 km/h
1324 10-09-2006 04:45:03 14.3 C 7.99 g/m*3 14.3 C 0 km/h
1325 10-09-2006 04:55:03 14.3 C 7.99 g/m*3 14.3 C 0 km/h
Sensor: Nr:Datum:Temp:Abs-Feuchte:Windchill:Wind:
Aussen-T/F 1326 10-09-2006 05:05:02 14.3 C 7.99 g/m*3 14.3 C 0 km/h
1327 10-09-2006 05:15:02 14.3 C 7.99 g/m*3 14.3 C 0 km/h
1328 10-09-2006 05:25:02 10.7 C 8.15 g/m*3 10.7 C 0 km/h
1329 10-09-2006 05:35:03 10.6 C 8.1 g/m*3 10.6 C 0 km/h
1330 10-09-2006 05:45:02 10.4 C 8 g/m*3 10.4 C 0 km/h
1331 10-09-2006 05:55:03 10.4 C 8 g/m*3 10.4 C 0 km/h
1332 10-09-2006 06:05:02 10.4 C 8 g/m*3 10.4 C 0 km/h
1333 10-09-2006 06:15:01 10.4 C 8 g/m*3 10.4 C 0 km/h
1334 10-09-2006 06:25:01 10.4 C 8 g/m*3 10.4 C 0 km/h
1335 10-09-2006 06:35:02 10.4 C 8 g/m*3 10.4 C 0 km/h
1336 10-09-2006 06:45:02 10.4 C 8 g/m*3 10.4 C 0 km/h
1337 10-09-2006 06:55:03 10.4 C 8 g/m*3 10.4 C 0 km/h
1338 10-09-2006 07:05:02 10.4 C 8 g/m*3 10.4 C 0 km/h
1339 10-09-2006 07:15:01 10.2 C 7.9 g/m*3 10.2 C 0 km/h
1340 10-09-2006 07:25:01 10.2 C 7.9 g/m*3 10.2 C 0 km/h
1341 10-09-2006 07:35:01 10.2 C 7.9 g/m*3 10.2 C 0 km/h
1342 10-09-2006 07:45:02 10.2 C 7.9 g/m*3 10.2 C 0 km/h
1343 10-09-2006 07:55:02 10.2 C 7.9 g/m*3 10.2 C 0 km/h
1344 10-09-2006 08:05:02 10.5 C 8.15 g/m*3 10.5 C 0 km/h
1345 10-09-2006 08:15:01 10.5 C 8.15 g/m*3 10.5 C 0 km/h
1346 10-09-2006 08:25:01 10.5 C 8.15 g/m*3 10.5 C 0 km/h
1347 10-09-2006 08:35:01 10.5 C 8.15 g/m*3 10.5 C 0 km/h
1348 10-09-2006 08:45:02 11.2 C 8.51 g/m*3 11.2 C 0 km/h
1349 10-09-2006 08:55:02 11.5 C 8.68 g/m*3 11.5 C 0 km/h
1350 10-09-2006 09:05:02 11.7 C 8.79 g/m*3 11.7 C 0 km/h
Sensor: Nr:Datum:Temp:Abs-Feuchte:Windchill:Wind:
Aussen-T/F 1351 10-09-2006 09:15:02 11.8 C 8.84 g/m*3 11.8 C 0 km/h
1352 10-09-2006 09:25:02 12.4 C 9.07 g/m*3 12.4 C 0 km/h
1353 10-09-2006 09:35:02 12.7 C 9.02 g/m*3 12.7 C 0 km/h
1354 10-09-2006 09:45:02 12.9 C 9.13 g/m*3 12.9 C 0 km/h
1355 10-09-2006 09:55:02 13.6 C 8.94 g/m*3 13.6 C 0 km/h
1356 10-09-2006 10:05:03 13.8 C 8.94 g/m*3 13.8 C 0 km/h
1357 10-09-2006 10:15:02 14.4 C 8.9 g/m*3 14.4 C 0 km/h
1358 10-09-2006 10:25:02 15 C 8.85 g/m*3 15 C 0 km/h
1359 10-09-2006 10:35:02 15.4 C 8.93 g/m*3 15.4 C 0 km/h
1360 10-09-2006 10:45:01 15.8 C 8.75 g/m*3 15.8 C 0 km/h
1361 10-09-2006 10:55:01 16.4 C 8.93 g/m*3 16.4 C 0 km/h
1362 10-09-2006 11:05:02 17 C 8.25 g/m*3 17 C 0 km/h
1363 10-09-2006 11:15:02 17.4 C 8.74 g/m*3 17.4 C 0 km/h
1364 10-09-2006 11:25:02 17.8 C 8.95 g/m*3 17.8 C 0 km/h
1365 10-09-2006 11:35:02 18.3 C 8.91 g/m*3 18.3 C 0 km/h
1366 10-09-2006 11:45:01 18.8 C 9.02 g/m*3 18.8 C 0 km/h
1367 10-09-2006 11:55:01 19.5 C 8.56 g/m*3 19.5 C 0 km/h
1368 10-09-2006 12:05:03 19.7 C 8.49 g/m*3 19.7 C 0 km/h
1369 10-09-2006 12:15:02 20.3 C 8.79 g/m*3 20.3 C 0 km/h
1370 10-09-2006 12:25:02 20.7 C 8.46 g/m*3 20.7 C 0 km/h
1371 10-09-2006 12:35:02 21 C 9.16 g/m*3 21 C 0 km/h
1372 10-09-2006 12:45:01 21.4 C 8.25 g/m*3 21.4 C 0 km/h
1373 10-09-2006 12:55:01 21.8 C 8.44 g/m*3 21.8 C 0 km/h
1374 10-09-2006 13:05:02 22 C 8.15 g/m*3 22 C 0 km/h
1375 10-09-2006 13:15:01 22.3 C 8.49 g/m*3 22.3 C 0 km/h
Sensor: Nr:Datum:Temp:Abs-Feuchte:Windchill:Wind:
Aussen-T/F 1376 10-09-2006 13:25:01 22.8 C 8.13 g/m*3 22.8 C 0 km/h
1377 10-09-2006 13:35:03 23.3 C 7.95 g/m*3 23.3 C 0 km/h
1378 10-09-2006 13:45:02 23.9 C 8.22 g/m*3 23.9 C 0 km/h
1379 10-09-2006 13:55:02 24.4 C 8.23 g/m*3 24.4 C 0 km/h
1380 10-09-2006 14:05:02 24.9 C 8.47 g/m*3 24.9 C 0 km/h
1381 10-09-2006 14:15:02 25.5 C 8.29 g/m*3 25.5 C 0 km/h
1382 10-09-2006 14:25:02 25.8 C 7.7 g/m*3 25.8 C 0 km/h
1383 10-09-2006 14:35:02 26.1 C 7.83 g/m*3 26.1 C 0 km/h
1384 10-09-2006 14:45:02 26.6 C 8.56 g/m*3 26.6 C 0 km/h
1385 10-09-2006 14:55:02 27.1 C 8.02 g/m*3 27.1 C 0 km/h
1386 10-09-2006 15:05:02 27.6 C 7.98 g/m*3 27.6 C 0 km/h
1387 10-09-2006 15:15:02 27.6 C 7.71 g/m*3 27.6 C 0 km/h
1388 10-09-2006 15:25:03 28 C 7.61 g/m*3 28 C 0 km/h
1389 10-09-2006 15:35:02 27.7 C 8.02 g/m*3 27.7 C 0 km/h
1390 10-09-2006 15:45:02 27.7 C 9.36 g/m*3 27.7 C 0 km/h
1391 10-09-2006 15:55:03 27.7 C 9.36 g/m*3 27.7 C 0 km/h
1392 10-09-2006 16:05:02 27.6 C 8.25 g/m*3 27.6 C 0 km/h
1393 10-09-2006 16:15:02 29.1 C 8.38 g/m*3 29.1 C 0 km/h
1394 10-09-2006 16:25:03 30.1 C 7.93 g/m*3 30.1 C 0 km/h
1395 10-09-2006 16:35:02 30 C 7.58 g/m*3 30 C 0 km/h
1396 10-09-2006 16:45:01 30.3 C 8.01 g/m*3 30.3 C 0 km/h
1397 10-09-2006 16:55:01 30.2 C 7.66 g/m*3 30.2 C 0 km/h
1398 10-09-2006 17:05:03 30.7 C 7.56 g/m*3 30.7 C 0 km/h
1399 10-09-2006 17:15:02 30.8 C 7.28 g/m*3 30.8 C 0 km/h
1400 10-09-2006 17:25:02 30.1 C 7.62 g/m*3 30.1 C 0 km/h
Sensor: Nr:Datum:Temp:Abs-Feuchte:Windchill:Wind:
Aussen-T/F 1401 10-09-2006 17:35:02 30.1 C 8.23 g/m*3 30.1 C 0 km/h
1402 10-09-2006 17:45:01 30.4 C 8.06 g/m*3 30.4 C 0 km/h
1403 10-09-2006 17:55:01 30.4 C 8.37 g/m*3 30.4 C 0 km/h
1404 10-09-2006 18:05:02 30.1 C 9.15 g/m*3 30.1 C 0 km/h
1405 10-09-2006 18:15:02 30 C 8.19 g/m*3 30 C 0 km/h
1406 10-09-2006 18:25:02 29.4 C 8.51 g/m*3 29.4 C 0 km/h
1407 10-09-2006 18:35:02 29 C 8.04 g/m*3 29 C 0 km/h
1408 10-09-2006 18:45:03 28 C 9.52 g/m*3 28 C 0 km/h
1409 10-09-2006 18:55:03 27.6 C 8.51 g/m*3 27.6 C 0 km/h
1410 10-09-2006 19:05:03 27.3 C 9.42 g/m*3 27.3 C 0 km/h
1411 10-09-2006 19:15:02 26 C 9.25 g/m*3 26 C 0 km/h
1412 10-09-2006 19:25:02 25.3 C 9.13 g/m*3 25.3 C 0 km/h
1413 10-09-2006 19:35:02 24.2 C 9.24 g/m*3 24.2 C 0 km/h
1414 10-09-2006 19:45:02 23.2 C 9.56 g/m*3 23.2 C 0 km/h
1415 10-09-2006 19:55:02 22.6 C 9.44 g/m*3 22.6 C 0 km/h
1416 10-09-2006 20:05:02 21.9 C 9.46 g/m*3 21.9 C 0 km/h
1417 10-09-2006 20:15:02 21.6 C 9.29 g/m*3 21.6 C 0 km/h
1418 10-09-2006 20:25:02 21.5 C 9.43 g/m*3 21.5 C 0 km/h
1419 10-09-2006 20:35:02 20.8 C 9.42 g/m*3 20.8 C 0 km/h
1420 10-09-2006 20:45:02 20.3 C 9.5 g/m*3 20.3 C 0 km/h
1421 10-09-2006 20:55:02 19.8 C 9.57 g/m*3 19.8 C 0 km/h
1422 10-09-2006 21:05:02 19.7 C 9.68 g/m*3 19.7 C 0 km/h
1423 10-09-2006 21:15:01 19.5 C 9.57 g/m*3 19.5 C 0 km/h
1424 10-09-2006 21:25:01 19.3 C 9.62 g/m*3 19.3 C 0 km/h
1425 10-09-2006 21:35:03 19.2 C 9.73 g/m*3 19.2 C 0 km/h
Sensor: Nr:Datum:Temp:Abs-Feuchte:Windchill:Wind:
Aussen-T/F 1426 10-09-2006 21:45:01 19.1 C 9.84 g/m*3 19.1 C 0 km/h
1427 10-09-2006 21:55:01 19 C 9.78 g/m*3 19 C 0 km/h
1428 10-09-2006 22:05:02 18.9 C 9.88 g/m*3 18.9 C 0 km/h
1429 10-09-2006 22:15:02 18.7 C 9.93 g/m*3 18.7 C 0 km/h
1430 10-09-2006 22:25:02 18.5 C 9.97 g/m*3 18.5 C 0 km/h
1431 10-09-2006 22:35:02 18.4 C 9.91 g/m*3 18.4 C 0 km/h
1432 10-09-2006 22:45:03 18.1 C 9.89 g/m*3 18.1 C 0 km/h
1433 10-09-2006 22:55:03 18.1 C 10.04 g/m*3 18.1 C 0 km/h
1434 10-09-2006 23:05:03 18 C 9.98 g/m*3 18 C 0 km/h
1435 10-09-2006 23:15:03 17.8 C 10.17 g/m*3 17.8 C 0 km/h
1436 10-09-2006 23:25:03 17.7 C 10.26 g/m*3 17.7 C 0 km/h
1437 10-09-2006 23:35:02 17.4 C 10.08 g/m*3 17.4 C 0 km/h
1438 10-09-2006 23:45:02 17.2 C 10.1 g/m*3 17.2 C 0 km/h
1439 10-09-2006 23:55:02 17.1 C 10.04 g/m*3 17.1 C 0 km/h
1440 11-09-2006 00:05:03 17 C 10.13 g/m*3 17 C 0 km/h
1441 11-09-2006 00:15:02 16.8 C 10.29 g/m*3 16.8 C 0 km/h
1442 11-09-2006 00:25:02 16.7 C 10.37 g/m*3 16.7 C 0 km/h
1443 11-09-2006 00:35:02 16.6 C 10.31 g/m*3 16.6 C 0 km/h
1444 11-09-2006 00:45:03 16.4 C 10.05 g/m*3 16.4 C 0 km/h
1445 11-09-2006 00:55:03 16.4 C 10.19 g/m*3 16.4 C 0 km/h
1446 11-09-2006 01:05:03 16.3 C 10.27 g/m*3 16.3 C 0 km/h
1447 11-09-2006 01:15:03 16.1 C 10.14 g/m*3 16.1 C 0 km/h
1448 11-09-2006 01:25:03 16 C 10.08 g/m*3 16 C 0 km/h
1449 11-09-2006 01:35:03 15.8 C 10.1 g/m*3 15.8 C 0 km/h
1450 11-09-2006 01:45:02 15.6 C 9.97 g/m*3 15.6 C 0 km/h
Sensor: Nr:Datum:Temp:Abs-Feuchte:Windchill:Wind:
Aussen-T/F 1451 11-09-2006 01:55:02 15.4 C 9.99 g/m*3 15.4 C 0 km/h
1452 11-09-2006 02:05:03 15.3 C 9.92 g/m*3 15.3 C 0 km/h
1453 11-09-2006 02:15:02 15 C 9.87 g/m*3 15 C 0 km/h
1454 11-09-2006 02:25:02 15.1 C 10.06 g/m*3 15.1 C 0 km/h
1455 11-09-2006 02:35:02 14.9 C 10.07 g/m*3 14.9 C 0 km/h
1456 11-09-2006 02:46:04 14.9 C 10.07 g/m*3 14.9 C 0 km/h
1457 11-09-2006 02:56:04 14.7 C 10.07 g/m*3 14.7 C 0 km/h
1458 11-09-2006 03:06:04 14.7 C 10.07 g/m*3 14.7 C 0 km/h
1459 11-09-2006 03:16:04 14.5 C 9.95 g/m*3 14.5 C 0 km/h
1460 11-09-2006 03:26:04 14.4 C 9.89 g/m*3 14.4 C 0 km/h
1461 11-09-2006 03:36:03 14.4 C 9.89 g/m*3 14.4 C 0 km/h
1462 11-09-2006 03:46:03 14.3 C 9.83 g/m*3 14.3 C 0 km/h
1463 11-09-2006 03:56:03 14.1 C 9.71 g/m*3 14.1 C 0 km/h
1464 11-09-2006 04:06:02 14.1 C 9.83 g/m*3 14.1 C 0 km/h
1465 11-09-2006 04:16:02 14 C 9.77 g/m*3 14 C 0 km/h
1466 11-09-2006 04:26:02 13.9 C 9.83 g/m*3 13.9 C 0 km/h
1467 11-09-2006 04:36:03 13.7 C 9.71 g/m*3 13.7 C 0 km/h
1468 11-09-2006 04:46:02 13.7 C 9.71 g/m*3 13.7 C 0 km/h
1469 11-09-2006 04:56:02 13.7 C 9.71 g/m*3 13.7 C 0 km/h
1470 11-09-2006 05:06:02 13.6 C 9.65 g/m*3 13.6 C 0 km/h
1471 11-09-2006 05:16:02 13.5 C 9.71 g/m*3 13.5 C 0 km/h
1472 11-09-2006 05:26:03 13.4 C 9.65 g/m*3 13.4 C 0 km/h
1473 11-09-2006 05:36:02 13.5 C 9.83 g/m*3 13.5 C 0 km/h
1474 11-09-2006 05:46:03 13.3 C 9.7 g/m*3 13.3 C 0 km/h
1475 11-09-2006 05:56:03 13.2 C 9.53 g/m*3 13.2 C 0 km/h
Sensor: Nr:Datum:Temp:Abs-Feuchte:Windchill:Wind:
Aussen-T/F 1476 11-09-2006 06:06:02 13.2 C 9.64 g/m*3 13.2 C 0 km/h
1477 11-09-2006 06:16:02 13.1 C 9.59 g/m*3 13.1 C 0 km/h
1478 11-09-2006 06:26:02 13 C 9.53 g/m*3 13 C 0 km/h
1479 11-09-2006 06:36:02 13 C 9.53 g/m*3 13 C 0 km/h
1480 11-09-2006 06:46:02 12.8 C 9.52 g/m*3 12.8 C 0 km/h
1481 11-09-2006 06:56:02 12.8 C 9.52 g/m*3 12.8 C 0 km/h
1482 11-09-2006 07:06:02 12.8 C 9.52 g/m*3 12.8 C 0 km/h
1483 11-09-2006 07:16:02 12.8 C 9.52 g/m*3 12.8 C 0 km/h
1484 11-09-2006 07:26:02 12.8 C 9.52 g/m*3 12.8 C 0 km/h
1485 11-09-2006 07:36:01 12.9 C 9.58 g/m*3 12.9 C 0 km/h
1486 11-09-2006 07:46:02 12.9 C 9.69 g/m*3 12.9 C 0 km/h
1487 11-09-2006 07:56:02 13 C 9.64 g/m*3 13 C 0 km/h
1488 11-09-2006 08:06:02 13 C 9.64 g/m*3 13 C 0 km/h
1489 11-09-2006 08:16:02 13.1 C 9.7 g/m*3 13.1 C 0 km/h
1490 11-09-2006 08:26:02 13.2 C 9.76 g/m*3 13.2 C 0 km/h
1491 11-09-2006 08:36:02 13.5 C 9.94 g/m*3 13.5 C 0 km/h
1492 11-09-2006 08:46:02 13.6 C 9.89 g/m*3 13.6 C 0 km/h
1493 11-09-2006 08:56:02 13.7 C 9.95 g/m*3 13.7 C 0 km/h
1494 11-09-2006 09:06:02 13.8 C 10.01 g/m*3 13.8 C 0 km/h
1495 11-09-2006 09:16:03 14.1 C 10.07 g/m*3 14.1 C 0 km/h
1496 11-09-2006 09:26:03 14.4 C 10.26 g/m*3 14.4 C 0 km/h
1497 11-09-2006 09:36:03 14.9 C 10.58 g/m*3 14.9 C 0 km/h
1498 11-09-2006 09:46:02 15.3 C 10.19 g/m*3 15.3 C 0 km/h
1499 11-09-2006 09:56:02 15.5 C 10.18 g/m*3 15.5 C 0 km/h
1500 11-09-2006 10:06:02 15.9 C 10.43 g/m*3 15.9 C 0 km/h
Sensor: Nr:Datum:Temp:Abs-Feuchte:Windchill:Wind:
Aussen-T/F 1501 11-09-2006 10:16:02 16.2 C 10.62 g/m*3 16.2 C 0 km/h
1502 11-09-2006 10:26:03 16.7 C 10.66 g/m*3 16.7 C 0 km/h
1503 11-09-2006 10:36:03 17.3 C 10.75 g/m*3 17.3 C 0 km/h
1504 11-09-2006 10:46:01 17.9 C 10.69 g/m*3 17.9 C 0 km/h
1505 11-09-2006 10:56:01 18.3 C 10.63 g/m*3 18.3 C 0 km/h
1506 11-09-2006 11:06:03 18.9 C 11.02 g/m*3 18.9 C 0 km/h
1507 11-09-2006 11:16:01 19.3 C 10.95 g/m*3 19.3 C 0 km/h
1508 11-09-2006 11:26:01 19.7 C 11.21 g/m*3 19.7 C 0 km/h
1509 11-09-2006 11:36:01 20.1 C 10.95 g/m*3 20.1 C 0 km/h
1510 11-09-2006 11:46:03 20.9 C 11.29 g/m*3 20.9 C 0 km/h
1511 11-09-2006 11:56:03 21.6 C 11.38 g/m*3 21.6 C 0 km/h
1512 11-09-2006 12:06:02 21.9 C 11.77 g/m*3 21.9 C 0 km/h
1513 11-09-2006 12:16:02 22.5 C 11.39 g/m*3 22.5 C 0 km/h
1514 11-09-2006 12:26:02 22.9 C 11.44 g/m*3 22.9 C 0 km/h
1515 11-09-2006 12:36:02 23.5 C 11 g/m*3 23.5 C 0 km/h
1516 11-09-2006 12:46:02 23.7 C 11.76 g/m*3 23.7 C 0 km/h
1517 11-09-2006 12:56:02 24 C 11.53 g/m*3 24 C 0 km/h
1518 11-09-2006 13:06:02 24.5 C 11.41 g/m*3 24.5 C 0 km/h
1519 11-09-2006 13:16:03 24.9 C 11.67 g/m*3 24.9 C 0 km/h
1520 11-09-2006 13:26:03 25.7 C 11.25 g/m*3 25.7 C 0 km/h
1521 11-09-2006 13:36:02 26 C 11.69 g/m*3 26 C 0 km/h
1522 11-09-2006 13:46:02 26.5 C 11.01 g/m*3 26.5 C 0 km/h
1523 11-09-2006 13:56:02 27.5 C 10.58 g/m*3 27.5 C 0 km/h
1524 11-09-2006 14:06:02 28 C 10.61 g/m*3 28 C 0 km/h
1525 11-09-2006 14:16:02 28.4 C 10.01 g/m*3 28.4 C 0 km/h
Sensor: Nr:Datum:Temp:Abs-Feuchte:Windchill:Wind:
Aussen-T/F 1526 11-09-2006 14:26:03 28.7 C 9.89 g/m*3 28.7 C 0 km/h
1527 11-09-2006 14:36:02 29.1 C 9.82 g/m*3 29.1 C 0 km/h
1528 11-09-2006 14:46:02 29.5 C 8.85 g/m*3 29.5 C 0 km/h
1529 11-09-2006 14:56:02 29.6 C 9.2 g/m*3 29.6 C 0 km/h
1530 11-09-2006 15:06:02 30 C 9.4 g/m*3 30 C 0 km/h
1531 11-09-2006 15:16:02 30 C 9.4 g/m*3 30 C 0 km/h
1532 11-09-2006 15:26:02 30.6 C 9.08 g/m*3 30.6 C 0 km/h
1533 11-09-2006 15:36:02 30.7 C 8.5 g/m*3 30.7 C 0 km/h
1534 11-09-2006 15:46:01 30.8 C 8.86 g/m*3 30.8 C 0 km/h
1535 11-09-2006 15:56:01 30.9 C 8.91 g/m*3 30.9 C 0 km/h
1536 11-09-2006 16:06:02 31 C 9.6 g/m*3 31 C 0 km/h
1537 11-09-2006 16:16:02 31 C 8.32 g/m*3 31 C 0 km/h
1538 11-09-2006 16:26:02 31.2 C 8.09 g/m*3 31.2 C 0 km/h
1539 11-09-2006 16:36:02 31.3 C 9.11 g/m*3 31.3 C 0 km/h
1540 11-09-2006 16:46:01 31.2 C 8.09 g/m*3 31.2 C 0 km/h
1541 11-09-2006 16:56:01 31.4 C 9.48 g/m*3 31.4 C 0 km/h
1542 11-09-2006 17:06:02 31.4 C 8.17 g/m*3 31.4 C 0 km/h
1543 11-09-2006 17:16:02 31.5 C 8.55 g/m*3 31.5 C 0 km/h
1544 11-09-2006 17:26:02 31.1 C 8.69 g/m*3 31.1 C 0 km/h
1545 11-09-2006 17:36:02 31.1 C 9.97 g/m*3 31.1 C 0 km/h
1546 11-09-2006 17:46:02 31 C 9.92 g/m*3 31 C 0 km/h
1547 11-09-2006 17:56:02 30.9 C 10.19 g/m*3 30.9 C 0 km/h
1548 11-09-2006 18:06:02 30.9 C 9.87 g/m*3 30.9 C 0 km/h
1549 11-09-2006 18:16:02 30.7 C 9.76 g/m*3 30.7 C 0 km/h
1550 11-09-2006 18:26:02 30.4 C 10.23 g/m*3 30.4 C 0 km/h
Sensor: Nr:Datum:Temp:Abs-Feuchte:Windchill:Wind:
Aussen-T/F 1551 11-09-2006 18:36:03 30.1 C 10.67 g/m*3 30.1 C 0 km/h
1552 11-09-2006 18:46:03 29.5 C 11.22 g/m*3 29.5 C 0 km/h
1553 11-09-2006 18:56:03 28.9 C 11.14 g/m*3 28.9 C 0 km/h
1554 11-09-2006 19:06:03 28.3 C 11.06 g/m*3 28.3 C 0 km/h
1555 11-09-2006 19:16:02 27.7 C 11.5 g/m*3 27.7 C 0 km/h
1556 11-09-2006 19:26:02 26.8 C 11.45 g/m*3 26.8 C 0 km/h
1557 11-09-2006 19:36:03 26 C 11.2 g/m*3 26 C 0 km/h
1558 11-09-2006 19:46:02 25.3 C 11.24 g/m*3 25.3 C 0 km/h
1559 11-09-2006 19:56:02 24.9 C 11.45 g/m*3 24.9 C 0 km/h
1560 11-09-2006 20:06:03 24.5 C 11.64 g/m*3 24.5 C 0 km/h
1561 11-09-2006 20:16:03 24.1 C 11.38 g/m*3 24.1 C 0 km/h
1562 11-09-2006 20:26:03 24 C 11.53 g/m*3 24 C 0 km/h
1563 11-09-2006 20:36:03 23.8 C 11.62 g/m*3 23.8 C 0 km/h
1564 11-09-2006 20:46:03 23.4 C 11.78 g/m*3 23.4 C 0 km/h
1565 11-09-2006 20:56:03 23.3 C 11.71 g/m*3 23.3 C 0 km/h
1566 11-09-2006 21:06:04 23.2 C 11.85 g/m*3 23.2 C 0 km/h
1567 11-09-2006 21:16:03 22.9 C 12.06 g/m*3 22.9 C 0 km/h
1568 11-09-2006 21:26:03 22.6 C 12.05 g/m*3 22.6 C 0 km/h
1569 11-09-2006 21:36:02 22.2 C 12.17 g/m*3 22.2 C 0 km/h
1570 11-09-2006 21:46:03 22.2 C 12.37 g/m*3 22.2 C 0 km/h
1571 11-09-2006 21:56:03 21.9 C 12.35 g/m*3 21.9 C 0 km/h
1572 11-09-2006 22:06:03 21.8 C 12.47 g/m*3 21.8 C 0 km/h
1573 11-09-2006 22:16:03 21.6 C 12.33 g/m*3 21.6 C 0 km/h
1574 11-09-2006 22:26:03 21.5 C 12.45 g/m*3 21.5 C 0 km/h
1575 11-09-2006 22:36:02 21.5 C 12.45 g/m*3 21.5 C 0 km/h
Sensor: Nr:Datum:Temp:Abs-Feuchte:Windchill:Wind:
Aussen-T/F 1576 11-09-2006 22:46:02 21.4 C 12.37 g/m*3 21.4 C 0 km/h
1577 11-09-2006 22:56:02 21 C 12.46 g/m*3 21 C 0 km/h
1578 11-09-2006 23:06:02 20.8 C 12.49 g/m*3 20.8 C 0 km/h
1579 11-09-2006 23:16:02 20.6 C 12.53 g/m*3 20.6 C 0 km/h
1580 11-09-2006 23:26:02 20.4 C 12.38 g/m*3 20.4 C 0 km/h
1581 11-09-2006 23:36:02 20.2 C 12.41 g/m*3 20.2 C 0 km/h
1582 11-09-2006 23:46:02 20 C 12.44 g/m*3 20 C 0 km/h
1583 11-09-2006 23:56:03 19.8 C 12.47 g/m*3 19.8 C 0 km/h
1584 12-09-2006 00:06:02 19.7 C 12.4 g/m*3 19.7 C 0 km/h
1585 12-09-2006 00:16:03 19.5 C 12.59 g/m*3 19.5 C 0 km/h
1586 12-09-2006 00:26:03 19.5 C 12.59 g/m*3 19.5 C 0 km/h
1587 12-09-2006 00:36:03 19.4 C 12.51 g/m*3 19.4 C 0 km/h
1588 12-09-2006 00:46:03 19.3 C 12.44 g/m*3 19.3 C 0 km/h
1589 12-09-2006 00:56:03 19.2 C 12.53 g/m*3 19.2 C 0 km/h
1590 12-09-2006 01:06:03 19.1 C 12.46 g/m*3 19.1 C 0 km/h
1591 12-09-2006 01:16:03 19 C 12.39 g/m*3 19 C 0 km/h
1592 12-09-2006 01:26:03 18.9 C 12.31 g/m*3 18.9 C 0 km/h
1593 12-09-2006 01:36:03 18.8 C 12.4 g/m*3 18.8 C 0 km/h
1594 12-09-2006 01:46:02 18.6 C 12.41 g/m*3 18.6 C 0 km/h
1595 12-09-2006 01:56:02 18.4 C 12.43 g/m*3 18.4 C 0 km/h
1596 12-09-2006 02:06:02 18.2 C 12.28 g/m*3 18.2 C 0 km/h
1597 12-09-2006 02:16:02 18.1 C 12.36 g/m*3 18.1 C 0 km/h
1598 12-09-2006 02:26:02 18 C 12.29 g/m*3 18 C 0 km/h
1599 12-09-2006 02:36:02 17.9 C 12.37 g/m*3 17.9 C 0 km/h
1600 12-09-2006 02:47:03 17.8 C 12.14 g/m*3 17.8 C 0 km/h
Sensor: Nr:Datum:Temp:Abs-Feuchte:Windchill:Wind:
Aussen-T/F 1601 12-09-2006 02:57:03 17.7 C 12.22 g/m*3 17.7 C 0 km/h
1602 12-09-2006 03:07:03 17.7 C 12.22 g/m*3 17.7 C 0 km/h
1603 12-09-2006 03:17:03 17.7 C 12.22 g/m*3 17.7 C 0 km/h
1604 12-09-2006 03:27:03 17.5 C 12.23 g/m*3 17.5 C 0 km/h
1605 12-09-2006 03:37:03 17.4 C 12.15 g/m*3 17.4 C 0 km/h
1606 12-09-2006 03:47:03 17.3 C 12.08 g/m*3 17.3 C 0 km/h
1607 12-09-2006 03:57:03 17.2 C 12.01 g/m*3 17.2 C 0 km/h
1608 12-09-2006 04:07:03 17.1 C 11.94 g/m*3 17.1 C 0 km/h
1609 12-09-2006 04:17:03 17 C 11.87 g/m*3 17 C 0 km/h
1610 12-09-2006 04:27:03 16.8 C 11.72 g/m*3 16.8 C 0 km/h
1611 12-09-2006 04:37:03 16.7 C 11.8 g/m*3 16.7 C 0 km/h
1612 12-09-2006 04:47:02 16.6 C 11.72 g/m*3 16.6 C 0 km/h
1613 12-09-2006 04:57:02 16.5 C 11.65 g/m*3 16.5 C 0 km/h
1614 12-09-2006 05:07:02 16.5 C 11.51 g/m*3 16.5 C 0 km/h
1615 12-09-2006 05:17:02 16.3 C 11.52 g/m*3 16.3 C 0 km/h
1616 12-09-2006 05:27:02 16.2 C 11.45 g/m*3 16.2 C 0 km/h
1617 12-09-2006 05:37:02 16.2 C 11.45 g/m*3 16.2 C 0 km/h
1618 12-09-2006 05:47:01 16 C 11.31 g/m*3 16 C 0 km/h
1619 12-09-2006 05:57:01 15.9 C 11.38 g/m*3 15.9 C 0 km/h
1620 12-09-2006 06:07:02 15.9 C 11.38 g/m*3 15.9 C 0 km/h
1621 12-09-2006 06:17:02 15.8 C 11.31 g/m*3 15.8 C 0 km/h
1622 12-09-2006 06:27:02 15.7 C 11.24 g/m*3 15.7 C 0 km/h
1623 12-09-2006 06:37:02 15.6 C 11.17 g/m*3 15.6 C 0 km/h
1624 12-09-2006 06:47:02 15.4 C 11.04 g/m*3 15.4 C 0 km/h
1625 12-09-2006 06:57:03 15.3 C 10.97 g/m*3 15.3 C 0 km/h
Sensor: Nr:Datum:Temp:Abs-Feuchte:Windchill:Wind:
Aussen-T/F 1626 12-09-2006 07:07:02 15.3 C 10.97 g/m*3 15.3 C 0 km/h
1627 12-09-2006 07:17:02 15.2 C 11.03 g/m*3 15.2 C 0 km/h
1628 12-09-2006 07:27:02 15.3 C 11.1 g/m*3 15.3 C 0 km/h
1629 12-09-2006 07:37:02 15.3 C 11.1 g/m*3 15.3 C 0 km/h
1630 12-09-2006 07:47:02 15.3 C 11.1 g/m*3 15.3 C 0 km/h
1631 12-09-2006 07:57:02 15.4 C 11.17 g/m*3 15.4 C 0 km/h
1632 12-09-2006 08:07:02 15.3 C 11.1 g/m*3 15.3 C 0 km/h
1633 12-09-2006 08:17:01 15.3 C 11.23 g/m*3 15.3 C 0 km/h
1634 12-09-2006 08:27:01 15.3 C 11.23 g/m*3 15.3 C 0 km/h
1635 12-09-2006 08:37:01 15.3 C 11.23 g/m*3 15.3 C 0 km/h
1636 12-09-2006 08:47:02 15.6 C 11.44 g/m*3 15.6 C 0 km/h
1637 12-09-2006 08:57:02 15.8 C 11.71 g/m*3 15.8 C 0 km/h
1638 12-09-2006 09:07:02 16 C 11.72 g/m*3 16 C 0 km/h
1639 12-09-2006 09:17:02 16.2 C 11.72 g/m*3 16.2 C 0 km/h
1640 12-09-2006 09:27:02 16.3 C 11.65 g/m*3 16.3 C 0 km/h
1641 12-09-2006 09:37:01 16.5 C 11.8 g/m*3 16.5 C 0 km/h
1642 12-09-2006 09:47:02 17 C 12.15 g/m*3 17 C 0 km/h
1643 12-09-2006 09:57:02 17.5 C 12.37 g/m*3 17.5 C 0 km/h
1644 12-09-2006 10:07:02 18.1 C 12.52 g/m*3 18.1 C 0 km/h
1645 12-09-2006 10:17:02 18.5 C 12.66 g/m*3 18.5 C 0 km/h
1646 12-09-2006 10:27:02 18.9 C 12.96 g/m*3 18.9 C 0 km/h
1647 12-09-2006 10:37:01 19.3 C 12.94 g/m*3 19.3 C 0 km/h
1648 12-09-2006 10:47:02 20 C 12.96 g/m*3 20 C 0 km/h
1649 12-09-2006 10:57:02 20.4 C 13.09 g/m*3 20.4 C 0 km/h
1650 12-09-2006 11:07:02 21 C 13.19 g/m*3 21 C 0 km/h
Sensor: Nr:Datum:Temp:Abs-Feuchte:Windchill:Wind:
Aussen-T/F 1651 12-09-2006 11:17:02 21.3 C 13.23 g/m*3 21.3 C 0 km/h
1652 12-09-2006 11:27:02 22 C 13.39 g/m*3 22 C 0 km/h
1653 12-09-2006 11:37:02 22.6 C 13.46 g/m*3 22.6 C 0 km/h
1654 12-09-2006 11:47:02 23.2 C 13.31 g/m*3 23.2 C 0 km/h
1655 12-09-2006 11:57:02 23.5 C 13.53 g/m*3 23.5 C 0 km/h
1656 12-09-2006 12:07:02 23.7 C 13.48 g/m*3 23.7 C 0 km/h
1657 12-09-2006 12:17:02 24 C 13.49 g/m*3 24 C 0 km/h
1658 12-09-2006 12:27:02 24.6 C 13.05 g/m*3 24.6 C 0 km/h
1659 12-09-2006 12:37:02 25 C 13.35 g/m*3 25 C 0 km/h
1660 12-09-2006 12:47:03 25.5 C 13.02 g/m*3 25.5 C 0 km/h
1661 12-09-2006 12:57:03 25.9 C 12.83 g/m*3 25.9 C 0 km/h
1662 12-09-2006 13:07:02 26.2 C 12.31 g/m*3 26.2 C 0 km/h
1663 12-09-2006 13:17:02 27 C 11.58 g/m*3 27 C 0 km/h
1664 12-09-2006 13:27:02 27.5 C 11.38 g/m*3 27.5 C 0 km/h
1665 12-09-2006 13:37:03 27.3 C 11.25 g/m*3 27.3 C 0 km/h
1666 12-09-2006 13:47:02 28 C 10.33 g/m*3 28 C 0 km/h
1667 12-09-2006 13:57:02 28.1 C 10.66 g/m*3 28.1 C 0 km/h
1668 12-09-2006 14:07:02 28.6 C 9.84 g/m*3 28.6 C 0 km/h
1669 12-09-2006 14:17:02 29.2 C 9.58 g/m*3 29.2 C 0 km/h
1670 12-09-2006 14:27:02 29.7 C 10.44 g/m*3 29.7 C 0 km/h
1671 12-09-2006 14:37:02 30 C 9.4 g/m*3 30 C 0 km/h
1672 12-09-2006 14:47:02 30.5 C 9.66 g/m*3 30.5 C 0 km/h
1673 12-09-2006 14:57:02 30.7 C 8.82 g/m*3 30.7 C 0 km/h
1674 12-09-2006 15:07:02 30.9 C 9.23 g/m*3 30.9 C 0 km/h
1675 12-09-2006 15:17:02 31.1 C 8.69 g/m*3 31.1 C 0 km/h
Sensor: Nr:Datum:Temp:Abs-Feuchte:Windchill:Wind:
Aussen-T/F 1676 12-09-2006 15:27:02 31 C 8.96 g/m*3 31 C 0 km/h
1677 12-09-2006 15:37:02 31.2 C 8.09 g/m*3 31.2 C 0 km/h
1678 12-09-2006 15:47:02 31.3 C 8.46 g/m*3 31.3 C 0 km/h
1679 12-09-2006 15:57:02 31 C 8.32 g/m*3 31 C 0 km/h
1680 12-09-2006 16:07:02 30.7 C 7.87 g/m*3 30.7 C 0 km/h
1681 12-09-2006 16:17:01 31.8 C 8.68 g/m*3 31.8 C 0 km/h
1682 12-09-2006 16:27:01 31.8 C 7.68 g/m*3 31.8 C 0 km/h
1683 12-09-2006 16:37:01 31.9 C 8.06 g/m*3 31.9 C 0 km/h
1684 12-09-2006 16:47:02 31.9 C 8.39 g/m*3 31.9 C 0 km/h
1685 12-09-2006 16:57:02 30.9 C 8.28 g/m*3 30.9 C 0 km/h
1686 12-09-2006 17:07:02 31 C 8.32 g/m*3 31 C 0 km/h
1687 12-09-2006 17:17:02 31.5 C 9.2 g/m*3 31.5 C 0 km/h
1688 12-09-2006 17:27:03 32 C 9.11 g/m*3 32 C 0 km/h
1689 12-09-2006 17:37:02 31.8 C 8.68 g/m*3 31.8 C 0 km/h
1690 12-09-2006 17:47:03 31.8 C 9.02 g/m*3 31.8 C 0 km/h
1691 12-09-2006 17:57:03 31.6 C 8.59 g/m*3 31.6 C 0 km/h
1692 12-09-2006 18:07:02 31.6 C 9.58 g/m*3 31.6 C 0 km/h
1693 12-09-2006 18:17:02 31.4 C 9.81 g/m*3 31.4 C 0 km/h
1694 12-09-2006 18:27:03 31.1 C 9.97 g/m*3 31.1 C 0 km/h
1695 12-09-2006 18:37:02 30.6 C 10.34 g/m*3 30.6 C 0 km/h
1696 12-09-2006 18:47:02 30 C 10.92 g/m*3 30 C 0 km/h
1697 12-09-2006 18:57:03 29.5 C 10.63 g/m*3 29.5 C 0 km/h
1698 12-09-2006 19:07:01 29.3 C 10.8 g/m*3 29.3 C 0 km/h
1699 12-09-2006 19:17:01 28.9 C 11.14 g/m*3 28.9 C 0 km/h
1700 12-09-2006 19:27:01 28.3 C 11.06 g/m*3 28.3 C 0 km/h
Sensor: Nr:Datum:Temp:Abs-Feuchte:Windchill:Wind:
Aussen-T/F 1701 12-09-2006 19:37:03 27 C 11.07 g/m*3 27 C 0 km/h
1702 12-09-2006 19:47:02 25.9 C 11.14 g/m*3 25.9 C 0 km/h
1703 12-09-2006 19:57:02 25.2 C 10.94 g/m*3 25.2 C 0 km/h
1704 12-09-2006 20:07:02 24.5 C 11.19 g/m*3 24.5 C 0 km/h
1705 12-09-2006 20:17:01 24.3 C 10.84 g/m*3 24.3 C 0 km/h
1706 12-09-2006 20:27:01 24 C 10.88 g/m*3 24 C 0 km/h
1707 12-09-2006 20:37:03 23.8 C 10.97 g/m*3 23.8 C 0 km/h
1708 12-09-2006 20:47:02 23.5 C 11 g/m*3 23.5 C 0 km/h
1709 12-09-2006 20:57:02 23.5 C 11.21 g/m*3 23.5 C 0 km/h
1710 12-09-2006 21:07:02 23.3 C 11.29 g/m*3 23.3 C 0 km/h
1711 12-09-2006 21:17:02 23 C 11.1 g/m*3 23 C 0 km/h
1712 12-09-2006 21:27:03 22.8 C 11.18 g/m*3 22.8 C 0 km/h
1713 12-09-2006 21:37:02 22.9 C 11.44 g/m*3 22.9 C 0 km/h
1714 12-09-2006 21:47:02 22.7 C 11.31 g/m*3 22.7 C 0 km/h
1715 12-09-2006 21:57:02 22.5 C 11.19 g/m*3 22.5 C 0 km/h
1716 12-09-2006 22:07:02 22.3 C 11.26 g/m*3 22.3 C 0 km/h
1717 12-09-2006 22:18:03 22 C 11.06 g/m*3 22 C 0 km/h
1718 12-09-2006 22:28:03 22 C 11.26 g/m*3 22 C 0 km/h
1719 12-09-2006 22:38:03 21.9 C 11.39 g/m*3 21.9 C 0 km/h
1720 12-09-2006 22:48:03 21.7 C 11.45 g/m*3 21.7 C 0 km/h
1721 12-09-2006 22:58:03 21.6 C 11.38 g/m*3 21.6 C 0 km/h
1722 12-09-2006 23:08:03 21.5 C 11.5 g/m*3 21.5 C 0 km/h
1723 12-09-2006 23:18:03 21.3 C 11.56 g/m*3 21.3 C 0 km/h
1724 12-09-2006 23:28:03 21.2 C 11.49 g/m*3 21.2 C 0 km/h
1725 12-09-2006 23:38:03 20.8 C 11.77 g/m*3 20.8 C 0 km/h
Sensor: Nr:Datum:Temp:Abs-Feuchte:Windchill:Wind:
Aussen-T/F 1726 12-09-2006 23:48:04 20.6 C 11.81 g/m*3 20.6 C 0 km/h
1727 12-09-2006 23:58:04 20.3 C 11.78 g/m*3 20.3 C 0 km/h
1728 13-09-2006 00:08:04 20.2 C 11.89 g/m*3 20.2 C 0 km/h
1729 13-09-2006 00:18:04 20 C 11.92 g/m*3 20 C 0 km/h
1730 13-09-2006 00:28:04 19.9 C 12.03 g/m*3 19.9 C 0 km/h
1731 13-09-2006 00:38:04 19.7 C 11.89 g/m*3 19.7 C 0 km/h
1732 13-09-2006 00:48:04 19.6 C 11.82 g/m*3 19.6 C 0 km/h
1733 13-09-2006 00:58:04 19.4 C 11.85 g/m*3 19.4 C 0 km/h
1734 13-09-2006 01:08:04 19.3 C 11.78 g/m*3 19.3 C 0 km/h
1735 13-09-2006 01:18:04 19.2 C 11.71 g/m*3 19.2 C 0 km/h
1736 13-09-2006 01:28:04 19.1 C 11.8 g/m*3 19.1 C 0 km/h
1737 13-09-2006 01:38:04 18.9 C 11.99 g/m*3 18.9 C 0 km/h
1738 13-09-2006 01:48:04 18.7 C 11.85 g/m*3 18.7 C 0 km/h
1739 13-09-2006 01:58:04 18.6 C 11.78 g/m*3 18.6 C 0 km/h
1740 13-09-2006 02:08:04 18.5 C 11.71 g/m*3 18.5 C 0 km/h
1741 13-09-2006 02:18:04 18.4 C 11.8 g/m*3 18.4 C 0 km/h
1742 13-09-2006 02:28:04 18.3 C 11.88 g/m*3 18.3 C 0 km/h
1743 13-09-2006 02:38:05 18.2 C 11.81 g/m*3 18.2 C 0 km/h
1744 13-09-2006 02:48:05 18 C 11.67 g/m*3 18 C 0 km/h
1745 13-09-2006 02:58:05 17.9 C 11.91 g/m*3 17.9 C 0 km/h
1746 13-09-2006 03:08:05 17.9 C 11.91 g/m*3 17.9 C 0 km/h
1747 13-09-2006 03:18:05 17.8 C 11.84 g/m*3 17.8 C 0 km/h
1748 13-09-2006 03:28:05 17.7 C 11.77 g/m*3 17.7 C 0 km/h
1749 13-09-2006 03:38:05 17.8 C 11.99 g/m*3 17.8 C 0 km/h
1750 13-09-2006 03:48:05 17.5 C 11.93 g/m*3 17.5 C 0 km/h
Sensor: Nr:Datum:Temp:Abs-Feuchte:Windchill:Wind:
Aussen-T/F 1751 13-09-2006 03:58:05 17.3 C 11.79 g/m*3 17.3 C 0 km/h
1752 13-09-2006 04:08:05 17.2 C 11.57 g/m*3 17.2 C 0 km/h
1753 13-09-2006 04:18:05 17.1 C 11.5 g/m*3 17.1 C 0 km/h
1754 13-09-2006 04:28:05 17 C 11.58 g/m*3 17 C 0 km/h
1755 13-09-2006 04:38:05 16.8 C 11.58 g/m*3 16.8 C 0 km/h
1756 13-09-2006 04:48:05 16.8 C 11.58 g/m*3 16.8 C 0 km/h
1757 13-09-2006 04:58:05 16.6 C 11.58 g/m*3 16.6 C 0 km/h
1758 13-09-2006 05:08:05 16.6 C 11.72 g/m*3 16.6 C 0 km/h
1759 13-09-2006 05:18:05 16.5 C 11.51 g/m*3 16.5 C 0 km/h
1760 13-09-2006 05:28:05 16.3 C 11.38 g/m*3 16.3 C 0 km/h
1761 13-09-2006 05:38:06 16.3 C 11.38 g/m*3 16.3 C 0 km/h
1762 13-09-2006 05:48:06 16.2 C 11.31 g/m*3 16.2 C 0 km/h
1763 13-09-2006 05:58:06 16.1 C 11.24 g/m*3 16.1 C 0 km/h
1764 13-09-2006 06:08:06 16 C 11.17 g/m*3 16 C 0 km/h
1765 13-09-2006 06:18:06 15.8 C 11.17 g/m*3 15.8 C 0 km/h
1766 13-09-2006 06:28:06 15.8 C 11.31 g/m*3 15.8 C 0 km/h
1767 13-09-2006 06:38:06 15.7 C 11.37 g/m*3 15.7 C 0 km/h
1768 13-09-2006 06:48:06 15.6 C 11.17 g/m*3 15.6 C 0 km/h
1769 13-09-2006 06:58:06 15.6 C 11.17 g/m*3 15.6 C 0 km/h
1770 13-09-2006 07:08:06 15.5 C 11.24 g/m*3 15.5 C 0 km/h
1771 13-09-2006 07:18:06 15.3 C 11.1 g/m*3 15.3 C 0 km/h
1772 13-09-2006 07:28:06 15.3 C 11.1 g/m*3 15.3 C 0 km/h
1773 13-09-2006 07:38:06 15.3 C 11.1 g/m*3 15.3 C 0 km/h
1774 13-09-2006 07:48:06 15.4 C 11.04 g/m*3 15.4 C 0 km/h
1775 13-09-2006 07:58:06 15.5 C 11.24 g/m*3 15.5 C 0 km/h
Sensor: Nr:Datum:Temp:Abs-Feuchte:Windchill:Wind:
Aussen-T/F 1776 13-09-2006 08:08:06 15.6 C 11.3 g/m*3 15.6 C 0 km/h
1777 13-09-2006 08:18:07 15.6 C 11.17 g/m*3 15.6 C 0 km/h
1778 13-09-2006 08:28:07 15.7 C 11.37 g/m*3 15.7 C 0 km/h
1779 13-09-2006 08:38:07 15.8 C 11.44 g/m*3 15.8 C 0 km/h
1780 13-09-2006 08:48:07 16 C 11.44 g/m*3 16 C 0 km/h
1781 13-09-2006 08:58:07 16.2 C 11.72 g/m*3 16.2 C 0 km/h
1782 13-09-2006 09:08:03 16.3 C 11.79 g/m*3 16.3 C 0 km/h
1783 13-09-2006 09:18:02 16.5 C 11.94 g/m*3 16.5 C 0 km/h
1784 13-09-2006 09:28:02 16.7 C 12.08 g/m*3 16.7 C 0 km/h
1785 13-09-2006 09:38:02 17 C 12.15 g/m*3 17 C 0 km/h
1786 13-09-2006 09:48:03 17.4 C 12.3 g/m*3 17.4 C 0 km/h
1787 13-09-2006 09:58:03 17.8 C 12.45 g/m*3 17.8 C 0 km/h
1788 13-09-2006 10:08:03 18.3 C 12.51 g/m*3 18.3 C 0 km/h
1789 13-09-2006 10:18:03 18.7 C 12.65 g/m*3 18.7 C 0 km/h
1790 13-09-2006 10:28:03 19.2 C 12.7 g/m*3 19.2 C 0 km/h
1791 13-09-2006 10:38:02 19.5 C 12.75 g/m*3 19.5 C 0 km/h
1792 13-09-2006 10:48:02 20 C 12.62 g/m*3 20 C 0 km/h
1793 13-09-2006 10:58:02 20.7 C 12.6 g/m*3 20.7 C 0 km/h
1794 13-09-2006 11:08:02 21.1 C 12.53 g/m*3 21.1 C 0 km/h
1795 13-09-2006 11:18:02 21.6 C 12.9 g/m*3 21.6 C 0 km/h
1796 13-09-2006 11:28:02 22 C 12.81 g/m*3 22 C 0 km/h
1797 13-09-2006 11:38:02 22.4 C 12.91 g/m*3 22.4 C 0 km/h
1798 13-09-2006 11:48:02 23 C 12.95 g/m*3 23 C 0 km/h
1799 13-09-2006 11:58:02 23.9 C 13.41 g/m*3 23.9 C 0 km/h
1800 13-09-2006 12:08:02 23.8 C 13.12 g/m*3 23.8 C 0 km/h
Sensor: Nr:Datum:Temp:Abs-Feuchte:Windchill:Wind:
Aussen-T/F 1801 13-09-2006 12:18:01 24.4 C 12.91 g/m*3 24.4 C 0 km/h
1802 13-09-2006 12:28:01 25.2 C 12.57 g/m*3 25.2 C 0 km/h
1803 13-09-2006 12:38:01 25.4 C 12.95 g/m*3 25.4 C 0 km/h
1804 13-09-2006 12:48:02 25.6 C 11.67 g/m*3 25.6 C 0 km/h
1805 13-09-2006 12:58:02 26.1 C 12.49 g/m*3 26.1 C 0 km/h
1806 13-09-2006 13:08:02 26.6 C 11.33 g/m*3 26.6 C 0 km/h
1807 13-09-2006 13:18:01 27.1 C 11.39 g/m*3 27.1 C 0 km/h
1808 13-09-2006 13:28:01 27.6 C 11.97 g/m*3 27.6 C 0 km/h
1809 13-09-2006 13:38:01 28.3 C 10.78 g/m*3 28.3 C 0 km/h
1810 13-09-2006 13:48:02 28.9 C 9.71 g/m*3 28.9 C 0 km/h
1811 13-09-2006 13:58:02 29.4 C 10.27 g/m*3 29.4 C 0 km/h
1812 13-09-2006 14:08:02 29.7 C 9.85 g/m*3 29.7 C 0 km/h
1813 13-09-2006 14:18:02 30 C 9.4 g/m*3 30 C 0 km/h
1814 13-09-2006 14:28:02 30.4 C 9.3 g/m*3 30.4 C 0 km/h
1815 13-09-2006 14:38:01 30.6 C 8.46 g/m*3 30.6 C 0 km/h
1816 13-09-2006 14:48:02 30.9 C 8.91 g/m*3 30.9 C 0 km/h
1817 13-09-2006 14:58:02 30.4 C 8.68 g/m*3 30.4 C 0 km/h
1818 13-09-2006 15:08:02 30.6 C 9.08 g/m*3 30.6 C 0 km/h
1819 13-09-2006 15:18:02 30.7 C 8.82 g/m*3 30.7 C 0 km/h
1820 13-09-2006 15:28:02 30.9 C 8.91 g/m*3 30.9 C 0 km/h
1821 13-09-2006 15:38:01 31 C 9.28 g/m*3 31 C 0 km/h
1822 13-09-2006 15:48:02 30.6 C 8.46 g/m*3 30.6 C 0 km/h
1823 13-09-2006 15:58:03 30.9 C 8.91 g/m*3 30.9 C 0 km/h
1824 13-09-2006 16:08:02 31 C 8.96 g/m*3 31 C 0 km/h
1825 13-09-2006 16:18:02 31.1 C 9.33 g/m*3 31.1 C 0 km/h
Sensor: Nr:Datum:Temp:Abs-Feuchte:Windchill:Wind:
Aussen-T/F 1826 13-09-2006 16:28:02 31.2 C 8.73 g/m*3 31.2 C 0 km/h
1827 13-09-2006 16:38:02 30.9 C 9.55 g/m*3 30.9 C 0 km/h
1828 13-09-2006 16:48:02 30.6 C 9.4 g/m*3 30.6 C 0 km/h
1829 13-09-2006 16:58:02 30.4 C 9.61 g/m*3 30.4 C 0 km/h
1830 13-09-2006 17:08:02 30.2 C 10.42 g/m*3 30.2 C 0 km/h
1831 13-09-2006 17:18:02 29.5 C 10.92 g/m*3 29.5 C 0 km/h
1832 13-09-2006 17:28:02 30.4 C 10.85 g/m*3 30.4 C 0 km/h
1833 13-09-2006 17:38:02 30.9 C 10.19 g/m*3 30.9 C 0 km/h
1834 13-09-2006 17:48:02 31 C 10.56 g/m*3 31 C 0 km/h
1835 13-09-2006 17:58:02 30.9 C 10.19 g/m*3 30.9 C 0 km/h
1836 13-09-2006 18:08:02 30.9 C 10.5 g/m*3 30.9 C 0 km/h
1837 13-09-2006 18:18:02 30.9 C 10.82 g/m*3 30.9 C 0 km/h
1838 13-09-2006 18:28:02 30.6 C 10.96 g/m*3 30.6 C 0 km/h
1839 13-09-2006 18:38:02 30 C 10.92 g/m*3 30 C 0 km/h
1840 13-09-2006 18:48:02 29.6 C 10.98 g/m*3 29.6 C 0 km/h
1841 13-09-2006 18:58:02 28.7 C 11.3 g/m*3 28.7 C 0 km/h
1842 13-09-2006 19:08:02 27.6 C 11.17 g/m*3 27.6 C 0 km/h
1843 13-09-2006 19:18:02 26.9 C 11.26 g/m*3 26.9 C 0 km/h
1844 13-09-2006 19:28:02 26.2 C 11.08 g/m*3 26.2 C 0 km/h
1845 13-09-2006 19:38:03 25.3 C 10.77 g/m*3 25.3 C 0 km/h
1846 13-09-2006 19:48:02 24.9 C 10.99 g/m*3 24.9 C 0 km/h
1847 13-09-2006 19:58:02 24.3 C 10.62 g/m*3 24.3 C 0 km/h
1848 13-09-2006 20:08:02 24.2 C 10.56 g/m*3 24.2 C 0 km/h
1849 13-09-2006 20:18:02 23.7 C 10.69 g/m*3 23.7 C 0 km/h
1850 13-09-2006 20:28:02 23.2 C 10.81 g/m*3 23.2 C 0 km/h
Sensor: Nr:Datum:Temp:Abs-Feuchte:Windchill:Wind:
Aussen-T/F 1851 13-09-2006 20:38:02 23.1 C 10.96 g/m*3 23.1 C 0 km/h
1852 13-09-2006 20:48:02 22.9 C 11.04 g/m*3 22.9 C 0 km/h
1853 13-09-2006 20:58:03 22.8 C 10.97 g/m*3 22.8 C 0 km/h
1854 13-09-2006 21:08:02 22.5 C 10.99 g/m*3 22.5 C 0 km/h
1855 13-09-2006 21:18:02 22.4 C 10.92 g/m*3 22.4 C 0 km/h
1856 13-09-2006 21:28:02 22.3 C 10.86 g/m*3 22.3 C 0 km/h
1857 13-09-2006 21:39:48 22.1 C 10.74 g/m*3 22.1 C 0 km/h
1858 13-09-2006 21:49:48 22 C 10.87 g/m*3 22 C 0 km/h
1859 13-09-2006 21:59:48 21.9 C 11 g/m*3 21.9 C 0 km/h
1860 13-09-2006 22:09:48 21.8 C 10.94 g/m*3 21.8 C 0 km/h
1861 13-09-2006 22:19:48 21.7 C 10.87 g/m*3 21.7 C 0 km/h
1862 13-09-2006 22:29:48 21.6 C 11 g/m*3 21.6 C 0 km/h
1863 13-09-2006 22:39:48 21.5 C 10.94 g/m*3 21.5 C 0 km/h
1864 13-09-2006 22:49:48 21.2 C 10.75 g/m*3 21.2 C 0 km/h
1865 13-09-2006 22:59:48 21 C 10.81 g/m*3 21 C 0 km/h
1866 13-09-2006 23:09:48 20.9 C 10.93 g/m*3 20.9 C 0 km/h
1867 13-09-2006 23:19:48 20.8 C 11.05 g/m*3 20.8 C 0 km/h
1868 13-09-2006 23:29:48 20.6 C 10.92 g/m*3 20.6 C 0 km/h
1869 13-09-2006 23:39:48 20.3 C 10.9 g/m*3 20.3 C 0 km/h
1870 13-09-2006 23:49:48 20.3 C 11.08 g/m*3 20.3 C 0 km/h
1871 13-09-2006 23:59:49 20 C 10.89 g/m*3 20 C 0 km/h
1872 14-09-2006 00:09:49 19.9 C 11.17 g/m*3 19.9 C 0 km/h
1873 14-09-2006 00:19:49 19.7 C 11.21 g/m*3 19.7 C 0 km/h
1874 14-09-2006 00:29:49 19.6 C 11.14 g/m*3 19.6 C 0 km/h
1875 14-09-2006 00:39:49 19.6 C 11.48 g/m*3 19.6 C 0 km/h
Sensor: Nr:Datum:Temp:Abs-Feuchte:Windchill:Wind:
Aussen-T/F 1876 14-09-2006 00:49:49 19.4 C 11.18 g/m*3 19.4 C 0 km/h
1877 14-09-2006 00:59:49 19.1 C 11.15 g/m*3 19.1 C 0 km/h
1878 14-09-2006 01:09:49 19 C 11.24 g/m*3 19 C 0 km/h
1879 14-09-2006 01:19:49 18.9 C 11.34 g/m*3 18.9 C 0 km/h
1880 14-09-2006 01:29:49 18.7 C 11.53 g/m*3 18.7 C 0 km/h
1881 14-09-2006 01:39:49 18.6 C 11.46 g/m*3 18.6 C 0 km/h
1882 14-09-2006 01:49:49 18.5 C 11.39 g/m*3 18.5 C 0 km/h
1883 14-09-2006 01:59:49 18.3 C 11.41 g/m*3 18.3 C 0 km/h
1884 14-09-2006 02:09:49 18.2 C 11.35 g/m*3 18.2 C 0 km/h
1885 14-09-2006 02:19:49 18.1 C 11.28 g/m*3 18.1 C 0 km/h
1886 14-09-2006 02:29:49 17.9 C 11.45 g/m*3 17.9 C 0 km/h
1887 14-09-2006 02:39:49 17.9 C 11.45 g/m*3 17.9 C 0 km/h
1888 14-09-2006 02:49:50 17.7 C 11.47 g/m*3 17.7 C 0 km/h
1889 14-09-2006 02:59:50 17.7 C 11.62 g/m*3 17.7 C 0 km/h
1890 14-09-2006 03:09:50 17.5 C 11.78 g/m*3 17.5 C 0 km/h
1891 14-09-2006 03:19:50 17.3 C 11.49 g/m*3 17.3 C 0 km/h
1892 14-09-2006 03:29:50 17.2 C 11.42 g/m*3 17.2 C 0 km/h
1893 14-09-2006 03:39:50 17.1 C 11.35 g/m*3 17.1 C 0 km/h
1894 14-09-2006 03:49:50 16.9 C 11.36 g/m*3 16.9 C 0 km/h
1895 14-09-2006 03:59:50 16.8 C 11.29 g/m*3 16.8 C 0 km/h
1896 14-09-2006 04:09:50 16.8 C 11.29 g/m*3 16.8 C 0 km/h
1897 14-09-2006 04:19:50 16.7 C 11.23 g/m*3 16.7 C 0 km/h
1898 14-09-2006 04:29:50 16.5 C 11.23 g/m*3 16.5 C 0 km/h
1899 14-09-2006 04:39:50 16.4 C 11.17 g/m*3 16.4 C 0 km/h
1900 14-09-2006 04:49:50 16.4 C 11.17 g/m*3 16.4 C 0 km/h
Sensor: Nr:Datum:Temp:Abs-Feuchte:Windchill:Wind:
Aussen-T/F 1901 14-09-2006 04:59:50 16.3 C 11.24 g/m*3 16.3 C 0 km/h
1902 14-09-2006 05:09:50 16.2 C 11.31 g/m*3 16.2 C 0 km/h
1903 14-09-2006 05:19:50 16.1 C 11.24 g/m*3 16.1 C 0 km/h
1904 14-09-2006 05:29:50 16 C 11.17 g/m*3 16 C 0 km/h
1905 14-09-2006 05:39:50 15.7 C 11.11 g/m*3 15.7 C 0 km/h
1906 14-09-2006 05:49:51 15.6 C 11.17 g/m*3 15.6 C 0 km/h
1907 14-09-2006 05:59:51 15.4 C 11.04 g/m*3 15.4 C 0 km/h
1908 14-09-2006 06:09:51 15.2 C 10.9 g/m*3 15.2 C 0 km/h
1909 14-09-2006 06:19:51 15.2 C 10.9 g/m*3 15.2 C 0 km/h
1910 14-09-2006 06:29:51 15.1 C 10.84 g/m*3 15.1 C 0 km/h
1911 14-09-2006 06:39:51 15 C 10.77 g/m*3 15 C 0 km/h
1912 14-09-2006 06:49:51 15 C 10.77 g/m*3 15 C 0 km/h
1913 14-09-2006 06:59:51 14.9 C 10.96 g/m*3 14.9 C 0 km/h
1914 14-09-2006 07:09:51 14.8 C 10.77 g/m*3 14.8 C 0 km/h
1915 14-09-2006 07:19:51 14.9 C 10.96 g/m*3 14.9 C 0 km/h
1916 14-09-2006 07:29:02 14.9 C 10.96 g/m*3 14.9 C 0 km/h
1917 14-09-2006 07:39:02 14.8 C 10.89 g/m*3 14.8 C 0 km/h
1918 14-09-2006 07:49:02 15 C 10.9 g/m*3 15 C 0 km/h
1919 14-09-2006 07:59:02 15.2 C 11.03 g/m*3 15.2 C 0 km/h
1920 14-09-2006 08:09:02 15.3 C 11.1 g/m*3 15.3 C 0 km/h
1921 14-09-2006 08:19:02 15.3 C 11.1 g/m*3 15.3 C 0 km/h
1922 14-09-2006 08:29:02 15.8 C 11.31 g/m*3 15.8 C 0 km/h
1923 14-09-2006 08:39:02 16.1 C 11.38 g/m*3 16.1 C 0 km/h
1924 14-09-2006 08:49:02 16.3 C 11.38 g/m*3 16.3 C 0 km/h
1925 14-09-2006 08:59:02 16.5 C 11.51 g/m*3 16.5 C 0 km/h
Sensor: Nr:Datum:Temp:Abs-Feuchte:Windchill:Wind:
Aussen-T/F 1926 14-09-2006 09:09:03 16.6 C 11.44 g/m*3 16.6 C 0 km/h
1927 14-09-2006 09:19:02 16.6 C 11.3 g/m*3 16.6 C 0 km/h
1928 14-09-2006 09:29:02 16.9 C 11.36 g/m*3 16.9 C 0 km/h
1929 14-09-2006 09:39:03 17.2 C 11.72 g/m*3 17.2 C 0 km/h
1930 14-09-2006 09:49:02 17.6 C 12.15 g/m*3 17.6 C 0 km/h
1931 14-09-2006 09:59:02 18 C 11.98 g/m*3 18 C 0 km/h
1932 14-09-2006 10:09:02 18.3 C 11.88 g/m*3 18.3 C 0 km/h
1933 14-09-2006 10:19:02 18.7 C 11.69 g/m*3 18.7 C 0 km/h
1934 14-09-2006 10:29:02 19.2 C 11.05 g/m*3 19.2 C 0 km/h
1935 14-09-2006 10:39:02 19.7 C 10.87 g/m*3 19.7 C 0 km/h
1936 14-09-2006 10:49:02 20.2 C 10.49 g/m*3 20.2 C 0 km/h
1937 14-09-2006 10:59:02 20.6 C 10.56 g/m*3 20.6 C 0 km/h
1938 14-09-2006 11:09:02 21 C 10.44 g/m*3 21 C 0 km/h
1939 14-09-2006 11:19:02 21.4 C 10.5 g/m*3 21.4 C 0 km/h
1940 14-09-2006 11:29:02 21.6 C 10.24 g/m*3 21.6 C 0 km/h
1941 14-09-2006 11:39:03 22 C 9.9 g/m*3 22 C 0 km/h
1942 14-09-2006 11:49:02 22.5 C 10.19 g/m*3 22.5 C 0 km/h
1943 14-09-2006 11:59:02 22.6 C 10.04 g/m*3 22.6 C 0 km/h
1944 14-09-2006 12:09:03 23.1 C 10.13 g/m*3 23.1 C 0 km/h
1945 14-09-2006 12:19:02 23.3 C 10.04 g/m*3 23.3 C 0 km/h
1946 14-09-2006 12:29:02 23.7 C 10.27 g/m*3 23.7 C 0 km/h
1947 14-09-2006 12:39:03 23.8 C 10.76 g/m*3 23.8 C 0 km/h
1948 14-09-2006 12:49:03 23.7 C 10.48 g/m*3 23.7 C 0 km/h
1949 14-09-2006 12:59:03 24.1 C 10.94 g/m*3 24.1 C 0 km/h
1950 14-09-2006 13:09:03 24.4 C 10.9 g/m*3 24.4 C 0 km/h
Sensor: Nr:Datum:Temp:Abs-Feuchte:Windchill:Wind:
Aussen-T/F 1951 14-09-2006 13:19:02 24.9 C 11.45 g/m*3 24.9 C 0 km/h
1952 14-09-2006 13:29:02 25.6 C 10 g/m*3 25.6 C 0 km/h
1953 14-09-2006 13:39:02 26 C 10.96 g/m*3 26 C 0 km/h
1954 14-09-2006 13:49:02 26.6 C 10.57 g/m*3 26.6 C 0 km/h
1955 14-09-2006 13:59:02 27.2 C 9.63 g/m*3 27.2 C 0 km/h
1956 14-09-2006 14:09:02 27.5 C 10.58 g/m*3 27.5 C 0 km/h
1957 14-09-2006 14:19:02 28.3 C 8.85 g/m*3 28.3 C 0 km/h
1958 14-09-2006 14:29:02 28.5 C 9.5 g/m*3 28.5 C 0 km/h
1959 14-09-2006 14:39:01 28.5 C 9.22 g/m*3 28.5 C 0 km/h
1960 14-09-2006 14:49:02 28.4 C 8.9 g/m*3 28.4 C 0 km/h
1961 14-09-2006 14:59:02 28.8 C 10.51 g/m*3 28.8 C 0 km/h
1962 14-09-2006 15:09:02 29.5 C 8.85 g/m*3 29.5 C 0 km/h
1963 14-09-2006 15:19:02 30 C 8.19 g/m*3 30 C 0 km/h
1964 14-09-2006 15:29:02 30.4 C 8.37 g/m*3 30.4 C 0 km/h
1965 14-09-2006 15:39:02 30.3 C 8.32 g/m*3 30.3 C 0 km/h
1966 14-09-2006 15:49:02 30.1 C 8.54 g/m*3 30.1 C 0 km/h
1967 14-09-2006 15:59:02 29.6 C 8.9 g/m*3 29.6 C 0 km/h
1968 14-09-2006 16:09:02 29.2 C 9.87 g/m*3 29.2 C 0 km/h
1969 14-09-2006 16:19:02 29.7 C 10.44 g/m*3 29.7 C 0 km/h
1970 14-09-2006 16:29:02 30 C 9.7 g/m*3 30 C 0 km/h
1971 14-09-2006 16:39:02 30.4 C 8.37 g/m*3 30.4 C 0 km/h
1972 14-09-2006 16:49:02 30.1 C 9.15 g/m*3 30.1 C 0 km/h
1973 14-09-2006 16:59:02 29.4 C 9.39 g/m*3 29.4 C 0 km/h
1974 14-09-2006 17:09:02 28.9 C 10 g/m*3 28.9 C 0 km/h
1975 14-09-2006 17:19:02 28.2 C 10.17 g/m*3 28.2 C 0 km/h
Sensor: Nr:Datum:Temp:Abs-Feuchte:Windchill:Wind:
Aussen-T/F 1976 14-09-2006 17:29:02 28.2 C 10.17 g/m*3 28.2 C 0 km/h
1977 14-09-2006 17:39:02 26.9 C 10.49 g/m*3 26.9 C 0 km/h
1978 14-09-2006 17:49:02 26.4 C 10.7 g/m*3 26.4 C 0 km/h
1979 14-09-2006 17:59:02 26.1 C 10.53 g/m*3 26.1 C 0 km/h
1980 14-09-2006 18:09:03 25.7 C 11.01 g/m*3 25.7 C 0 km/h
1981 14-09-2006 18:19:03 25.5 C 10.89 g/m*3 25.5 C 0 km/h
1982 14-09-2006 18:29:03 25.2 C 10.94 g/m*3 25.2 C 0 km/h
1983 14-09-2006 18:39:03 25.2 C 10.94 g/m*3 25.2 C 0 km/h
1984 14-09-2006 18:49:02 24.5 C 10.74 g/m*3 24.5 C 0 km/h
1985 14-09-2006 18:59:02 24.2 C 10.56 g/m*3 24.2 C 0 km/h
1986 14-09-2006 19:09:02 23.9 C 10.38 g/m*3 23.9 C 0 km/h
1987 14-09-2006 19:19:02 23.7 C 10.27 g/m*3 23.7 C 0 km/h
1988 14-09-2006 19:29:02 23.5 C 10.36 g/m*3 23.5 C 0 km/h
1989 14-09-2006 19:39:03 23.3 C 10.45 g/m*3 23.3 C 0 km/h
1990 14-09-2006 19:49:03 23.2 C 10.39 g/m*3 23.2 C 0 km/h
1991 14-09-2006 19:59:03 23.1 C 10.34 g/m*3 23.1 C 0 km/h
1992 14-09-2006 20:09:02 23.1 C 10.13 g/m*3 23.1 C 0 km/h
1993 14-09-2006 20:19:03 23.1 C 10.13 g/m*3 23.1 C 0 km/h
1994 14-09-2006 20:29:03 23 C 10.07 g/m*3 23 C 0 km/h
1995 14-09-2006 20:39:03 22.7 C 10.3 g/m*3 22.7 C 0 km/h
1996 14-09-2006 20:49:02 22.5 C 10.19 g/m*3 22.5 C 0 km/h
1997 14-09-2006 20:59:02 22.1 C 10.15 g/m*3 22.1 C 0 km/h
1998 14-09-2006 21:09:02 21.8 C 10.36 g/m*3 21.8 C 0 km/h
1999 14-09-2006 21:19:02 21.7 C 10.3 g/m*3 21.7 C 0 km/h
2000 14-09-2006 21:29:02 21.5 C 10.37 g/m*3 21.5 C 0 km/h
Sensor: Nr:Datum:Temp:Abs-Feuchte:Windchill:Wind:
Aussen-T/F 2001 14-09-2006 21:39:02 21.4 C 10.5 g/m*3 21.4 C 0 km/h
2002 14-09-2006 21:49:01 21.2 C 10.19 g/m*3 21.2 C 0 km/h
2003 14-09-2006 21:59:01 21.1 C 10.32 g/m*3 21.1 C 0 km/h
2004 14-09-2006 22:09:02 21.1 C 10.5 g/m*3 21.1 C 0 km/h
2005 14-09-2006 22:19:02 21.2 C 10.56 g/m*3 21.2 C 0 km/h
2006 14-09-2006 22:29:02 21.2 C 10.75 g/m*3 21.2 C 0 km/h
2007 14-09-2006 22:39:02 21 C 10.62 g/m*3 21 C 0 km/h
2008 14-09-2006 22:49:02 21 C 10.62 g/m*3 21 C 0 km/h
2009 14-09-2006 22:59:02 21 C 10.62 g/m*3 21 C 0 km/h
2010 14-09-2006 23:09:01 20.9 C 10.75 g/m*3 20.9 C 0 km/h
2011 14-09-2006 23:19:01 20.8 C 10.68 g/m*3 20.8 C 0 km/h
2012 14-09-2006 23:29:01 20.7 C 10.62 g/m*3 20.7 C 0 km/h
2013 14-09-2006 23:39:01 20.4 C 10.44 g/m*3 20.4 C 0 km/h
2014 14-09-2006 23:49:02 20.3 C 10.55 g/m*3 20.3 C 0 km/h
2015 14-09-2006 23:59:02 20.1 C 10.6 g/m*3 20.1 C 0 km/h
2016 15-09-2006 00:09:02 19.8 C 10.59 g/m*3 19.8 C 0 km/h
2017 15-09-2006 00:19:03 19.7 C 10.36 g/m*3 19.7 C 0 km/h
2018 15-09-2006 00:29:03 19.8 C 10.42 g/m*3 19.8 C 0 km/h
2019 15-09-2006 00:39:03 19.7 C 10.02 g/m*3 19.7 C 0 km/h
2020 15-09-2006 00:49:02 19.7 C 10.19 g/m*3 19.7 C 0 km/h
2021 15-09-2006 00:59:03 19.5 C 10.07 g/m*3 19.5 C 0 km/h
2022 15-09-2006 01:09:02 19.5 C 10.24 g/m*3 19.5 C 0 km/h
2023 15-09-2006 01:19:02 19.5 C 10.07 g/m*3 19.5 C 0 km/h
2024 15-09-2006 01:29:02 19.3 C 10.12 g/m*3 19.3 C 0 km/h
2025 15-09-2006 01:39:03 19.1 C 10.33 g/m*3 19.1 C 0 km/h
Sensor: Nr:Datum:Temp:Abs-Feuchte:Windchill:Wind:
Aussen-T/F 2026 15-09-2006 01:49:02 19 C 10.43 g/m*3 19 C 0 km/h
2027 15-09-2006 01:59:02 18.8 C 10.31 g/m*3 18.8 C 0 km/h
2028 15-09-2006 02:09:02 18.7 C 10.09 g/m*3 18.7 C 0 km/h
2029 15-09-2006 02:19:01 18.4 C 9.91 g/m*3 18.4 C 0 km/h
2030 15-09-2006 02:29:01 18.2 C 9.79 g/m*3 18.2 C 0 km/h
2031 15-09-2006 02:39:02 18 C 9.83 g/m*3 18 C 0 km/h
2032 15-09-2006 02:50:04 17.9 C 9.92 g/m*3 17.9 C 0 km/h
2033 15-09-2006 03:00:04 17.9 C 10.23 g/m*3 17.9 C 0 km/h
2034 15-09-2006 03:10:04 17.8 C 10.02 g/m*3 17.8 C 0 km/h
2035 15-09-2006 03:20:04 17.7 C 9.96 g/m*3 17.7 C 0 km/h
2036 15-09-2006 03:30:04 17.6 C 9.9 g/m*3 17.6 C 0 km/h
2037 15-09-2006 03:40:02 17.5 C 9.84 g/m*3 17.5 C 0 km/h
2038 15-09-2006 03:50:02 17.4 C 9.93 g/m*3 17.4 C 0 km/h
2039 15-09-2006 04:00:03 17.2 C 9.81 g/m*3 17.2 C 0 km/h
2040 15-09-2006 04:10:03 17.1 C 9.75 g/m*3 17.1 C 0 km/h
2041 15-09-2006 04:20:03 17 C 9.84 g/m*3 17 C 0 km/h
2042 15-09-2006 04:30:03 17 C 9.84 g/m*3 17 C 0 km/h
2043 15-09-2006 04:40:02 17.1 C 9.9 g/m*3 17.1 C 0 km/h
2044 15-09-2006 04:50:02 17.2 C 10.1 g/m*3 17.2 C 0 km/h
2045 15-09-2006 05:00:02 17.2 C 9.96 g/m*3 17.2 C 0 km/h
2046 15-09-2006 05:10:02 17.3 C 10.02 g/m*3 17.3 C 0 km/h
2047 15-09-2006 05:20:02 17.4 C 9.93 g/m*3 17.4 C 0 km/h
2048 15-09-2006 05:30:02 17.4 C 9.93 g/m*3 17.4 C 0 km/h
2049 15-09-2006 05:40:03 17.5 C 9.84 g/m*3 17.5 C 0 km/h
2050 15-09-2006 05:50:02 17.5 C 9.84 g/m*3 17.5 C 0 km/h
Sensor: Nr:Datum:Temp:Abs-Feuchte:Windchill:Wind:
Aussen-T/F 2051 15-09-2006 06:00:02 17.3 C 10.02 g/m*3 17.3 C 0 km/h
2052 15-09-2006 06:10:03 17.3 C 9.87 g/m*3 17.3 C 0 km/h
2053 15-09-2006 06:20:03 17.2 C 9.81 g/m*3 17.2 C 0 km/h
2054 15-09-2006 06:30:03 17.3 C 9.72 g/m*3 17.3 C 0 km/h
2055 15-09-2006 06:40:03 17.3 C 9.58 g/m*3 17.3 C 0 km/h
2056 15-09-2006 06:50:02 17.4 C 9.48 g/m*3 17.4 C 0 km/h
2057 15-09-2006 07:00:02 17.3 C 9.43 g/m*3 17.3 C 0 km/h
2058 15-09-2006 07:10:03 17 C 9.55 g/m*3 17 C 0 km/h
2059 15-09-2006 07:20:02 17 C 9.55 g/m*3 17 C 0 km/h
2060 15-09-2006 07:30:02 16.9 C 9.64 g/m*3 16.9 C 0 km/h
2061 15-09-2006 07:40:03 16.6 C 9.61 g/m*3 16.6 C 0 km/h
2062 15-09-2006 07:50:02 16.7 C 9.81 g/m*3 16.7 C 0 km/h
2063 15-09-2006 08:00:02 16.6 C 9.89 g/m*3 16.6 C 0 km/h
2064 15-09-2006 08:10:02 16.8 C 9.87 g/m*3 16.8 C 0 km/h
2065 15-09-2006 08:20:02 17.1 C 9.9 g/m*3 17.1 C 0 km/h
2066 15-09-2006 08:30:02 17.3 C 9.87 g/m*3 17.3 C 0 km/h
2067 15-09-2006 08:40:01 17.5 C 9.99 g/m*3 17.5 C 0 km/h
2068 15-09-2006 08:50:02 17.7 C 9.96 g/m*3 17.7 C 0 km/h
2069 15-09-2006 09:00:02 17.8 C 9.87 g/m*3 17.8 C 0 km/h
2070 15-09-2006 09:10:02 17.9 C 9.92 g/m*3 17.9 C 0 km/h
2071 15-09-2006 09:20:02 18.2 C 9.95 g/m*3 18.2 C 0 km/h
2072 15-09-2006 09:30:02 18.4 C 10.07 g/m*3 18.4 C 0 km/h
2073 15-09-2006 09:40:02 18.7 C 9.93 g/m*3 18.7 C 0 km/h
2074 15-09-2006 09:50:02 19 C 9.61 g/m*3 19 C 0 km/h
2075 15-09-2006 10:00:02 19.2 C 10.06 g/m*3 19.2 C 0 km/h
Sensor: Nr:Datum:Temp:Abs-Feuchte:Windchill:Wind:
Aussen-T/F 2076 15-09-2006 10:10:02 19.3 C 10.12 g/m*3 19.3 C 0 km/h
2077 15-09-2006 10:20:02 19.6 C 9.96 g/m*3 19.6 C 0 km/h
2078 15-09-2006 10:30:02 20 C 9.85 g/m*3 20 C 0 km/h
2079 15-09-2006 10:40:02 20.8 C 9.78 g/m*3 20.8 C 0 km/h
2080 15-09-2006 10:50:02 21.4 C 8.81 g/m*3 21.4 C 0 km/h
2081 15-09-2006 11:00:02 21.8 C 9.21 g/m*3 21.8 C 0 km/h
2082 15-09-2006 11:10:02 22.5 C 9.19 g/m*3 22.5 C 0 km/h
2083 15-09-2006 11:20:02 22.7 C 8.89 g/m*3 22.7 C 0 km/h
2084 15-09-2006 11:30:02 22.9 C 8.99 g/m*3 22.9 C 0 km/h
2085 15-09-2006 11:40:02 23.3 C 8.99 g/m*3 23.3 C 0 km/h
2086 15-09-2006 11:50:02 23.7 C 8.98 g/m*3 23.7 C 0 km/h
2087 15-09-2006 12:00:02 23.8 C 9.25 g/m*3 23.8 C 0 km/h
2088 15-09-2006 12:10:03 24.1 C 8.75 g/m*3 24.1 C 0 km/h
2089 15-09-2006 12:20:02 24.4 C 9.12 g/m*3 24.4 C 0 km/h
2090 15-09-2006 12:30:02 24.6 C 8.78 g/m*3 24.6 C 0 km/h
2091 15-09-2006 12:40:02 24.7 C 8.83 g/m*3 24.7 C 0 km/h
2092 15-09-2006 12:50:02 25.3 C 8.43 g/m*3 25.3 C 0 km/h
2093 15-09-2006 13:00:02 25.4 C 8.71 g/m*3 25.4 C 0 km/h
2094 15-09-2006 13:10:02 25.1 C 8.8 g/m*3 25.1 C 0 km/h
2095 15-09-2006 13:20:02 25.8 C 8.91 g/m*3 25.8 C 0 km/h
2096 15-09-2006 13:30:02 26.4 C 8.71 g/m*3 26.4 C 0 km/h
2097 15-09-2006 13:40:02 26.7 C 8.86 g/m*3 26.7 C 0 km/h
2098 15-09-2006 13:50:02 26.6 C 9.06 g/m*3 26.6 C 0 km/h
2099 15-09-2006 14:00:02 26.7 C 8.86 g/m*3 26.7 C 0 km/h
2100 15-09-2006 14:10:02 26.9 C 9.21 g/m*3 26.9 C 0 km/h
Sensor: Nr:Datum:Temp:Abs-Feuchte:Windchill:Wind:
Aussen-T/F 2101 15-09-2006 14:20:02 26.8 C 9.42 g/m*3 26.8 C 0 km/h
2102 15-09-2006 14:30:02 26.9 C 8.96 g/m*3 26.9 C 0 km/h
2103 15-09-2006 14:40:02 26.9 C 8.96 g/m*3 26.9 C 0 km/h
2104 15-09-2006 14:50:02 27.3 C 8.9 g/m*3 27.3 C 0 km/h
2105 15-09-2006 15:00:02 27.5 C 9.26 g/m*3 27.5 C 0 km/h
2106 15-09-2006 15:10:02 27.4 C 9.47 g/m*3 27.4 C 0 km/h
2107 15-09-2006 15:20:01 27 C 9.01 g/m*3 27 C 0 km/h
2108 15-09-2006 15:30:01 27 C 9.01 g/m*3 27 C 0 km/h
2109 15-09-2006 15:40:03 26.7 C 9.11 g/m*3 26.7 C 0 km/h
2110 15-09-2006 15:50:02 26.7 C 9.11 g/m*3 26.7 C 0 km/h
2111 15-09-2006 16:00:02 26.8 C 9.67 g/m*3 26.8 C 0 km/h
2112 15-09-2006 16:10:02 26.7 C 10.38 g/m*3 26.7 C 0 km/h
2113 15-09-2006 16:20:02 26.2 C 9.85 g/m*3 26.2 C 0 km/h
2114 15-09-2006 16:30:02 26 C 10.23 g/m*3 26 C 0 km/h
2115 15-09-2006 16:40:02 25.9 C 10.41 g/m*3 25.9 C 0 km/h
2116 15-09-2006 16:50:02 26 C 10.96 g/m*3 26 C 0 km/h
2117 15-09-2006 17:00:02 26 C 10.71 g/m*3 26 C 0 km/h
2118 15-09-2006 17:10:02 26.4 C 10.46 g/m*3 26.4 C 0 km/h
2119 15-09-2006 17:20:01 26.3 C 11.14 g/m*3 26.3 C 0 km/h
2120 15-09-2006 17:30:01 25.7 C 11.01 g/m*3 25.7 C 0 km/h
2121 15-09-2006 17:40:01 25.3 C 11.24 g/m*3 25.3 C 0 km/h
2122 15-09-2006 17:50:02 25 C 11.28 g/m*3 25 C 0 km/h
2123 15-09-2006 18:00:02 24.3 C 11.51 g/m*3 24.3 C 0 km/h
2124 15-09-2006 18:10:02 23.5 C 12.05 g/m*3 23.5 C 0 km/h
2125 15-09-2006 18:20:02 22.9 C 12.26 g/m*3 22.9 C 0 km/h
Sensor: Nr:Datum:Temp:Abs-Feuchte:Windchill:Wind:
Aussen-T/F 2126 15-09-2006 18:30:02 21.8 C 12.09 g/m*3 21.8 C 0 km/h
2127 15-09-2006 18:40:02 22 C 11.84 g/m*3 22 C 0 km/h
2128 15-09-2006 18:50:02 22.8 C 11.58 g/m*3 22.8 C 0 km/h
2129 15-09-2006 19:00:02 22.8 C 11.38 g/m*3 22.8 C 0 km/h
2130 15-09-2006 19:10:02 22.8 C 11.38 g/m*3 22.8 C 0 km/h
2131 15-09-2006 19:20:02 22.8 C 11.18 g/m*3 22.8 C 0 km/h
2132 15-09-2006 19:30:02 22.7 C 10.91 g/m*3 22.7 C 0 km/h
2133 15-09-2006 19:40:01 22.7 C 11.11 g/m*3 22.7 C 0 km/h
2134 15-09-2006 19:50:02 22.6 C 11.05 g/m*3 22.6 C 0 km/h
2135 15-09-2006 20:00:02 22.4 C 11.12 g/m*3 22.4 C 0 km/h
2136 15-09-2006 20:10:02 22.2 C 10.8 g/m*3 22.2 C 0 km/h
2137 15-09-2006 20:20:02 22.2 C 10.8 g/m*3 22.2 C 0 km/h
2138 15-09-2006 20:30:02 22.1 C 10.74 g/m*3 22.1 C 0 km/h
2139 15-09-2006 20:40:03 22.1 C 10.74 g/m*3 22.1 C 0 km/h
2140 15-09-2006 20:50:02 22.1 C 10.74 g/m*3 22.1 C 0 km/h
2141 15-09-2006 21:00:02 22.1 C 10.74 g/m*3 22.1 C 0 km/h
2142 15-09-2006 21:10:02 22.1 C 10.74 g/m*3 22.1 C 0 km/h
2143 15-09-2006 21:20:02 22 C 10.67 g/m*3 22 C 0 km/h
2144 15-09-2006 21:30:02 21.9 C 10.81 g/m*3 21.9 C 0 km/h
2145 15-09-2006 21:40:02 21.9 C 10.81 g/m*3 21.9 C 0 km/h
2146 15-09-2006 21:50:02 21.8 C 10.74 g/m*3 21.8 C 0 km/h
2147 15-09-2006 22:00:02 21.8 C 10.74 g/m*3 21.8 C 0 km/h
2148 15-09-2006 22:10:02 21.8 C 10.74 g/m*3 21.8 C 0 km/h
2149 15-09-2006 22:20:02 21.7 C 10.68 g/m*3 21.7 C 0 km/h
2150 15-09-2006 22:30:02 21.6 C 10.62 g/m*3 21.6 C 0 km/h
Sensor: Nr:Datum:Temp:Abs-Feuchte:Windchill:Wind:
Aussen-T/F 2151 15-09-2006 22:40:03 21.3 C 10.62 g/m*3 21.3 C 0 km/h
2152 15-09-2006 22:50:02 21.2 C 10.56 g/m*3 21.2 C 0 km/h
2153 15-09-2006 23:00:02 20.8 C 10.68 g/m*3 20.8 C 0 km/h
2154 15-09-2006 23:10:02 20.8 C 10.68 g/m*3 20.8 C 0 km/h
2155 15-09-2006 23:20:02 20.4 C 10.79 g/m*3 20.4 C 0 km/h
2156 15-09-2006 23:30:02 20.2 C 10.67 g/m*3 20.2 C 0 km/h
2157 15-09-2006 23:40:02 20 C 10.54 g/m*3 20 C 0 km/h
2158 15-09-2006 23:50:01 19.9 C 10.65 g/m*3 19.9 C 0 km/h
2159 16-09-2006 00:00:01 19.6 C 10.64 g/m*3 19.6 C 0 km/h
2160 16-09-2006 00:10:01 19.4 C 10.68 g/m*3 19.4 C 0 km/h
2161 16-09-2006 00:20:02 19.2 C 10.72 g/m*3 19.2 C 0 km/h
2162 16-09-2006 00:30:02 19.1 C 10.66 g/m*3 19.1 C 0 km/h
2163 16-09-2006 00:40:02 19 C 10.76 g/m*3 19 C 0 km/h
2164 16-09-2006 00:50:02 19.1 C 10.82 g/m*3 19.1 C 0 km/h
2165 16-09-2006 01:00:02 19.1 C 10.82 g/m*3 19.1 C 0 km/h
2166 16-09-2006 01:10:02 19 C 10.76 g/m*3 19 C 0 km/h
2167 16-09-2006 01:20:02 18.9 C 11.02 g/m*3 18.9 C 0 km/h
2168 16-09-2006 01:30:02 18.8 C 11.11 g/m*3 18.8 C 0 km/h
2169 16-09-2006 01:40:02 18.8 C 11.11 g/m*3 18.8 C 0 km/h
2170 16-09-2006 01:50:02 18.7 C 11.05 g/m*3 18.7 C 0 km/h
2171 16-09-2006 02:00:02 18.7 C 11.05 g/m*3 18.7 C 0 km/h
2172 16-09-2006 02:10:02 18.7 C 10.89 g/m*3 18.7 C 0 km/h
2173 16-09-2006 02:20:02 18.7 C 11.05 g/m*3 18.7 C 0 km/h
2174 16-09-2006 02:30:02 18.6 C 10.98 g/m*3 18.6 C 0 km/h
2175 16-09-2006 02:40:02 18.5 C 11.08 g/m*3 18.5 C 0 km/h
Sensor: Nr:Datum:Temp:Abs-Feuchte:Windchill:Wind:
Aussen-T/F 2176 16-09-2006 02:51:04 18.5 C 11.08 g/m*3 18.5 C 0 km/h
2177 16-09-2006 03:01:04 18.4 C 11.01 g/m*3 18.4 C 0 km/h
2178 16-09-2006 03:11:04 18.3 C 11.1 g/m*3 18.3 C 0 km/h
2179 16-09-2006 03:21:04 18.2 C 11.04 g/m*3 18.2 C 0 km/h
2180 16-09-2006 03:31:02 18.1 C 10.97 g/m*3 18.1 C 0 km/h
2181 16-09-2006 03:41:02 18 C 10.91 g/m*3 18 C 0 km/h
2182 16-09-2006 03:51:02 18 C 11.06 g/m*3 18 C 0 km/h
2183 16-09-2006 04:01:02 18.1 C 11.12 g/m*3 18.1 C 0 km/h
2184 16-09-2006 04:11:02 17.8 C 11.23 g/m*3 17.8 C 0 km/h
2185 16-09-2006 04:21:01 17.5 C 11.03 g/m*3 17.5 C 0 km/h
2186 16-09-2006 04:31:02 17.5 C 11.18 g/m*3 17.5 C 0 km/h
2187 16-09-2006 04:41:03 17.4 C 11.12 g/m*3 17.4 C 0 km/h
2188 16-09-2006 04:51:01 17.3 C 11.05 g/m*3 17.3 C 0 km/h
2189 16-09-2006 05:01:01 17.2 C 10.98 g/m*3 17.2 C 0 km/h
2190 16-09-2006 05:11:01 17.2 C 11.13 g/m*3 17.2 C 0 km/h
2191 16-09-2006 05:21:01 17.1 C 10.92 g/m*3 17.1 C 0 km/h
2192 16-09-2006 05:31:02 17 C 11.14 g/m*3 17 C 0 km/h
2193 16-09-2006 05:41:02 16.8 C 11.29 g/m*3 16.8 C 0 km/h
2194 16-09-2006 05:51:02 16.6 C 11.16 g/m*3 16.6 C 0 km/h
2195 16-09-2006 06:01:02 16.5 C 11.09 g/m*3 16.5 C 0 km/h
2196 16-09-2006 06:11:02 16.4 C 11.03 g/m*3 16.4 C 0 km/h
2197 16-09-2006 06:21:02 16.2 C 10.89 g/m*3 16.2 C 0 km/h
2198 16-09-2006 06:31:02 16.1 C 10.97 g/m*3 16.1 C 0 km/h
2199 16-09-2006 06:41:02 16 C 10.9 g/m*3 16 C 0 km/h
2200 16-09-2006 06:51:02 15.8 C 11.17 g/m*3 15.8 C 0 km/h
Sensor: Nr:Datum:Temp:Abs-Feuchte:Windchill:Wind:
Aussen-T/F 2201 16-09-2006 07:01:02 15.8 C 11.17 g/m*3 15.8 C 0 km/h
2202 16-09-2006 07:11:02 15.6 C 11.04 g/m*3 15.6 C 0 km/h
2203 16-09-2006 07:21:02 15.6 C 11.04 g/m*3 15.6 C 0 km/h
2204 16-09-2006 07:31:02 15.5 C 10.97 g/m*3 15.5 C 0 km/h
2205 16-09-2006 07:41:02 15.4 C 10.9 g/m*3 15.4 C 0 km/h
2206 16-09-2006 07:51:02 15.6 C 11.04 g/m*3 15.6 C 0 km/h
2207 16-09-2006 08:01:02 15.7 C 11.24 g/m*3 15.7 C 0 km/h
2208 16-09-2006 08:11:02 15.8 C 11.31 g/m*3 15.8 C 0 km/h
2209 16-09-2006 08:21:02 15.8 C 11.31 g/m*3 15.8 C 0 km/h
2210 16-09-2006 08:31:02 16 C 11.31 g/m*3 16 C 0 km/h
2211 16-09-2006 08:41:02 16.2 C 11.45 g/m*3 16.2 C 0 km/h
2212 16-09-2006 08:51:02 16.4 C 11.45 g/m*3 16.4 C 0 km/h
2213 16-09-2006 09:01:02 16.6 C 11.58 g/m*3 16.6 C 0 km/h
2214 16-09-2006 09:11:02 16.8 C 11.58 g/m*3 16.8 C 0 km/h
2215 16-09-2006 09:21:02 17 C 11.58 g/m*3 17 C 0 km/h
2216 16-09-2006 09:31:02 17.3 C 11.64 g/m*3 17.3 C 0 km/h
2217 16-09-2006 09:41:02 17.6 C 11.7 g/m*3 17.6 C 0 km/h
2218 16-09-2006 09:51:02 18 C 11.83 g/m*3 18 C 0 km/h
2219 16-09-2006 10:01:02 18.6 C 11.94 g/m*3 18.6 C 0 km/h
2220 16-09-2006 10:11:02 19.1 C 11.64 g/m*3 19.1 C 0 km/h
2221 16-09-2006 10:21:01 19.3 C 11.61 g/m*3 19.3 C 0 km/h
2222 16-09-2006 10:31:01 19.7 C 12.06 g/m*3 19.7 C 0 km/h
2223 16-09-2006 10:41:01 19.8 C 12.13 g/m*3 19.8 C 0 km/h
2224 16-09-2006 10:51:02 20.4 C 11.85 g/m*3 20.4 C 0 km/h
2225 16-09-2006 11:01:02 21.2 C 11.68 g/m*3 21.2 C 0 km/h
Sensor: Nr:Datum:Temp:Abs-Feuchte:Windchill:Wind:
Aussen-T/F 2226 16-09-2006 11:11:02 21.8 C 11.9 g/m*3 21.8 C 0 km/h
2227 16-09-2006 11:21:02 22.2 C 11.58 g/m*3 22.2 C 0 km/h
2228 16-09-2006 11:31:01 22.4 C 11.32 g/m*3 22.4 C 0 km/h
2229 16-09-2006 11:41:01 22.8 C 11.99 g/m*3 22.8 C 0 km/h
2230 16-09-2006 11:51:02 23.1 C 11.58 g/m*3 23.1 C 0 km/h
2231 16-09-2006 12:01:02 23.2 C 11.43 g/m*3 23.2 C 0 km/h
2232 16-09-2006 12:11:02 23.7 C 11.55 g/m*3 23.7 C 0 km/h
2233 16-09-2006 12:21:02 23.9 C 11.25 g/m*3 23.9 C 0 km/h
2234 16-09-2006 12:31:02 23.8 C 11.83 g/m*3 23.8 C 0 km/h
2235 16-09-2006 12:41:02 24.1 C 11.38 g/m*3 24.1 C 0 km/h
2236 16-09-2006 12:51:03 24.8 C 11.84 g/m*3 24.8 C 0 km/h
2237 16-09-2006 13:01:02 25.2 C 10.94 g/m*3 25.2 C 0 km/h
2238 16-09-2006 13:11:02 25.9 C 11.14 g/m*3 25.9 C 0 km/h
2239 16-09-2006 13:21:03 26.2 C 11.32 g/m*3 26.2 C 0 km/h
2240 16-09-2006 13:31:03 26.8 C 10.94 g/m*3 26.8 C 0 km/h
2241 16-09-2006 13:41:03 27.5 C 10.85 g/m*3 27.5 C 0 km/h
2242 16-09-2006 13:51:02 27.9 C 11.09 g/m*3 27.9 C 0 km/h
2243 16-09-2006 14:01:03 28 C 10.61 g/m*3 28 C 0 km/h
2244 16-09-2006 14:11:03 27.8 C 10.76 g/m*3 27.8 C 0 km/h
2245 16-09-2006 14:21:02 27.9 C 10.82 g/m*3 27.9 C 0 km/h
2246 16-09-2006 14:31:02 28 C 10.61 g/m*3 28 C 0 km/h
2247 16-09-2006 14:41:02 28.9 C 10.86 g/m*3 28.9 C 0 km/h
2248 16-09-2006 14:51:02 29.4 C 10.27 g/m*3 29.4 C 0 km/h
2249 16-09-2006 15:01:02 29.3 C 10.22 g/m*3 29.3 C 0 km/h
2250 16-09-2006 15:11:03 29.3 C 10.51 g/m*3 29.3 C 0 km/h
Sensor: Nr:Datum:Temp:Abs-Feuchte:Windchill:Wind:
Aussen-T/F 2251 16-09-2006 15:21:02 28.7 C 10.17 g/m*3 28.7 C 0 km/h
2252 16-09-2006 15:31:02 28.7 C 11.3 g/m*3 28.7 C 0 km/h
2253 16-09-2006 15:41:02 28.7 C 11.02 g/m*3 28.7 C 0 km/h
2254 16-09-2006 15:51:02 29.1 C 10.69 g/m*3 29.1 C 0 km/h
2255 16-09-2006 16:01:02 28.8 C 11.36 g/m*3 28.8 C 0 km/h
2256 16-09-2006 16:11:02 28.1 C 11.48 g/m*3 28.1 C 0 km/h
2257 16-09-2006 16:21:02 28.4 C 11.67 g/m*3 28.4 C 0 km/h
2258 16-09-2006 16:31:01 28.8 C 11.36 g/m*3 28.8 C 0 km/h
2259 16-09-2006 16:41:01 28.1 C 11.21 g/m*3 28.1 C 0 km/h
2260 16-09-2006 16:51:02 27.3 C 10.99 g/m*3 27.3 C 0 km/h
2261 16-09-2006 17:01:02 26.9 C 12.03 g/m*3 26.9 C 0 km/h
2262 16-09-2006 17:11:02 26.3 C 11.64 g/m*3 26.3 C 0 km/h
2263 16-09-2006 17:21:02 26.3 C 11.39 g/m*3 26.3 C 0 km/h
2264 16-09-2006 17:31:02 26.6 C 11.08 g/m*3 26.6 C 0 km/h
2265 16-09-2006 17:41:02 25.9 C 11.38 g/m*3 25.9 C 0 km/h
2266 16-09-2006 17:51:02 25 C 11.28 g/m*3 25 C 0 km/h
2267 16-09-2006 18:01:02 24.5 C 11.41 g/m*3 24.5 C 0 km/h
2268 16-09-2006 18:11:02 24.3 C 11.51 g/m*3 24.3 C 0 km/h
2269 16-09-2006 18:21:02 24 C 11.31 g/m*3 24 C 0 km/h
2270 16-09-2006 18:31:02 23.7 C 11.55 g/m*3 23.7 C 0 km/h
2271 16-09-2006 18:41:02 23.5 C 11.63 g/m*3 23.5 C 0 km/h
2272 16-09-2006 18:51:01 23.4 C 11.57 g/m*3 23.4 C 0 km/h
2273 16-09-2006 19:01:01 23 C 11.51 g/m*3 23 C 0 km/h
2274 16-09-2006 19:11:01 22.7 C 11.72 g/m*3 22.7 C 0 km/h
2275 16-09-2006 19:21:02 22.4 C 11.72 g/m*3 22.4 C 0 km/h
Sensor: Nr:Datum:Temp:Abs-Feuchte:Windchill:Wind:
Aussen-T/F 2276 16-09-2006 19:31:02 22.1 C 11.52 g/m*3 22.1 C 0 km/h
2277 16-09-2006 19:41:02 21.9 C 11.77 g/m*3 21.9 C 0 km/h
2278 16-09-2006 19:51:02 21.9 C 11.77 g/m*3 21.9 C 0 km/h
2279 16-09-2006 20:01:03 21.9 C 11.77 g/m*3 21.9 C 0 km/h
2280 16-09-2006 20:11:03 21.9 C 11.77 g/m*3 21.9 C 0 km/h
2281 16-09-2006 20:21:03 21.9 C 11.77 g/m*3 21.9 C 0 km/h
2282 16-09-2006 20:31:02 21.9 C 11.77 g/m*3 21.9 C 0 km/h
2283 16-09-2006 20:41:02 21.9 C 11.77 g/m*3 21.9 C 0 km/h
2284 16-09-2006 20:51:02 21.9 C 11.77 g/m*3 21.9 C 0 km/h
2285 16-09-2006 21:01:02 21.9 C 11.77 g/m*3 21.9 C 0 km/h
2286 16-09-2006 21:11:03 21.9 C 11.77 g/m*3 21.9 C 0 km/h
2287 16-09-2006 21:21:02 21.9 C 11.77 g/m*3 21.9 C 0 km/h
2288 16-09-2006 21:31:02 21.9 C 11.77 g/m*3 21.9 C 0 km/h
2289 16-09-2006 21:41:02 21.9 C 11.77 g/m*3 21.9 C 0 km/h
2290 16-09-2006 21:51:02 21.9 C 11.77 g/m*3 21.9 C 0 km/h
2291 16-09-2006 22:01:01 21.9 C 11.77 g/m*3 21.9 C 0 km/h
2292 16-09-2006 22:11:01 18.9 C 11.66 g/m*3 18.9 C 0 km/h
2293 16-09-2006 22:21:01 18.8 C 11.76 g/m*3 18.8 C 0 km/h
2294 16-09-2006 22:31:01 18.7 C 11.69 g/m*3 18.7 C 0 km/h
2295 16-09-2006 22:41:01 18.6 C 11.62 g/m*3 18.6 C 0 km/h
2296 16-09-2006 22:51:43 18.6 C 11.78 g/m*3 18.6 C 0 km/h
2297 16-09-2006 22:54:02 18.6 C 11.78 g/m*3 18.6 C 0 km/h
2298 16-09-2006 23:04:02 18.6 C 11.78 g/m*3 18.6 C 0 km/h
2299 16-09-2006 23:14:02 18.5 C 11.71 g/m*3 18.5 C 0 km/h
2300 16-09-2006 23:24:02 18.3 C 11.73 g/m*3 18.3 C 0 km/h
Sensor: Nr:Datum:Temp:Abs-Feuchte:Windchill:Wind:
Aussen-T/F 2301 16-09-2006 23:34:02 18.3 C 11.73 g/m*3 18.3 C 0 km/h
2302 16-09-2006 23:44:03 18.3 C 11.73 g/m*3 18.3 C 0 km/h
2303 16-09-2006 23:54:02 18.2 C 11.81 g/m*3 18.2 C 0 km/h
2304 17-09-2006 00:04:02 18.2 C 11.81 g/m*3 18.2 C 0 km/h
2305 17-09-2006 00:14:02 18.1 C 11.74 g/m*3 18.1 C 0 km/h
2306 17-09-2006 00:24:03 18.1 C 11.74 g/m*3 18.1 C 0 km/h
2307 17-09-2006 00:34:03 17.9 C 11.91 g/m*3 17.9 C 0 km/h
2308 17-09-2006 00:44:03 17.8 C 11.84 g/m*3 17.8 C 0 km/h
2309 17-09-2006 00:54:03 17.7 C 11.77 g/m*3 17.7 C 0 km/h
2310 17-09-2006 01:04:02 17.8 C 11.84 g/m*3 17.8 C 0 km/h
2311 17-09-2006 01:14:02 17.9 C 11.91 g/m*3 17.9 C 0 km/h
2312 17-09-2006 01:24:03 17.6 C 11.85 g/m*3 17.6 C 0 km/h
2313 17-09-2006 01:34:03 17.6 C 11.85 g/m*3 17.6 C 0 km/h
2314 17-09-2006 01:44:03 17.6 C 11.85 g/m*3 17.6 C 0 km/h
2315 17-09-2006 01:54:02 17.6 C 11.85 g/m*3 17.6 C 0 km/h
2316 17-09-2006 02:04:02 17.6 C 11.85 g/m*3 17.6 C 0 km/h
2317 17-09-2006 02:14:02 17.6 C 11.85 g/m*3 17.6 C 0 km/h
2318 17-09-2006 02:24:02 17.5 C 11.78 g/m*3 17.5 C 0 km/h
2319 17-09-2006 02:34:02 17.5 C 11.78 g/m*3 17.5 C 0 km/h
2320 17-09-2006 02:44:02 17.5 C 11.93 g/m*3 17.5 C 0 km/h
2321 17-09-2006 02:55:03 17.3 C 11.79 g/m*3 17.3 C 0 km/h
2322 17-09-2006 03:05:03 17.3 C 11.79 g/m*3 17.3 C 0 km/h
2323 17-09-2006 03:15:03 17.2 C 11.72 g/m*3 17.2 C 0 km/h
2324 17-09-2006 03:25:03 17.1 C 11.79 g/m*3 17.1 C 0 km/h
2325 17-09-2006 03:35:02 17 C 11.72 g/m*3 17 C 0 km/h
Sensor: Nr:Datum:Temp:Abs-Feuchte:Windchill:Wind:
Aussen-T/F 2326 17-09-2006 03:45:02 16.9 C 11.79 g/m*3 16.9 C 0 km/h
2327 17-09-2006 03:55:02 17 C 11.87 g/m*3 17 C 0 km/h
2328 17-09-2006 04:05:02 17 C 11.87 g/m*3 17 C 0 km/h
2329 17-09-2006 04:15:02 17 C 11.87 g/m*3 17 C 0 km/h
2330 17-09-2006 04:25:02 17.1 C 11.94 g/m*3 17.1 C 0 km/h
2331 17-09-2006 04:35:02 17.1 C 11.94 g/m*3 17.1 C 0 km/h
2332 17-09-2006 04:45:02 17.1 C 11.94 g/m*3 17.1 C 0 km/h
2333 17-09-2006 04:55:02 17.2 C 12.01 g/m*3 17.2 C 0 km/h
2334 17-09-2006 05:05:01 17.1 C 11.79 g/m*3 17.1 C 0 km/h
2335 17-09-2006 05:15:02 17 C 11.87 g/m*3 17 C 0 km/h
2336 17-09-2006 05:25:02 16.9 C 11.94 g/m*3 16.9 C 0 km/h
2337 17-09-2006 05:35:02 17 C 12.01 g/m*3 17 C 0 km/h
2338 17-09-2006 05:45:02 17 C 12.01 g/m*3 17 C 0 km/h
2339 17-09-2006 05:55:02 17 C 12.15 g/m*3 17 C 0 km/h
2340 17-09-2006 06:05:02 17 C 12.15 g/m*3 17 C 0 km/h
2341 17-09-2006 06:15:02 17 C 12.15 g/m*3 17 C 0 km/h
2342 17-09-2006 06:25:02 16.9 C 12.23 g/m*3 16.9 C 0 km/h
2343 17-09-2006 06:35:01 16.8 C 12.01 g/m*3 16.8 C 0 km/h
2344 17-09-2006 06:45:02 16.6 C 12.01 g/m*3 16.6 C 0 km/h
2345 17-09-2006 06:55:02 16.6 C 12.01 g/m*3 16.6 C 0 km/h
2346 17-09-2006 07:05:02 16.6 C 12.01 g/m*3 16.6 C 0 km/h
2347 17-09-2006 07:15:02 16.6 C 12.01 g/m*3 16.6 C 0 km/h
2348 17-09-2006 07:25:02 16.8 C 12.15 g/m*3 16.8 C 0 km/h
2349 17-09-2006 07:35:01 16.9 C 12.37 g/m*3 16.9 C 0 km/h
2350 17-09-2006 07:45:02 17 C 12.15 g/m*3 17 C 0 km/h
Sensor: Nr:Datum:Temp:Abs-Feuchte:Windchill:Wind:
Aussen-T/F 2351 17-09-2006 07:55:02 17 C 12.15 g/m*3 17 C 0 km/h
2352 17-09-2006 08:05:02 17 C 12.15 g/m*3 17 C 0 km/h
2353 17-09-2006 08:15:02 17.2 C 12.3 g/m*3 17.2 C 0 km/h
2354 17-09-2006 08:25:02 17.2 C 12.15 g/m*3 17.2 C 0 km/h
2355 17-09-2006 08:35:02 17.4 C 12.3 g/m*3 17.4 C 0 km/h
2356 17-09-2006 08:45:02 17.5 C 12.23 g/m*3 17.5 C 0 km/h
2357 17-09-2006 08:55:02 17.6 C 12.3 g/m*3 17.6 C 0 km/h
2358 17-09-2006 09:05:02 17.5 C 12.37 g/m*3 17.5 C 0 km/h
2359 17-09-2006 09:15:02 17.9 C 12.67 g/m*3 17.9 C 0 km/h
2360 17-09-2006 09:25:02 17.9 C 12.67 g/m*3 17.9 C 0 km/h
2361 17-09-2006 09:35:02 18.2 C 12.43 g/m*3 18.2 C 0 km/h
2362 17-09-2006 09:45:03 18.3 C 12.35 g/m*3 18.3 C 0 km/h
2363 17-09-2006 09:55:03 18.5 C 12.5 g/m*3 18.5 C 0 km/h
2364 17-09-2006 10:05:03 18.9 C 12.64 g/m*3 18.9 C 0 km/h
2365 17-09-2006 10:15:02 19.1 C 12.46 g/m*3 19.1 C 0 km/h
2366 17-09-2006 10:25:02 19.5 C 12.59 g/m*3 19.5 C 0 km/h
2367 17-09-2006 10:35:03 19.7 C 12.4 g/m*3 19.7 C 0 km/h
2368 17-09-2006 10:45:02 20 C 12.27 g/m*3 20 C 0 km/h
2369 17-09-2006 10:55:02 20.3 C 12.49 g/m*3 20.3 C 0 km/h
2370 17-09-2006 11:05:03 20.4 C 12.38 g/m*3 20.4 C 0 km/h
2371 17-09-2006 11:15:02 20.3 C 12.49 g/m*3 20.3 C 0 km/h
2372 17-09-2006 11:25:02 20.2 C 12.59 g/m*3 20.2 C 0 km/h
2373 17-09-2006 11:35:03 20.3 C 12.66 g/m*3 20.3 C 0 km/h
2374 17-09-2006 11:45:02 20.4 C 12.74 g/m*3 20.4 C 0 km/h
2375 17-09-2006 11:55:02 20.6 C 12.71 g/m*3 20.6 C 0 km/h
Sensor: Nr:Datum:Temp:Abs-Feuchte:Windchill:Wind:
Aussen-T/F 2376 17-09-2006 12:05:03 20.8 C 12.49 g/m*3 20.8 C 0 km/h
2377 17-09-2006 12:15:02 20.9 C 12.57 g/m*3 20.9 C 0 km/h
2378 17-09-2006 12:25:03 20.8 C 12.67 g/m*3 20.8 C 0 km/h
2379 17-09-2006 12:35:02 21 C 12.64 g/m*3 21 C 0 km/h
2380 17-09-2006 12:45:01 20.8 C 12.67 g/m*3 20.8 C 0 km/h
2381 17-09-2006 12:55:01 21 C 12.46 g/m*3 21 C 0 km/h
2382 17-09-2006 13:05:02 21.6 C 12.52 g/m*3 21.6 C 0 km/h
2383 17-09-2006 13:15:02 21.9 C 12.54 g/m*3 21.9 C 0 km/h
2384 17-09-2006 13:25:02 22 C 12.23 g/m*3 22 C 0 km/h
2385 17-09-2006 13:35:02 21.9 C 12.35 g/m*3 21.9 C 0 km/h
2386 17-09-2006 13:45:02 21.7 C 12.21 g/m*3 21.7 C 0 km/h
2387 17-09-2006 13:55:02 21.8 C 12.28 g/m*3 21.8 C 0 km/h
2388 17-09-2006 14:05:03 21.8 C 12.09 g/m*3 21.8 C 0 km/h
2389 17-09-2006 14:15:02 22.2 C 12.17 g/m*3 22.2 C 0 km/h
2390 17-09-2006 14:25:03 22.1 C 12.1 g/m*3 22.1 C 0 km/h
2391 17-09-2006 14:35:02 21.6 C 12.14 g/m*3 21.6 C 0 km/h
2392 17-09-2006 14:45:03 21.6 C 12.14 g/m*3 21.6 C 0 km/h
2393 17-09-2006 14:55:03 21.4 C 12 g/m*3 21.4 C 0 km/h
2394 17-09-2006 15:05:03 21.8 C 12.28 g/m*3 21.8 C 0 km/h
2395 17-09-2006 15:15:02 21.6 C 11.95 g/m*3 21.6 C 0 km/h
2396 17-09-2006 15:25:02 22 C 12.23 g/m*3 22 C 0 km/h
2397 17-09-2006 15:35:03 21.9 C 12.16 g/m*3 21.9 C 0 km/h
2398 17-09-2006 15:45:01 21.6 C 11.95 g/m*3 21.6 C 0 km/h
2399 17-09-2006 15:55:01 21.6 C 12.14 g/m*3 21.6 C 0 km/h
2400 17-09-2006 16:05:02 21.5 C 12.07 g/m*3 21.5 C 0 km/h
Sensor: Nr:Datum:Temp:Abs-Feuchte:Windchill:Wind:
Aussen-T/F 2401 17-09-2006 16:15:02 21.5 C 11.88 g/m*3 21.5 C 0 km/h
2402 17-09-2006 16:25:02 21.4 C 11.81 g/m*3 21.4 C 0 km/h
2403 17-09-2006 16:35:02 21.4 C 11.81 g/m*3 21.4 C 0 km/h
2404 17-09-2006 16:45:02 21.4 C 11.62 g/m*3 21.4 C 0 km/h
2405 17-09-2006 16:55:02 21.5 C 11.5 g/m*3 21.5 C 0 km/h
2406 17-09-2006 17:05:03 21.6 C 11.57 g/m*3 21.6 C 0 km/h
2407 17-09-2006 17:15:03 21.4 C 11.62 g/m*3 21.4 C 0 km/h
2408 17-09-2006 17:25:03 21.2 C 11.68 g/m*3 21.2 C 0 km/h
2409 17-09-2006 17:35:03 20 C 12.44 g/m*3 20 C 0 km/h
2410 17-09-2006 17:45:02 19.5 C 12.59 g/m*3 19.5 C 0 km/h
2411 17-09-2006 17:55:02 19.1 C 12.79 g/m*3 19.1 C 0 km/h
2412 17-09-2006 18:05:03 18.9 C 13.45 g/m*3 18.9 C 0 km/h
2413 17-09-2006 18:15:03 18.8 C 13.53 g/m*3 18.8 C 0 km/h
2414 17-09-2006 18:25:03 18.7 C 13.77 g/m*3 18.7 C 0 km/h
2415 17-09-2006 18:35:03 18.5 C 13.77 g/m*3 18.5 C 0 km/h
2416 17-09-2006 18:45:02 18.4 C 13.84 g/m*3 18.4 C 0 km/h
2417 17-09-2006 18:55:02 18.2 C 13.83 g/m*3 18.2 C 0 km/h
2418 17-09-2006 19:05:03 18.1 C 13.75 g/m*3 18.1 C 0 km/h
2419 17-09-2006 19:15:02 18.1 C 13.91 g/m*3 18.1 C 0 km/h
2420 17-09-2006 19:25:02 18 C 13.82 g/m*3 18 C 0 km/h
2421 17-09-2006 19:35:03 17.9 C 14.05 g/m*3 17.9 C 0 km/h
2422 17-09-2006 19:45:03 17.8 C 13.96 g/m*3 17.8 C 0 km/h
2423 17-09-2006 19:55:03 17.7 C 13.88 g/m*3 17.7 C 0 km/h
2424 17-09-2006 20:05:03 17.7 C 14.03 g/m*3 17.7 C 0 km/h
2425 17-09-2006 20:15:03 17.6 C 13.95 g/m*3 17.6 C 0 km/h
Sensor: Nr:Datum:Temp:Abs-Feuchte:Windchill:Wind:
Aussen-T/F 2426 17-09-2006 20:25:03 17.6 C 13.95 g/m*3 17.6 C 0 km/h
2427 17-09-2006 20:35:03 17.6 C 13.95 g/m*3 17.6 C 0 km/h
2428 17-09-2006 20:45:03 17.5 C 13.87 g/m*3 17.5 C 0 km/h
2429 17-09-2006 20:55:03 17.4 C 13.93 g/m*3 17.4 C 0 km/h
2430 17-09-2006 21:05:05 17.3 C 13.85 g/m*3 17.3 C 0 km/h
2431 17-09-2006 21:16:03 17.4 C 13.93 g/m*3 17.4 C 0 km/h
2432 17-09-2006 21:26:03 17.3 C 13.85 g/m*3 17.3 C 0 km/h
2433 17-09-2006 21:36:03 17.4 C 13.93 g/m*3 17.4 C 0 km/h
2434 17-09-2006 21:46:03 17.3 C 13.85 g/m*3 17.3 C 0 km/h
2435 17-09-2006 21:56:03 17.2 C 13.91 g/m*3 17.2 C 0 km/h
2436 17-09-2006 22:06:03 17.2 C 13.91 g/m*3 17.2 C 0 km/h
2437 17-09-2006 22:16:03 17.2 C 13.91 g/m*3 17.2 C 0 km/h
2438 17-09-2006 22:26:03 17.2 C 13.91 g/m*3 17.2 C 0 km/h
2439 17-09-2006 22:36:03 17.2 C 13.91 g/m*3 17.2 C 0 km/h
2440 17-09-2006 22:46:03 17.1 C 13.83 g/m*3 17.1 C 0 km/h
2441 17-09-2006 22:56:03 17.2 C 13.91 g/m*3 17.2 C 0 km/h
2442 17-09-2006 23:06:03 17.1 C 13.83 g/m*3 17.1 C 0 km/h
2443 17-09-2006 23:16:03 17 C 13.75 g/m*3 17 C 0 km/h
2444 17-09-2006 23:26:04 17.2 C 13.91 g/m*3 17.2 C 0 km/h
2445 17-09-2006 23:36:04 17.2 C 13.91 g/m*3 17.2 C 0 km/h
2446 17-09-2006 23:46:04 17.2 C 13.91 g/m*3 17.2 C 0 km/h
2447 17-09-2006 23:56:04 17 C 13.6 g/m*3 17 C 0 km/h
2448 18-09-2006 00:06:04 16.9 C 13.66 g/m*3 16.9 C 0 km/h
2449 18-09-2006 00:16:04 16.8 C 13.58 g/m*3 16.8 C 0 km/h
2450 18-09-2006 00:26:04 16.8 C 13.58 g/m*3 16.8 C 0 km/h
Sensor: Nr:Datum:Temp:Abs-Feuchte:Windchill:Wind:
Aussen-T/F 2451 18-09-2006 00:36:04 16.8 C 13.58 g/m*3 16.8 C 0 km/h
2452 18-09-2006 00:46:04 16.7 C 13.36 g/m*3 16.7 C 0 km/h
2453 18-09-2006 00:56:04 16.6 C 13.28 g/m*3 16.6 C 0 km/h
2454 18-09-2006 01:06:04 16.6 C 13.28 g/m*3 16.6 C 0 km/h
2455 18-09-2006 01:16:04 16.7 C 13.5 g/m*3 16.7 C 0 km/h
2456 18-09-2006 01:26:04 16.7 C 13.5 g/m*3 16.7 C 0 km/h
2457 18-09-2006 01:36:04 16.7 C 13.5 g/m*3 16.7 C 0 km/h
2458 18-09-2006 01:46:04 16.7 C 13.36 g/m*3 16.7 C 0 km/h
2459 18-09-2006 01:56:04 16.7 C 13.36 g/m*3 16.7 C 0 km/h
2460 18-09-2006 02:06:04 16.7 C 13.36 g/m*3 16.7 C 0 km/h
2461 18-09-2006 02:16:04 16.7 C 13.36 g/m*3 16.7 C 0 km/h
2462 18-09-2006 02:26:05 16.8 C 13.44 g/m*3 16.8 C 0 km/h
2463 18-09-2006 02:36:05 16.8 C 13.44 g/m*3 16.8 C 0 km/h
2464 18-09-2006 02:46:05 16.7 C 13.36 g/m*3 16.7 C 0 km/h
2465 18-09-2006 02:56:05 16.7 C 13.36 g/m*3 16.7 C 0 km/h
2466 18-09-2006 03:06:05 16.7 C 13.36 g/m*3 16.7 C 0 km/h
2467 18-09-2006 03:16:05 16.7 C 13.36 g/m*3 16.7 C 0 km/h
2468 18-09-2006 03:26:05 16.6 C 13.28 g/m*3 16.6 C 0 km/h
2469 18-09-2006 03:36:05 16.6 C 13.14 g/m*3 16.6 C 0 km/h
2470 18-09-2006 03:46:05 16.5 C 13.06 g/m*3 16.5 C 0 km/h
2471 18-09-2006 03:56:05 16.6 C 13.14 g/m*3 16.6 C 0 km/h
2472 18-09-2006 04:06:05 16.5 C 13.06 g/m*3 16.5 C 0 km/h
2473 18-09-2006 04:16:05 16.4 C 12.98 g/m*3 16.4 C 0 km/h
2474 18-09-2006 04:26:05 16.4 C 12.98 g/m*3 16.4 C 0 km/h
2475 18-09-2006 04:36:05 16.4 C 12.98 g/m*3 16.4 C 0 km/h
Sensor: Nr:Datum:Temp:Abs-Feuchte:Windchill:Wind:
Aussen-T/F 2476 18-09-2006 04:46:05 16.4 C 12.98 g/m*3 16.4 C 0 km/h
2477 18-09-2006 04:56:05 16.2 C 12.82 g/m*3 16.2 C 0 km/h
2478 18-09-2006 05:06:05 16.2 C 12.82 g/m*3 16.2 C 0 km/h
2479 18-09-2006 05:16:05 16.2 C 12.82 g/m*3 16.2 C 0 km/h
2480 18-09-2006 05:26:06 16.2 C 12.69 g/m*3 16.2 C 0 km/h
2481 18-09-2006 05:36:06 16.1 C 12.61 g/m*3 16.1 C 0 km/h
2482 18-09-2006 05:46:06 16.2 C 12.55 g/m*3 16.2 C 0 km/h
2483 18-09-2006 05:56:06 16.1 C 12.47 g/m*3 16.1 C 0 km/h
2484 18-09-2006 06:06:06 16.1 C 12.47 g/m*3 16.1 C 0 km/h
2485 18-09-2006 06:16:06 15.9 C 12.32 g/m*3 15.9 C 0 km/h
2486 18-09-2006 06:26:06 15.8 C 12.25 g/m*3 15.8 C 0 km/h
2487 18-09-2006 06:36:06 15.9 C 12.46 g/m*3 15.9 C 0 km/h
2488 18-09-2006 06:46:06 15.8 C 12.38 g/m*3 15.8 C 0 km/h
2489 18-09-2006 06:56:06 15.8 C 12.52 g/m*3 15.8 C 0 km/h
2490 18-09-2006 07:06:06 15.7 C 12.44 g/m*3 15.7 C 0 km/h
2491 18-09-2006 07:16:06 15.8 C 12.52 g/m*3 15.8 C 0 km/h
2492 18-09-2006 07:26:06 15.9 C 12.59 g/m*3 15.9 C 0 km/h
2493 18-09-2006 07:36:06 16 C 12.67 g/m*3 16 C 0 km/h
2494 18-09-2006 07:46:06 16 C 12.53 g/m*3 16 C 0 km/h
2495 18-09-2006 07:56:06 16.1 C 12.61 g/m*3 16.1 C 0 km/h
2496 18-09-2006 08:06:03 16.1 C 12.61 g/m*3 16.1 C 0 km/h
2497 18-09-2006 08:16:02 16.2 C 12.55 g/m*3 16.2 C 0 km/h
2498 18-09-2006 08:26:02 16.2 C 12.55 g/m*3 16.2 C 0 km/h
2499 18-09-2006 08:36:02 16.2 C 12.55 g/m*3 16.2 C 0 km/h
2500 18-09-2006 08:46:03 16.2 C 12.55 g/m*3 16.2 C 0 km/h
Sensor: Nr:Datum:Temp:Abs-Feuchte:Windchill:Wind:
Aussen-T/F 2501 18-09-2006 08:56:03 16.2 C 12.41 g/m*3 16.2 C 0 km/h
2502 18-09-2006 09:06:02 16.2 C 12.27 g/m*3 16.2 C 0 km/h
2503 18-09-2006 09:16:02 16.2 C 12.27 g/m*3 16.2 C 0 km/h
2504 18-09-2006 09:26:03 16.4 C 12.42 g/m*3 16.4 C 0 km/h
2505 18-09-2006 09:36:02 16.4 C 12.42 g/m*3 16.4 C 0 km/h
2506 18-09-2006 09:46:02 16.4 C 12.42 g/m*3 16.4 C 0 km/h
2507 18-09-2006 09:56:02 16.5 C 12.36 g/m*3 16.5 C 0 km/h
2508 18-09-2006 10:06:02 16.6 C 12.29 g/m*3 16.6 C 0 km/h
2509 18-09-2006 10:16:01 16.7 C 12.36 g/m*3 16.7 C 0 km/h
2510 18-09-2006 10:26:01 16.9 C 12.37 g/m*3 16.9 C 0 km/h
2511 18-09-2006 10:36:01 16.8 C 12.44 g/m*3 16.8 C 0 km/h
2512 18-09-2006 10:46:02 16.9 C 12.37 g/m*3 16.9 C 0 km/h
2513 18-09-2006 10:56:02 17.1 C 12.08 g/m*3 17.1 C 0 km/h
2514 18-09-2006 11:06:01 17.4 C 12.15 g/m*3 17.4 C 0 km/h
2515 18-09-2006 11:16:01 17.6 C 12.15 g/m*3 17.6 C 0 km/h
2516 18-09-2006 11:26:02 17.5 C 11.78 g/m*3 17.5 C 0 km/h
2517 18-09-2006 11:36:01 17.3 C 11.64 g/m*3 17.3 C 0 km/h
2518 18-09-2006 11:46:02 17.4 C 11.56 g/m*3 17.4 C 0 km/h
2519 18-09-2006 11:56:02 17.5 C 11.78 g/m*3 17.5 C 0 km/h
2520 18-09-2006 12:06:01 17.5 C 11.63 g/m*3 17.5 C 0 km/h
2521 18-09-2006 12:16:01 17.7 C 11.77 g/m*3 17.7 C 0 km/h
2522 18-09-2006 12:26:01 18.1 C 11.59 g/m*3 18.1 C 0 km/h
2523 18-09-2006 12:36:02 18.2 C 11.5 g/m*3 18.2 C 0 km/h
2524 18-09-2006 12:46:02 18.3 C 11.26 g/m*3 18.3 C 0 km/h
2525 18-09-2006 12:56:02 18.2 C 11.35 g/m*3 18.2 C 0 km/h
Sensor: Nr:Datum:Temp:Abs-Feuchte:Windchill:Wind:
Aussen-T/F 2526 18-09-2006 13:06:02 18.5 C 11.08 g/m*3 18.5 C 0 km/h
2527 18-09-2006 13:16:01 18.1 C 10.97 g/m*3 18.1 C 0 km/h
2528 18-09-2006 13:26:01 18.5 C 11.39 g/m*3 18.5 C 0 km/h
2529 18-09-2006 13:36:02 18.7 C 11.37 g/m*3 18.7 C 0 km/h
2530 18-09-2006 13:46:02 18.7 C 11.37 g/m*3 18.7 C 0 km/h
2531 18-09-2006 13:56:02 18.5 C 11.23 g/m*3 18.5 C 0 km/h
2532 18-09-2006 14:06:02 18.5 C 11.08 g/m*3 18.5 C 0 km/h
2533 18-09-2006 14:16:02 18.6 C 11.14 g/m*3 18.6 C 0 km/h
2534 18-09-2006 14:26:02 18.6 C 11.14 g/m*3 18.6 C 0 km/h
2535 18-09-2006 14:36:02 18.6 C 11.3 g/m*3 18.6 C 0 km/h
2536 18-09-2006 14:46:02 18.4 C 11.32 g/m*3 18.4 C 0 km/h
2537 18-09-2006 14:56:02 18.2 C 11.04 g/m*3 18.2 C 0 km/h
2538 18-09-2006 15:06:02 18.3 C 11.26 g/m*3 18.3 C 0 km/h
2539 18-09-2006 15:16:02 18.4 C 11.01 g/m*3 18.4 C 0 km/h
2540 18-09-2006 15:26:02 18.5 C 10.92 g/m*3 18.5 C 0 km/h
2541 18-09-2006 15:36:01 18.5 C 11.08 g/m*3 18.5 C 0 km/h
2542 18-09-2006 15:46:02 18.5 C 11.08 g/m*3 18.5 C 0 km/h
2543 18-09-2006 15:56:02 18.7 C 11.37 g/m*3 18.7 C 0 km/h
2544 18-09-2006 16:06:02 18.6 C 11.3 g/m*3 18.6 C 0 km/h
2545 18-09-2006 16:16:02 18.5 C 11.08 g/m*3 18.5 C 0 km/h
2546 18-09-2006 16:26:02 18.4 C 11.17 g/m*3 18.4 C 0 km/h
2547 18-09-2006 16:36:02 18.2 C 11.19 g/m*3 18.2 C 0 km/h
2548 18-09-2006 16:46:02 18.1 C 11.12 g/m*3 18.1 C 0 km/h
2549 18-09-2006 16:56:02 18.4 C 11.17 g/m*3 18.4 C 0 km/h
2550 18-09-2006 17:06:03 18.6 C 11.3 g/m*3 18.6 C 0 km/h
Sensor: Nr:Datum:Temp:Abs-Feuchte:Windchill:Wind:
Aussen-T/F 2551 18-09-2006 17:16:04 18.7 C 11.53 g/m*3 18.7 C 0 km/h
2552 18-09-2006 17:26:04 18.7 C 11.53 g/m*3 18.7 C 0 km/h
2553 18-09-2006 17:36:03 18.7 C 11.69 g/m*3 18.7 C 0 km/h
2554 18-09-2006 17:46:01 18.6 C 11.62 g/m*3 18.6 C 0 km/h
2555 18-09-2006 17:56:01 18.8 C 11.92 g/m*3 18.8 C 0 km/h
2556 18-09-2006 18:06:02 18.9 C 11.66 g/m*3 18.9 C 0 km/h
2557 18-09-2006 18:16:02 18.8 C 11.76 g/m*3 18.8 C 0 km/h
2558 18-09-2006 18:26:02 18.5 C 11.71 g/m*3 18.5 C 0 km/h
2559 18-09-2006 18:36:02 18.3 C 11.73 g/m*3 18.3 C 0 km/h
2560 18-09-2006 18:46:02 18 C 11.83 g/m*3 18 C 0 km/h
2561 18-09-2006 18:56:02 17.8 C 12.14 g/m*3 17.8 C 0 km/h
2562 18-09-2006 19:06:02 17.2 C 12.15 g/m*3 17.2 C 0 km/h
2563 18-09-2006 19:16:02 17.2 C 12.3 g/m*3 17.2 C 0 km/h
2564 18-09-2006 19:26:02 17.2 C 12.45 g/m*3 17.2 C 0 km/h
2565 18-09-2006 19:36:02 17.1 C 12.52 g/m*3 17.1 C 0 km/h
2566 18-09-2006 19:46:02 17.1 C 12.52 g/m*3 17.1 C 0 km/h
2567 18-09-2006 19:56:02 17 C 12.44 g/m*3 17 C 0 km/h
2568 18-09-2006 20:06:01 16.9 C 12.51 g/m*3 16.9 C 0 km/h
2569 18-09-2006 20:16:01 16.9 C 12.51 g/m*3 16.9 C 0 km/h
2570 18-09-2006 20:26:01 16.8 C 12.44 g/m*3 16.8 C 0 km/h
2571 18-09-2006 20:36:02 16.9 C 12.51 g/m*3 16.9 C 0 km/h
2572 18-09-2006 20:46:02 16.9 C 12.51 g/m*3 16.9 C 0 km/h
2573 18-09-2006 20:56:02 16.9 C 12.37 g/m*3 16.9 C 0 km/h
2574 18-09-2006 21:06:03 17 C 12.15 g/m*3 17 C 0 km/h
2575 18-09-2006 21:16:02 17 C 12.15 g/m*3 17 C 0 km/h
Sensor: Nr:Datum:Temp:Abs-Feuchte:Windchill:Wind:
Aussen-T/F 2576 18-09-2006 21:26:02 17 C 12.01 g/m*3 17 C 0 km/h
2577 18-09-2006 21:36:02 16.9 C 12.08 g/m*3 16.9 C 0 km/h
2578 18-09-2006 21:46:02 17 C 12.01 g/m*3 17 C 0 km/h
2579 18-09-2006 21:56:02 17 C 12.01 g/m*3 17 C 0 km/h
2580 18-09-2006 22:06:02 16.9 C 12.08 g/m*3 16.9 C 0 km/h
2581 18-09-2006 22:16:02 16.9 C 12.08 g/m*3 16.9 C 0 km/h
2582 18-09-2006 22:26:02 16.9 C 12.08 g/m*3 16.9 C 0 km/h
2583 18-09-2006 22:36:02 17 C 12.01 g/m*3 17 C 0 km/h
2584 18-09-2006 22:46:02 17 C 12.01 g/m*3 17 C 0 km/h
2585 18-09-2006 22:56:02 17 C 12.01 g/m*3 17 C 0 km/h
2586 18-09-2006 23:06:01 17 C 12.01 g/m*3 17 C 0 km/h
2587 18-09-2006 23:16:01 17 C 12.01 g/m*3 17 C 0 km/h
2588 18-09-2006 23:26:01 17 C 12.01 g/m*3 17 C 0 km/h
2589 18-09-2006 23:36:02 17 C 12.01 g/m*3 17 C 0 km/h
2590 18-09-2006 23:46:02 17 C 12.01 g/m*3 17 C 0 km/h
2591 18-09-2006 23:56:02 17 C 12.01 g/m*3 17 C 0 km/h
2592 19-09-2006 00:06:01 17 C 12.01 g/m*3 17 C 0 km/h
2593 19-09-2006 00:16:03 17.1 C 12.08 g/m*3 17.1 C 0 km/h
2594 19-09-2006 00:26:03 17.2 C 12.15 g/m*3 17.2 C 0 km/h
2595 19-09-2006 00:36:02 17.1 C 12.08 g/m*3 17.1 C 0 km/h
2596 19-09-2006 00:46:02 17.1 C 12.23 g/m*3 17.1 C 0 km/h
2597 19-09-2006 00:56:02 17.1 C 12.23 g/m*3 17.1 C 0 km/h
2598 19-09-2006 01:06:03 16.9 C 12.37 g/m*3 16.9 C 0 km/h
2599 19-09-2006 01:16:02 16.8 C 12.3 g/m*3 16.8 C 0 km/h
2600 19-09-2006 01:26:02 16.8 C 12.44 g/m*3 16.8 C 0 km/h
Sensor: Nr:Datum:Temp:Abs-Feuchte:Windchill:Wind:
Aussen-T/F 2601 19-09-2006 01:36:02 16.7 C 12.36 g/m*3 16.7 C 0 km/h
2602 19-09-2006 01:46:03 16.7 C 12.36 g/m*3 16.7 C 0 km/h
2603 19-09-2006 01:56:03 16.6 C 12.43 g/m*3 16.6 C 0 km/h
2604 19-09-2006 02:06:03 16.5 C 12.36 g/m*3 16.5 C 0 km/h
2605 19-09-2006 02:16:03 16.4 C 12.14 g/m*3 16.4 C 0 km/h
2606 19-09-2006 02:26:03 16.3 C 12.07 g/m*3 16.3 C 0 km/h
2607 19-09-2006 02:36:03 16.3 C 12.07 g/m*3 16.3 C 0 km/h
2608 19-09-2006 02:47:03 16.3 C 12.07 g/m*3 16.3 C 0 km/h
2609 19-09-2006 02:57:03 16.2 C 12 g/m*3 16.2 C 0 km/h
2610 19-09-2006 03:07:04 16.1 C 11.93 g/m*3 16.1 C 0 km/h
2611 19-09-2006 03:17:04 16.1 C 11.93 g/m*3 16.1 C 0 km/h
2612 19-09-2006 03:27:04 15.8 C 11.85 g/m*3 15.8 C 0 km/h
2613 19-09-2006 03:37:02 15.8 C 11.85 g/m*3 15.8 C 0 km/h
2614 19-09-2006 03:47:02 15.8 C 11.85 g/m*3 15.8 C 0 km/h
2615 19-09-2006 03:57:02 15.8 C 11.98 g/m*3 15.8 C 0 km/h
2616 19-09-2006 04:07:02 15.8 C 11.98 g/m*3 15.8 C 0 km/h
2617 19-09-2006 04:17:02 15.7 C 11.91 g/m*3 15.7 C 0 km/h
2618 19-09-2006 04:27:02 15.4 C 11.82 g/m*3 15.4 C 0 km/h
2619 19-09-2006 04:37:02 15.5 C 11.9 g/m*3 15.5 C 0 km/h
2620 19-09-2006 04:47:02 15.3 C 11.88 g/m*3 15.3 C 0 km/h
2621 19-09-2006 04:57:02 15.2 C 11.81 g/m*3 15.2 C 0 km/h
2622 19-09-2006 05:07:02 15.4 C 11.96 g/m*3 15.4 C 0 km/h
2623 19-09-2006 05:17:02 14.7 C 11.58 g/m*3 14.7 C 0 km/h
2624 19-09-2006 05:27:03 14.6 C 11.51 g/m*3 14.6 C 0 km/h
2625 19-09-2006 05:37:02 14.5 C 11.44 g/m*3 14.5 C 0 km/h
Sensor: Nr:Datum:Temp:Abs-Feuchte:Windchill:Wind:
Aussen-T/F 2626 19-09-2006 05:47:02 14.3 C 11.3 g/m*3 14.3 C 0 km/h
2627 19-09-2006 05:57:03 14.2 C 11.11 g/m*3 14.2 C 0 km/h
2628 19-09-2006 06:07:01 14 C 10.98 g/m*3 14 C 0 km/h
2629 19-09-2006 06:17:01 13.8 C 10.84 g/m*3 13.8 C 0 km/h
2630 19-09-2006 06:27:01 13.8 C 10.84 g/m*3 13.8 C 0 km/h
2631 19-09-2006 06:37:02 13.8 C 10.96 g/m*3 13.8 C 0 km/h
2632 19-09-2006 06:47:02 13.8 C 10.96 g/m*3 13.8 C 0 km/h
2633 19-09-2006 06:57:02 13.9 C 11.15 g/m*3 13.9 C 0 km/h
2634 19-09-2006 07:07:02 13.9 C 11.15 g/m*3 13.9 C 0 km/h
2635 19-09-2006 07:17:01 13.8 C 11.08 g/m*3 13.8 C 0 km/h
2636 19-09-2006 07:27:01 13.8 C 10.96 g/m*3 13.8 C 0 km/h
2637 19-09-2006 07:37:01 13.7 C 10.89 g/m*3 13.7 C 0 km/h
2638 19-09-2006 07:47:02 13.5 C 10.76 g/m*3 13.5 C 0 km/h
2639 19-09-2006 07:57:02 13.4 C 10.69 g/m*3 13.4 C 0 km/h
2640 19-09-2006 08:07:02 13.4 C 10.69 g/m*3 13.4 C 0 km/h
2641 19-09-2006 08:17:01 13.7 C 10.89 g/m*3 13.7 C 0 km/h
2642 19-09-2006 08:27:01 13.9 C 11.03 g/m*3 13.9 C 0 km/h
2643 19-09-2006 08:37:02 14 C 10.86 g/m*3 14 C 0 km/h
2644 19-09-2006 08:47:02 14.3 C 11.06 g/m*3 14.3 C 0 km/h
2645 19-09-2006 08:57:02 14.5 C 11.07 g/m*3 14.5 C 0 km/h
2646 19-09-2006 09:07:02 14.8 C 11.15 g/m*3 14.8 C 0 km/h
2647 19-09-2006 09:17:01 15 C 11.03 g/m*3 15 C 0 km/h
2648 19-09-2006 09:27:01 15.2 C 10.9 g/m*3 15.2 C 0 km/h
2649 19-09-2006 09:37:01 15.6 C 10.91 g/m*3 15.6 C 0 km/h
2650 19-09-2006 09:47:02 16 C 10.76 g/m*3 16 C 0 km/h
Sensor: Nr:Datum:Temp:Abs-Feuchte:Windchill:Wind:
Aussen-T/F 2651 19-09-2006 09:57:02 16.3 C 10.68 g/m*3 16.3 C 0 km/h
2652 19-09-2006 10:07:01 16.4 C 10.75 g/m*3 16.4 C 0 km/h
2653 19-09-2006 10:17:01 16.6 C 10.74 g/m*3 16.6 C 0 km/h
2654 19-09-2006 10:27:01 17 C 10.56 g/m*3 17 C 0 km/h
2655 19-09-2006 10:37:02 17.2 C 10.54 g/m*3 17.2 C 0 km/h
2656 19-09-2006 10:47:02 17.6 C 10.5 g/m*3 17.6 C 0 km/h
2657 19-09-2006 10:57:02 18.1 C 10.35 g/m*3 18.1 C 0 km/h
2658 19-09-2006 11:07:01 18.4 C 10.07 g/m*3 18.4 C 0 km/h
2659 19-09-2006 11:17:01 18.2 C 10.1 g/m*3 18.2 C 0 km/h
2660 19-09-2006 11:27:01 18.5 C 10.13 g/m*3 18.5 C 0 km/h
2661 19-09-2006 11:37:01 18.3 C 9.69 g/m*3 18.3 C 0 km/h
2662 19-09-2006 11:47:02 18.5 C 9.81 g/m*3 18.5 C 0 km/h
2663 19-09-2006 11:57:02 19 C 9.78 g/m*3 19 C 0 km/h
2664 19-09-2006 12:07:01 19.2 C 9.23 g/m*3 19.2 C 0 km/h
2665 19-09-2006 12:17:01 19.5 C 9.23 g/m*3 19.5 C 0 km/h
2666 19-09-2006 12:27:01 19.8 C 9.22 g/m*3 19.8 C 0 km/h
2667 19-09-2006 12:37:01 20 C 8.99 g/m*3 20 C 0 km/h
2668 19-09-2006 12:47:02 19.9 C 9.28 g/m*3 19.9 C 0 km/h
2669 19-09-2006 12:57:02 19.9 C 9.11 g/m*3 19.9 C 0 km/h
2670 19-09-2006 13:07:01 19.8 C 9.05 g/m*3 19.8 C 0 km/h
2671 19-09-2006 13:17:01 20 C 9.33 g/m*3 20 C 0 km/h
2672 19-09-2006 13:27:01 20.5 C 9.43 g/m*3 20.5 C 0 km/h
2673 19-09-2006 13:37:01 20.6 C 9.49 g/m*3 20.6 C 0 km/h
2674 19-09-2006 13:47:02 20.3 C 9.5 g/m*3 20.3 C 0 km/h
2675 19-09-2006 13:57:02 20.3 C 9.67 g/m*3 20.3 C 0 km/h
Sensor: Nr:Datum:Temp:Abs-Feuchte:Windchill:Wind:
Aussen-T/F 2676 19-09-2006 14:07:01 20.1 C 9.56 g/m*3 20.1 C 0 km/h
2677 19-09-2006 14:17:01 19.8 C 9.57 g/m*3 19.8 C 0 km/h
2678 19-09-2006 14:27:01 20.1 C 9.73 g/m*3 20.1 C 0 km/h
2679 19-09-2006 14:37:01 19.8 C 9.57 g/m*3 19.8 C 0 km/h
2680 19-09-2006 14:47:02 19.8 C 9.74 g/m*3 19.8 C 0 km/h
2681 19-09-2006 14:57:02 20.2 C 9.79 g/m*3 20.2 C 0 km/h
2682 19-09-2006 15:07:02 20.1 C 9.56 g/m*3 20.1 C 0 km/h
2683 19-09-2006 15:17:01 20.1 C 9.56 g/m*3 20.1 C 0 km/h
2684 19-09-2006 15:27:01 20.1 C 9.73 g/m*3 20.1 C 0 km/h
2685 19-09-2006 15:37:02 20.5 C 9.61 g/m*3 20.5 C 0 km/h
2686 19-09-2006 15:47:02 20.8 C 9.6 g/m*3 20.8 C 0 km/h
2687 19-09-2006 15:57:02 20.8 C 9.42 g/m*3 20.8 C 0 km/h
2688 19-09-2006 16:07:01 20.5 C 9.25 g/m*3 20.5 C 0 km/h
2689 19-09-2006 16:17:01 20.5 C 9.07 g/m*3 20.5 C 0 km/h
2690 19-09-2006 16:27:01 20.2 C 8.92 g/m*3 20.2 C 0 km/h
2691 19-09-2006 16:37:02 19.8 C 9.05 g/m*3 19.8 C 0 km/h
2692 19-09-2006 16:47:02 19.8 C 9.39 g/m*3 19.8 C 0 km/h
2693 19-09-2006 16:57:02 19.6 C 9.12 g/m*3 19.6 C 0 km/h
2694 19-09-2006 17:07:01 19.5 C 9.4 g/m*3 19.5 C 0 km/h
2695 19-09-2006 17:17:01 19.3 C 9.45 g/m*3 19.3 C 0 km/h
2696 19-09-2006 17:27:01 19.2 C 9.4 g/m*3 19.2 C 0 km/h
2697 19-09-2006 17:37:01 19 C 9.29 g/m*3 19 C 0 km/h
2698 19-09-2006 17:47:02 18.9 C 9.4 g/m*3 18.9 C 0 km/h
2699 19-09-2006 17:57:02 18.7 C 9.61 g/m*3 18.7 C 0 km/h
2700 19-09-2006 18:07:02 18.3 C 9.85 g/m*3 18.3 C 0 km/h
Sensor: Nr:Datum:Temp:Abs-Feuchte:Windchill:Wind:
Aussen-T/F 2701 19-09-2006 18:17:02 18.5 C 9.97 g/m*3 18.5 C 0 km/h
2702 19-09-2006 18:27:02 18.4 C 10.22 g/m*3 18.4 C 0 km/h
2703 19-09-2006 18:37:01 18.2 C 10.41 g/m*3 18.2 C 0 km/h
2704 19-09-2006 18:47:02 18.3 C 10.48 g/m*3 18.3 C 0 km/h
2705 19-09-2006 18:57:03 18.1 C 10.51 g/m*3 18.1 C 0 km/h
2706 19-09-2006 19:07:02 18 C 10.44 g/m*3 18 C 0 km/h
2707 19-09-2006 19:17:02 18.1 C 10.51 g/m*3 18.1 C 0 km/h
2708 19-09-2006 19:27:02 18 C 10.44 g/m*3 18 C 0 km/h
2709 19-09-2006 19:37:02 17.9 C 10.84 g/m*3 17.9 C 0 km/h
2710 19-09-2006 19:47:02 17.6 C 10.8 g/m*3 17.6 C 0 km/h
2711 19-09-2006 19:57:02 17.4 C 10.82 g/m*3 17.4 C 0 km/h
2712 19-09-2006 20:07:02 17.3 C 10.75 g/m*3 17.3 C 0 km/h
2713 19-09-2006 20:17:02 17.1 C 10.77 g/m*3 17.1 C 0 km/h
2714 19-09-2006 20:27:02 16.7 C 10.8 g/m*3 16.7 C 0 km/h
2715 19-09-2006 20:37:02 16 C 10.49 g/m*3 16 C 0 km/h
2716 19-09-2006 20:47:02 15.6 C 10.51 g/m*3 15.6 C 0 km/h
2717 19-09-2006 20:57:02 15.3 C 10.32 g/m*3 15.3 C 0 km/h
2718 19-09-2006 21:07:02 14.9 C 9.94 g/m*3 14.9 C 0 km/h
2719 19-09-2006 21:17:02 14.2 C 9.4 g/m*3 14.2 C 0 km/h
2720 19-09-2006 21:27:02 14.5 C 9.45 g/m*3 14.5 C 0 km/h
2721 19-09-2006 21:37:02 14.3 C 9.21 g/m*3 14.3 C 0 km/h
2722 19-09-2006 21:47:02 14.1 C 9.22 g/m*3 14.1 C 0 km/h
2723 19-09-2006 21:57:02 13.9 C 9.23 g/m*3 13.9 C 0 km/h
2724 19-09-2006 22:07:02 13.8 C 9.29 g/m*3 13.8 C 0 km/h
2725 19-09-2006 22:17:02 13.7 C 9.24 g/m*3 13.7 C 0 km/h
Sensor: Nr:Datum:Temp:Abs-Feuchte:Windchill:Wind:
Aussen-T/F 2726 19-09-2006 22:27:02 13.7 C 9.24 g/m*3 13.7 C 0 km/h
2727 19-09-2006 22:37:03 13.7 C 9.24 g/m*3 13.7 C 0 km/h
2728 19-09-2006 22:47:02 13.8 C 9.17 g/m*3 13.8 C 0 km/h
2729 19-09-2006 22:57:02 13.7 C 9.12 g/m*3 13.7 C 0 km/h
2730 19-09-2006 23:07:02 13.5 C 9.12 g/m*3 13.5 C 0 km/h
2731 19-09-2006 23:17:02 13.5 C 9.12 g/m*3 13.5 C 0 km/h
2732 19-09-2006 23:27:02 13.3 C 9.13 g/m*3 13.3 C 0 km/h
2733 19-09-2006 23:37:03 13.1 C 9.01 g/m*3 13.1 C 0 km/h
2734 19-09-2006 23:47:02 13.1 C 9.01 g/m*3 13.1 C 0 km/h
2735 19-09-2006 23:57:02 13 C 9.07 g/m*3 13 C 0 km/h
2736 20-09-2006 00:07:02 13 C 9.19 g/m*3 13 C 0 km/h
2737 20-09-2006 00:17:03 12.9 C 9.24 g/m*3 12.9 C 0 km/h
2738 20-09-2006 00:27:03 12.7 C 9.13 g/m*3 12.7 C 0 km/h
2739 20-09-2006 00:37:02 12.5 C 9.02 g/m*3 12.5 C 0 km/h
2740 20-09-2006 00:47:03 12.4 C 8.96 g/m*3 12.4 C 0 km/h
2741 20-09-2006 00:57:03 12.1 C 8.9 g/m*3 12.1 C 0 km/h
2742 20-09-2006 01:07:02 12 C 8.95 g/m*3 12 C 0 km/h
2743 20-09-2006 01:17:02 12 C 8.95 g/m*3 12 C 0 km/h
2744 20-09-2006 01:27:02 11.8 C 8.95 g/m*3 11.8 C 0 km/h
2745 20-09-2006 01:37:03 11.7 C 8.89 g/m*3 11.7 C 0 km/h
2746 20-09-2006 01:47:03 11.5 C 8.88 g/m*3 11.5 C 0 km/h
2747 20-09-2006 01:57:03 11.4 C 8.83 g/m*3 11.4 C 0 km/h
2748 20-09-2006 02:07:02 11.5 C 8.88 g/m*3 11.5 C 0 km/h
2749 20-09-2006 02:17:02 11.6 C 9.04 g/m*3 11.6 C 0 km/h
2750 20-09-2006 02:27:02 11.4 C 8.83 g/m*3 11.4 C 0 km/h
Sensor: Nr:Datum:Temp:Abs-Feuchte:Windchill:Wind:
Aussen-T/F 2751 20-09-2006 02:37:02 11.3 C 8.87 g/m*3 11.3 C 0 km/h
2752 20-09-2006 02:48:04 11.2 C 8.82 g/m*3 11.2 C 0 km/h
2753 20-09-2006 02:58:05 11.1 C 8.76 g/m*3 11.1 C 0 km/h
2754 20-09-2006 03:08:05 11 C 8.71 g/m*3 11 C 0 km/h
2755 20-09-2006 03:18:04 10.9 C 8.75 g/m*3 10.9 C 0 km/h
2756 20-09-2006 03:28:04 10.8 C 8.7 g/m*3 10.8 C 0 km/h
2757 20-09-2006 03:38:02 10.7 C 8.64 g/m*3 10.7 C 0 km/h
2758 20-09-2006 03:48:03 10.7 C 8.74 g/m*3 10.7 C 0 km/h
2759 20-09-2006 03:58:03 10.6 C 8.69 g/m*3 10.6 C 0 km/h
2760 20-09-2006 04:08:02 10.6 C 8.69 g/m*3 10.6 C 0 km/h
2761 20-09-2006 04:18:03 10.5 C 8.73 g/m*3 10.5 C 0 km/h
2762 20-09-2006 04:28:03 10.6 C 8.78 g/m*3 10.6 C 0 km/h
2763 20-09-2006 04:38:03 10.8 C 8.99 g/m*3 10.8 C 0 km/h
2764 20-09-2006 04:48:03 11.1 C 9.17 g/m*3 11.1 C 0 km/h
2765 20-09-2006 04:58:03 11.4 C 9.44 g/m*3 11.4 C 0 km/h
2766 20-09-2006 05:08:03 11.6 C 9.56 g/m*3 11.6 C 0 km/h
2767 20-09-2006 05:18:02 11.8 C 9.68 g/m*3 11.8 C 0 km/h
2768 20-09-2006 05:28:02 12.1 C 9.87 g/m*3 12.1 C 0 km/h
2769 20-09-2006 05:38:02 12.2 C 9.93 g/m*3 12.2 C 0 km/h
2770 20-09-2006 05:48:02 12.3 C 9.99 g/m*3 12.3 C 0 km/h
2771 20-09-2006 05:58:03 12.4 C 10.05 g/m*3 12.4 C 0 km/h
2772 20-09-2006 06:08:02 12.5 C 10.11 g/m*3 12.5 C 0 km/h
2773 20-09-2006 06:18:02 12.5 C 10 g/m*3 12.5 C 0 km/h
2774 20-09-2006 06:28:02 12.5 C 10 g/m*3 12.5 C 0 km/h
2775 20-09-2006 06:38:03 12.5 C 9.89 g/m*3 12.5 C 0 km/h
Sensor: Nr:Datum:Temp:Abs-Feuchte:Windchill:Wind:
Aussen-T/F 2776 20-09-2006 06:48:02 12.6 C 9.96 g/m*3 12.6 C 0 km/h
2777 20-09-2006 06:58:02 12.7 C 10.02 g/m*3 12.7 C 0 km/h
2778 20-09-2006 07:08:02 12.9 C 10.14 g/m*3 12.9 C 0 km/h
2779 20-09-2006 07:18:02 12.9 C 10.03 g/m*3 12.9 C 0 km/h
2780 20-09-2006 07:28:02 13 C 9.98 g/m*3 13 C 0 km/h
2781 20-09-2006 07:38:02 13 C 9.87 g/m*3 13 C 0 km/h
2782 20-09-2006 07:48:02 13.1 C 9.81 g/m*3 13.1 C 0 km/h
2783 20-09-2006 07:58:02 13.2 C 9.87 g/m*3 13.2 C 0 km/h
2784 20-09-2006 08:08:02 13.3 C 9.94 g/m*3 13.3 C 0 km/h
2785 20-09-2006 08:18:02 13.4 C 9.88 g/m*3 13.4 C 0 km/h
2786 20-09-2006 08:28:02 13.5 C 9.83 g/m*3 13.5 C 0 km/h
2787 20-09-2006 08:38:02 13.5 C 9.83 g/m*3 13.5 C 0 km/h
2788 20-09-2006 08:48:02 13.8 C 9.89 g/m*3 13.8 C 0 km/h
2789 20-09-2006 08:58:02 14 C 9.77 g/m*3 14 C 0 km/h
2790 20-09-2006 09:08:02 14.2 C 9.65 g/m*3 14.2 C 0 km/h
2791 20-09-2006 09:18:02 14.3 C 9.58 g/m*3 14.3 C 0 km/h
2792 20-09-2006 09:28:02 14.6 C 9.64 g/m*3 14.6 C 0 km/h
2793 20-09-2006 09:38:02 14.7 C 9.44 g/m*3 14.7 C 0 km/h
2794 20-09-2006 09:48:02 14.9 C 9.43 g/m*3 14.9 C 0 km/h
2795 20-09-2006 09:58:02 14.9 C 9.3 g/m*3 14.9 C 0 km/h
2796 20-09-2006 10:08:02 14.9 C 9.3 g/m*3 14.9 C 0 km/h
2797 20-09-2006 10:18:02 15.3 C 9.27 g/m*3 15.3 C 0 km/h
2798 20-09-2006 10:28:02 15.8 C 9.29 g/m*3 15.8 C 0 km/h
2799 20-09-2006 10:38:03 15.8 C 9.15 g/m*3 15.8 C 0 km/h
2800 20-09-2006 10:48:02 16.1 C 9.32 g/m*3 16.1 C 0 km/h
Sensor: Nr:Datum:Temp:Abs-Feuchte:Windchill:Wind:
Aussen-T/F 2801 20-09-2006 10:58:02 16.3 C 9.43 g/m*3 16.3 C 0 km/h
2802 20-09-2006 11:08:02 16.4 C 9.49 g/m*3 16.4 C 0 km/h
2803 20-09-2006 11:18:02 16.5 C 9.55 g/m*3 16.5 C 0 km/h
2804 20-09-2006 11:28:02 16.3 C 9.3 g/m*3 16.3 C 0 km/h
2805 20-09-2006 11:38:02 16.6 C 9.75 g/m*3 16.6 C 0 km/h
2806 20-09-2006 11:48:02 17 C 9.69 g/m*3 17 C 0 km/h
2807 20-09-2006 11:58:02 17.3 C 9.58 g/m*3 17.3 C 0 km/h
2808 20-09-2006 12:08:02 17.6 C 9.9 g/m*3 17.6 C 0 km/h
2809 20-09-2006 12:18:02 17.9 C 9.77 g/m*3 17.9 C 0 km/h
2810 20-09-2006 12:28:02 18 C 9.52 g/m*3 18 C 0 km/h
2811 20-09-2006 12:38:02 18 C 9.37 g/m*3 18 C 0 km/h
2812 20-09-2006 12:48:02 18.3 C 9.54 g/m*3 18.3 C 0 km/h
2813 20-09-2006 12:58:02 18.7 C 9.61 g/m*3 18.7 C 0 km/h
2814 20-09-2006 13:08:02 19.1 C 9.84 g/m*3 19.1 C 0 km/h
2815 20-09-2006 13:18:02 19.8 C 9.74 g/m*3 19.8 C 0 km/h
2816 20-09-2006 13:28:02 20.4 C 9.38 g/m*3 20.4 C 0 km/h
2817 20-09-2006 13:38:01 21.1 C 9.21 g/m*3 21.1 C 0 km/h
2818 20-09-2006 13:48:02 21.3 C 8.39 g/m*3 21.3 C 0 km/h
2819 20-09-2006 13:58:02 21.2 C 8.34 g/m*3 21.2 C 0 km/h
2820 20-09-2006 14:08:02 20.9 C 8.2 g/m*3 20.9 C 0 km/h
2821 20-09-2006 14:18:02 21.3 C 8.39 g/m*3 21.3 C 0 km/h
2822 20-09-2006 14:28:03 22.7 C 8.69 g/m*3 22.7 C 0 km/h
2823 20-09-2006 14:38:02 22.8 C 8.13 g/m*3 22.8 C 0 km/h
2824 20-09-2006 14:48:02 23.5 C 7.61 g/m*3 23.5 C 0 km/h
2825 20-09-2006 14:58:02 24 C 7.83 g/m*3 24 C 0 km/h
Sensor: Nr:Datum:Temp:Abs-Feuchte:Windchill:Wind:
Aussen-T/F 2826 20-09-2006 15:08:02 23.9 C 7.57 g/m*3 23.9 C 0 km/h
2827 20-09-2006 15:18:01 24.4 C 7.57 g/m*3 24.4 C 0 km/h
2828 20-09-2006 15:28:01 24.4 C 7.12 g/m*3 24.4 C 0 km/h
2829 20-09-2006 15:38:01 24.9 C 8.24 g/m*3 24.9 C 0 km/h
2830 20-09-2006 15:48:02 24.9 C 7.55 g/m*3 24.9 C 0 km/h
2831 20-09-2006 15:58:02 25.1 C 7.87 g/m*3 25.1 C 0 km/h
2832 20-09-2006 16:08:02 25.5 C 7.58 g/m*3 25.5 C 0 km/h
2833 20-09-2006 16:18:02 25.6 C 7.86 g/m*3 25.6 C 0 km/h
2834 20-09-2006 16:28:02 24.1 C 7 g/m*3 24.1 C 0 km/h
2835 20-09-2006 16:38:01 24.9 C 7.32 g/m*3 24.9 C 0 km/h
2836 20-09-2006 16:48:02 24.4 C 7.34 g/m*3 24.4 C 0 km/h
2837 20-09-2006 16:58:02 24.5 C 7.39 g/m*3 24.5 C 0 km/h
2838 20-09-2006 17:08:02 25.2 C 7.22 g/m*3 25.2 C 0 km/h
2839 20-09-2006 17:18:01 25.6 C 7.86 g/m*3 25.6 C 0 km/h
2840 20-09-2006 17:28:01 25.6 C 7.62 g/m*3 25.6 C 0 km/h
2841 20-09-2006 17:38:02 25.8 C 7.46 g/m*3 25.8 C 0 km/h
2842 20-09-2006 17:48:02 25.8 C 7.7 g/m*3 25.8 C 0 km/h
2843 20-09-2006 17:58:02 25.1 C 7.41 g/m*3 25.1 C 0 km/h
2844 20-09-2006 18:08:02 25.2 C 8.15 g/m*3 25.2 C 0 km/h
2845 20-09-2006 18:18:02 25.1 C 7.87 g/m*3 25.1 C 0 km/h
2846 20-09-2006 18:28:02 24.6 C 7.88 g/m*3 24.6 C 0 km/h
2847 20-09-2006 18:38:02 24.6 C 8.33 g/m*3 24.6 C 0 km/h
2848 20-09-2006 18:48:02 24.3 C 8.85 g/m*3 24.3 C 0 km/h
2849 20-09-2006 18:58:02 23.5 C 8.88 g/m*3 23.5 C 0 km/h
2850 20-09-2006 19:08:02 22.3 C 8.89 g/m*3 22.3 C 0 km/h
Sensor: Nr:Datum:Temp:Abs-Feuchte:Windchill:Wind:
Aussen-T/F 2851 20-09-2006 19:18:02 21.4 C 9.19 g/m*3 21.4 C 0 km/h
2852 20-09-2006 19:28:02 20.4 C 9.2 g/m*3 20.4 C 0 km/h
2853 20-09-2006 19:38:03 19.3 C 9.29 g/m*3 19.3 C 0 km/h
2854 20-09-2006 19:48:02 18.7 C 9.45 g/m*3 18.7 C 0 km/h
2855 20-09-2006 19:58:02 18.3 C 9.38 g/m*3 18.3 C 0 km/h
2856 20-09-2006 20:08:03 17.8 C 9.56 g/m*3 17.8 C 0 km/h
2857 20-09-2006 20:18:02 17.4 C 9.48 g/m*3 17.4 C 0 km/h
2858 20-09-2006 20:28:02 17 C 9.55 g/m*3 17 C 0 km/h
2859 20-09-2006 20:38:02 16.5 C 9.55 g/m*3 16.5 C 0 km/h
2860 20-09-2006 20:48:02 16.4 C 9.63 g/m*3 16.4 C 0 km/h
2861 20-09-2006 20:58:02 16.3 C 9.71 g/m*3 16.3 C 0 km/h
2862 20-09-2006 21:08:02 16.3 C 9.71 g/m*3 16.3 C 0 km/h
2863 20-09-2006 21:18:01 16.1 C 9.6 g/m*3 16.1 C 0 km/h
2864 20-09-2006 21:28:01 16 C 9.54 g/m*3 16 C 0 km/h
2865 20-09-2006 21:38:01 16 C 9.54 g/m*3 16 C 0 km/h
2866 20-09-2006 21:48:02 15.8 C 9.56 g/m*3 15.8 C 0 km/h
2867 20-09-2006 21:58:03 15.7 C 9.63 g/m*3 15.7 C 0 km/h
2868 20-09-2006 22:08:02 15.8 C 9.69 g/m*3 15.8 C 0 km/h
2869 20-09-2006 22:18:01 15.8 C 9.69 g/m*3 15.8 C 0 km/h
2870 20-09-2006 22:28:01 15.8 C 9.56 g/m*3 15.8 C 0 km/h
2871 20-09-2006 22:38:01 15.7 C 9.63 g/m*3 15.7 C 0 km/h
2872 20-09-2006 22:48:02 15.5 C 9.65 g/m*3 15.5 C 0 km/h
2873 20-09-2006 22:58:02 15.5 C 9.65 g/m*3 15.5 C 0 km/h
2874 20-09-2006 23:08:02 15.2 C 9.61 g/m*3 15.2 C 0 km/h
2875 20-09-2006 23:18:01 14.9 C 9.69 g/m*3 14.9 C 0 km/h
Sensor: Nr:Datum:Temp:Abs-Feuchte:Windchill:Wind:
Aussen-T/F 2876 20-09-2006 23:28:01 15.1 C 9.68 g/m*3 15.1 C 0 km/h
2877 20-09-2006 23:38:02 14.8 C 9.63 g/m*3 14.8 C 0 km/h
2878 20-09-2006 23:48:02 14.7 C 9.69 g/m*3 14.7 C 0 km/h
2879 20-09-2006 23:58:02 14.7 C 9.69 g/m*3 14.7 C 0 km/h
2880 21-09-2006 00:08:03 14.5 C 9.7 g/m*3 14.5 C 0 km/h
2881 21-09-2006 00:18:03 14.3 C 9.71 g/m*3 14.3 C 0 km/h
2882 21-09-2006 00:28:03 14.3 C 9.71 g/m*3 14.3 C 0 km/h
2883 21-09-2006 00:38:02 14.1 C 9.59 g/m*3 14.1 C 0 km/h
2884 21-09-2006 00:48:02 14.1 C 9.71 g/m*3 14.1 C 0 km/h
2885 21-09-2006 00:58:02 14 C 9.65 g/m*3 14 C 0 km/h
2886 21-09-2006 01:08:02 13.9 C 9.71 g/m*3 13.9 C 0 km/h
2887 21-09-2006 01:18:02 13.8 C 9.65 g/m*3 13.8 C 0 km/h
2888 21-09-2006 01:28:02 13.5 C 9.59 g/m*3 13.5 C 0 km/h
2889 21-09-2006 01:38:02 13.5 C 9.59 g/m*3 13.5 C 0 km/h
2890 21-09-2006 01:48:02 13.4 C 9.53 g/m*3 13.4 C 0 km/h
2891 21-09-2006 01:58:02 13.1 C 9.47 g/m*3 13.1 C 0 km/h
2892 21-09-2006 02:08:02 13.1 C 9.47 g/m*3 13.1 C 0 km/h
2893 21-09-2006 02:18:02 13 C 9.41 g/m*3 13 C 0 km/h
2894 21-09-2006 02:28:02 12.8 C 9.41 g/m*3 12.8 C 0 km/h
2895 21-09-2006 02:38:03 12.7 C 9.35 g/m*3 12.7 C 0 km/h
2896 21-09-2006 02:49:04 12.7 C 9.46 g/m*3 12.7 C 0 km/h
2897 21-09-2006 02:59:04 12.8 C 9.52 g/m*3 12.8 C 0 km/h
2898 21-09-2006 03:09:04 12.8 C 9.52 g/m*3 12.8 C 0 km/h
2899 21-09-2006 03:19:04 12.8 C 9.52 g/m*3 12.8 C 0 km/h
2900 21-09-2006 03:29:04 12.8 C 9.52 g/m*3 12.8 C 0 km/h
Sensor: Nr:Datum:Temp:Abs-Feuchte:Windchill:Wind:
Aussen-T/F 2901 21-09-2006 03:39:02 12.8 C 9.52 g/m*3 12.8 C 0 km/h
2902 21-09-2006 03:49:03 12.8 C 9.52 g/m*3 12.8 C 0 km/h
2903 21-09-2006 03:59:03 12.8 C 9.52 g/m*3 12.8 C 0 km/h
2904 21-09-2006 04:09:02 12.8 C 9.52 g/m*3 12.8 C 0 km/h
2905 21-09-2006 04:19:02 11.9 C 9.32 g/m*3 11.9 C 0 km/h
2906 21-09-2006 04:29:02 11.9 C 9.32 g/m*3 11.9 C 0 km/h
2907 21-09-2006 04:39:03 11.9 C 9.32 g/m*3 11.9 C 0 km/h
2908 21-09-2006 04:49:02 11.6 C 9.15 g/m*3 11.6 C 0 km/h
2909 21-09-2006 04:59:02 11.6 C 9.15 g/m*3 11.6 C 0 km/h
2910 21-09-2006 05:09:03 11.6 C 9.15 g/m*3 11.6 C 0 km/h
2911 21-09-2006 05:19:03 11.6 C 9.15 g/m*3 11.6 C 0 km/h
2912 21-09-2006 05:29:03 11.6 C 9.15 g/m*3 11.6 C 0 km/h
2913 21-09-2006 05:39:03 11.6 C 9.15 g/m*3 11.6 C 0 km/h
2914 21-09-2006 05:49:01 11.6 C 9.15 g/m*3 11.6 C 0 km/h
2915 21-09-2006 05:59:01 11.6 C 9.15 g/m*3 11.6 C 0 km/h
2916 21-09-2006 06:09:02 11.6 C 9.15 g/m*3 11.6 C 0 km/h
2917 21-09-2006 06:19:02 11.6 C 9.15 g/m*3 11.6 C 0 km/h
2918 21-09-2006 06:29:02 11.6 C 9.15 g/m*3 11.6 C 0 km/h
2919 21-09-2006 06:39:02 11.6 C 9.15 g/m*3 11.6 C 0 km/h
2920 21-09-2006 06:49:02 11.6 C 9.15 g/m*3 11.6 C 0 km/h
2921 21-09-2006 06:59:02 11.6 C 9.15 g/m*3 11.6 C 0 km/h
2922 21-09-2006 07:09:02 11.4 C 9.34 g/m*3 11.4 C 0 km/h
2923 21-09-2006 07:19:02 11.4 C 9.34 g/m*3 11.4 C 0 km/h
2924 21-09-2006 07:29:02 11.5 C 9.4 g/m*3 11.5 C 0 km/h
2925 21-09-2006 07:39:02 11.4 C 9.34 g/m*3 11.4 C 0 km/h
Sensor: Nr:Datum:Temp:Abs-Feuchte:Windchill:Wind:
Aussen-T/F 2926 21-09-2006 07:49:02 11.3 C 9.28 g/m*3 11.3 C 0 km/h
2927 21-09-2006 07:59:02 11.2 C 9.22 g/m*3 11.2 C 0 km/h
2928 21-09-2006 08:09:02 11.2 C 9.22 g/m*3 11.2 C 0 km/h
2929 21-09-2006 08:19:02 11.2 C 9.22 g/m*3 11.2 C 0 km/h
2930 21-09-2006 08:29:02 11.4 C 9.34 g/m*3 11.4 C 0 km/h
2931 21-09-2006 08:39:02 11.6 C 9.46 g/m*3 11.6 C 0 km/h
2932 21-09-2006 08:49:03 11.7 C 9.41 g/m*3 11.7 C 0 km/h
2933 21-09-2006 08:59:03 11.7 C 9.41 g/m*3 11.7 C 0 km/h
2934 21-09-2006 09:09:02 12.1 C 9.54 g/m*3 12.1 C 0 km/h
2935 21-09-2006 09:19:02 12.4 C 9.62 g/m*3 12.4 C 0 km/h
2936 21-09-2006 09:29:02 12.6 C 9.74 g/m*3 12.6 C 0 km/h
2937 21-09-2006 09:39:02 12.7 C 9.57 g/m*3 12.7 C 0 km/h
2938 21-09-2006 09:49:03 12.7 C 9.57 g/m*3 12.7 C 0 km/h
2939 21-09-2006 09:59:03 13 C 9.87 g/m*3 13 C 0 km/h
2940 21-09-2006 10:09:03 13.2 C 9.99 g/m*3 13.2 C 0 km/h
2941 21-09-2006 10:19:02 13.5 C 10.29 g/m*3 13.5 C 0 km/h
2942 21-09-2006 10:29:02 14.1 C 10.68 g/m*3 14.1 C 0 km/h
2943 21-09-2006 10:39:02 14.5 C 10.94 g/m*3 14.5 C 0 km/h
2944 21-09-2006 10:49:02 15 C 11.16 g/m*3 15 C 0 km/h
2945 21-09-2006 10:59:03 15.6 C 11.44 g/m*3 15.6 C 0 km/h
2946 21-09-2006 11:09:02 16 C 11.44 g/m*3 16 C 0 km/h
2947 21-09-2006 11:19:01 16.8 C 11.72 g/m*3 16.8 C 0 km/h
2948 21-09-2006 11:29:01 17.5 C 11.63 g/m*3 17.5 C 0 km/h
2949 21-09-2006 11:39:03 18.2 C 11.04 g/m*3 18.2 C 0 km/h
2950 21-09-2006 11:49:02 18.9 C 11.5 g/m*3 18.9 C 0 km/h
Sensor: Nr:Datum:Temp:Abs-Feuchte:Windchill:Wind:
Aussen-T/F 2951 21-09-2006 11:59:02 19.3 C 10.95 g/m*3 19.3 C 0 km/h
2952 21-09-2006 12:09:02 19.9 C 10.82 g/m*3 19.9 C 0 km/h
2953 21-09-2006 12:19:02 20.4 C 10.26 g/m*3 20.4 C 0 km/h
2954 21-09-2006 12:29:02 20.8 C 10.14 g/m*3 20.8 C 0 km/h
2955 21-09-2006 12:39:02 21.2 C 10.01 g/m*3 21.2 C 0 km/h
2956 21-09-2006 12:49:02 21.4 C 10.31 g/m*3 21.4 C 0 km/h
2957 21-09-2006 12:59:02 21.9 C 9.84 g/m*3 21.9 C 0 km/h
2958 21-09-2006 13:09:02 22.3 C 9.87 g/m*3 22.3 C 0 km/h
2959 21-09-2006 13:19:02 22.7 C 9.9 g/m*3 22.7 C 0 km/h
2960 21-09-2006 13:29:02 23.1 C 9.92 g/m*3 23.1 C 0 km/h
2961 21-09-2006 13:39:02 23.5 C 9.31 g/m*3 23.5 C 0 km/h
2962 21-09-2006 13:49:01 24 C 8.92 g/m*3 24 C 0 km/h
2963 21-09-2006 13:59:01 24.5 C 9.18 g/m*3 24.5 C 0 km/h
2964 21-09-2006 14:09:02 25 C 9.21 g/m*3 25 C 0 km/h
2965 21-09-2006 14:19:02 25.6 C 9.28 g/m*3 25.6 C 0 km/h
2966 21-09-2006 14:29:02 25.9 C 8.96 g/m*3 25.9 C 0 km/h
2967 21-09-2006 14:39:02 26.4 C 8.96 g/m*3 26.4 C 0 km/h
2968 21-09-2006 14:49:02 26.5 C 9.01 g/m*3 26.5 C 0 km/h
2969 21-09-2006 14:59:03 26.6 C 8.56 g/m*3 26.6 C 0 km/h
2970 21-09-2006 15:09:02 26.8 C 8.91 g/m*3 26.8 C 0 km/h
2971 21-09-2006 15:19:02 27.3 C 8.37 g/m*3 27.3 C 0 km/h
2972 21-09-2006 15:29:02 27.3 C 8.63 g/m*3 27.3 C 0 km/h
2973 21-09-2006 15:39:03 27.7 C 8.83 g/m*3 27.7 C 0 km/h
2974 21-09-2006 15:49:02 27.7 C 8.56 g/m*3 27.7 C 0 km/h
2975 21-09-2006 15:59:02 27.7 C 8.29 g/m*3 27.7 C 0 km/h
Sensor: Nr:Datum:Temp:Abs-Feuchte:Windchill:Wind:
Aussen-T/F 2976 21-09-2006 16:09:03 28 C 8.16 g/m*3 28 C 0 km/h
2977 21-09-2006 16:19:02 28.5 C 8.38 g/m*3 28.5 C 0 km/h
2978 21-09-2006 16:29:02 28.7 C 8.48 g/m*3 28.7 C 0 km/h
2979 21-09-2006 16:39:03 28.8 C 7.96 g/m*3 28.8 C 0 km/h
2980 21-09-2006 16:49:02 28.4 C 8.34 g/m*3 28.4 C 0 km/h
2981 21-09-2006 16:59:03 28.4 C 8.34 g/m*3 28.4 C 0 km/h
2982 21-09-2006 17:09:02 28.7 C 8.48 g/m*3 28.7 C 0 km/h
2983 21-09-2006 17:19:02 28.8 C 9.38 g/m*3 28.8 C 0 km/h
2984 21-09-2006 17:29:02 29.1 C 9.82 g/m*3 29.1 C 0 km/h
2985 21-09-2006 17:39:02 29.1 C 9.53 g/m*3 29.1 C 0 km/h
2986 21-09-2006 17:49:02 28.8 C 9.94 g/m*3 28.8 C 0 km/h
2987 21-09-2006 17:59:02 28.5 C 9.78 g/m*3 28.5 C 0 km/h
2988 21-09-2006 18:09:02 28.1 C 9.02 g/m*3 28.1 C 0 km/h
2989 21-09-2006 18:19:01 27.3 C 9.42 g/m*3 27.3 C 0 km/h
2990 21-09-2006 18:29:01 27.1 C 9.83 g/m*3 27.1 C 0 km/h
2991 21-09-2006 18:39:02 26.7 C 10.12 g/m*3 26.7 C 0 km/h
2992 21-09-2006 18:49:02 26.2 C 10.09 g/m*3 26.2 C 0 km/h
2993 21-09-2006 18:59:02 25.2 C 9.78 g/m*3 25.2 C 0 km/h
2994 21-09-2006 19:09:03 24.7 C 9.28 g/m*3 24.7 C 0 km/h
2995 21-09-2006 19:19:02 23.9 C 10.17 g/m*3 23.9 C 0 km/h
2996 21-09-2006 19:29:02 23.1 C 10.13 g/m*3 23.1 C 0 km/h
2997 21-09-2006 19:39:02 22.5 C 10.19 g/m*3 22.5 C 0 km/h
2998 21-09-2006 19:49:03 21.8 C 10.36 g/m*3 21.8 C 0 km/h
2999 21-09-2006 19:59:03 21.4 C 10.31 g/m*3 21.4 C 0 km/h
3000 21-09-2006 20:09:03 21 C 10.44 g/m*3 21 C 0 km/h
Sensor: Nr:Datum:Temp:Abs-Feuchte:Windchill:Wind:
Aussen-T/F 3001 21-09-2006 20:19:02 20.6 C 10.38 g/m*3 20.6 C 0 km/h
3002 21-09-2006 20:29:02 20.3 C 10.38 g/m*3 20.3 C 0 km/h
3003 21-09-2006 20:39:02 20 C 10.54 g/m*3 20 C 0 km/h
3004 21-09-2006 20:49:02 19.8 C 10.76 g/m*3 19.8 C 0 km/h
3005 21-09-2006 20:59:02 19.7 C 10.87 g/m*3 19.7 C 0 km/h
3006 21-09-2006 21:09:02 19.4 C 10.84 g/m*3 19.4 C 0 km/h
3007 21-09-2006 21:19:02 19.3 C 10.78 g/m*3 19.3 C 0 km/h
3008 21-09-2006 21:29:02 19.2 C 10.88 g/m*3 19.2 C 0 km/h
3009 21-09-2006 21:39:02 19.2 C 10.88 g/m*3 19.2 C 0 km/h
3010 21-09-2006 21:49:02 19.1 C 10.98 g/m*3 19.1 C 0 km/h
3011 21-09-2006 21:59:02 19 C 11.08 g/m*3 19 C 0 km/h
3012 21-09-2006 22:09:02 18.8 C 11.11 g/m*3 18.8 C 0 km/h
3013 21-09-2006 22:19:02 18.8 C 11.27 g/m*3 18.8 C 0 km/h
3014 21-09-2006 22:29:02 19.1 C 10.98 g/m*3 19.1 C 0 km/h
3015 21-09-2006 22:39:01 19.1 C 10.82 g/m*3 19.1 C 0 km/h
3016 21-09-2006 22:49:02 19.2 C 10.72 g/m*3 19.2 C 0 km/h
3017 21-09-2006 22:59:02 19.2 C 10.72 g/m*3 19.2 C 0 km/h
3018 21-09-2006 23:09:02 19.6 C 10.47 g/m*3 19.6 C 0 km/h
3019 21-09-2006 23:19:02 19.4 C 10.51 g/m*3 19.4 C 0 km/h
3020 21-09-2006 23:29:02 19.4 C 10.51 g/m*3 19.4 C 0 km/h
3021 21-09-2006 23:39:02 19.1 C 10.49 g/m*3 19.1 C 0 km/h
3022 21-09-2006 23:49:02 19 C 10.43 g/m*3 19 C 0 km/h
3023 21-09-2006 23:59:02 18.9 C 10.69 g/m*3 18.9 C 0 km/h
3024 22-09-2006 00:09:02 18.8 C 10.63 g/m*3 18.8 C 0 km/h
3025 22-09-2006 00:19:03 18.8 C 10.63 g/m*3 18.8 C 0 km/h
Sensor: Nr:Datum:Temp:Abs-Feuchte:Windchill:Wind:
Aussen-T/F 3026 22-09-2006 00:29:03 18.6 C 10.66 g/m*3 18.6 C 0 km/h
3027 22-09-2006 00:39:02 18.8 C 10.63 g/m*3 18.8 C 0 km/h
3028 22-09-2006 00:49:02 19 C 10.27 g/m*3 19 C 0 km/h
3029 22-09-2006 00:59:02 18.9 C 10.37 g/m*3 18.9 C 0 km/h
3030 22-09-2006 01:09:02 19.2 C 10.22 g/m*3 19.2 C 0 km/h
3031 22-09-2006 01:19:02 19.1 C 10.16 g/m*3 19.1 C 0 km/h
3032 22-09-2006 01:29:02 19.3 C 10.12 g/m*3 19.3 C 0 km/h
3033 22-09-2006 01:39:02 19.4 C 10.18 g/m*3 19.4 C 0 km/h
3034 22-09-2006 01:49:03 19.5 C 10.07 g/m*3 19.5 C 0 km/h
3035 22-09-2006 01:59:03 19.4 C 10.18 g/m*3 19.4 C 0 km/h
3036 22-09-2006 02:09:01 19.4 C 10.18 g/m*3 19.4 C 0 km/h
3037 22-09-2006 02:19:03 19.5 C 10.07 g/m*3 19.5 C 0 km/h
3038 22-09-2006 02:29:03 19.5 C 10.07 g/m*3 19.5 C 0 km/h
3039 22-09-2006 02:39:02 19.4 C 10.01 g/m*3 19.4 C 0 km/h
3040 22-09-2006 02:50:04 19.4 C 10.01 g/m*3 19.4 C 0 km/h
3041 22-09-2006 03:00:04 19.3 C 10.12 g/m*3 19.3 C 0 km/h
3042 22-09-2006 03:10:04 19.3 C 10.12 g/m*3 19.3 C 0 km/h
3043 22-09-2006 03:20:04 19.1 C 10 g/m*3 19.1 C 0 km/h
3044 22-09-2006 03:30:04 19 C 10.1 g/m*3 19 C 0 km/h
3045 22-09-2006 03:40:02 18.9 C 10.21 g/m*3 18.9 C 0 km/h
3046 22-09-2006 03:50:02 18.6 C 10.19 g/m*3 18.6 C 0 km/h
3047 22-09-2006 04:00:02 18.6 C 10.19 g/m*3 18.6 C 0 km/h
3048 22-09-2006 04:10:02 18.9 C 10.21 g/m*3 18.9 C 0 km/h
3049 22-09-2006 04:20:02 18.9 C 10.21 g/m*3 18.9 C 0 km/h
3050 22-09-2006 04:30:02 19 C 10.1 g/m*3 19 C 0 km/h
Sensor: Nr:Datum:Temp:Abs-Feuchte:Windchill:Wind:
Aussen-T/F 3051 22-09-2006 04:40:03 18.9 C 10.04 g/m*3 18.9 C 0 km/h
3052 22-09-2006 04:50:02 18.9 C 10.04 g/m*3 18.9 C 0 km/h
3053 22-09-2006 05:00:02 18.7 C 10.09 g/m*3 18.7 C 0 km/h
3054 22-09-2006 05:10:03 18.2 C 10.1 g/m*3 18.2 C 0 km/h
3055 22-09-2006 05:20:03 18.2 C 10.26 g/m*3 18.2 C 0 km/h
3056 22-09-2006 05:30:03 17.8 C 10.32 g/m*3 17.8 C 0 km/h
3057 22-09-2006 05:40:03 17.3 C 10.31 g/m*3 17.3 C 0 km/h
3058 22-09-2006 05:50:01 17 C 10.42 g/m*3 17 C 0 km/h
3059 22-09-2006 06:00:01 16.6 C 10.45 g/m*3 16.6 C 0 km/h
3060 22-09-2006 06:10:01 16.4 C 10.47 g/m*3 16.4 C 0 km/h
3061 22-09-2006 06:20:02 16.1 C 10.42 g/m*3 16.1 C 0 km/h
3062 22-09-2006 06:30:02 15.8 C 10.5 g/m*3 15.8 C 0 km/h
3063 22-09-2006 06:40:02 15.6 C 10.51 g/m*3 15.6 C 0 km/h
3064 22-09-2006 06:50:02 15.4 C 10.51 g/m*3 15.4 C 0 km/h
3065 22-09-2006 07:00:02 15.3 C 10.58 g/m*3 15.3 C 0 km/h
3066 22-09-2006 07:10:03 15 C 10.39 g/m*3 15 C 0 km/h
3067 22-09-2006 07:20:02 15 C 10.39 g/m*3 15 C 0 km/h
3068 22-09-2006 07:30:02 14.9 C 10.45 g/m*3 14.9 C 0 km/h
3069 22-09-2006 07:40:02 14.8 C 10.39 g/m*3 14.8 C 0 km/h
3070 22-09-2006 07:50:02 14.8 C 10.39 g/m*3 14.8 C 0 km/h
3071 22-09-2006 08:00:02 14.8 C 10.51 g/m*3 14.8 C 0 km/h
3072 22-09-2006 08:10:02 14.7 C 10.45 g/m*3 14.7 C 0 km/h
3073 22-09-2006 08:20:02 14.7 C 10.45 g/m*3 14.7 C 0 km/h
3074 22-09-2006 08:30:02 14.6 C 10.39 g/m*3 14.6 C 0 km/h
3075 22-09-2006 08:40:02 14.6 C 10.51 g/m*3 14.6 C 0 km/h
Sensor: Nr:Datum:Temp:Abs-Feuchte:Windchill:Wind:
Aussen-T/F 3076 22-09-2006 08:50:02 14.6 C 10.51 g/m*3 14.6 C 0 km/h
3077 22-09-2006 09:00:02 14.6 C 10.51 g/m*3 14.6 C 0 km/h
3078 22-09-2006 09:10:02 14.6 C 10.51 g/m*3 14.6 C 0 km/h
3079 22-09-2006 09:20:02 14.8 C 10.77 g/m*3 14.8 C 0 km/h
3080 22-09-2006 09:30:02 15 C 10.77 g/m*3 15 C 0 km/h
3081 22-09-2006 09:40:02 15.3 C 10.97 g/m*3 15.3 C 0 km/h
3082 22-09-2006 09:50:03 15.5 C 10.84 g/m*3 15.5 C 0 km/h
3083 22-09-2006 10:00:03 15.9 C 10.97 g/m*3 15.9 C 0 km/h
3084 22-09-2006 10:10:03 16.3 C 10.96 g/m*3 16.3 C 0 km/h
3085 22-09-2006 10:20:03 16.8 C 11.01 g/m*3 16.8 C 0 km/h
3086 22-09-2006 10:30:03 17.2 C 10.98 g/m*3 17.2 C 0 km/h
3087 22-09-2006 10:40:02 17.7 C 11.01 g/m*3 17.7 C 0 km/h
3088 22-09-2006 10:50:02 18.1 C 11.12 g/m*3 18.1 C 0 km/h
3089 22-09-2006 11:00:02 18.2 C 11.19 g/m*3 18.2 C 0 km/h
3090 22-09-2006 11:10:03 18.7 C 11.37 g/m*3 18.7 C 0 km/h
3091 22-09-2006 11:20:02 19.2 C 11.38 g/m*3 19.2 C 0 km/h
3092 22-09-2006 11:30:02 19.6 C 11.48 g/m*3 19.6 C 0 km/h
3093 22-09-2006 11:40:03 20 C 11.41 g/m*3 20 C 0 km/h
3094 22-09-2006 11:50:03 20.4 C 11.32 g/m*3 20.4 C 0 km/h
3095 22-09-2006 12:00:03 21.1 C 11.42 g/m*3 21.1 C 0 km/h
3096 22-09-2006 12:10:03 21.2 C 11.49 g/m*3 21.2 C 0 km/h
3097 22-09-2006 12:20:02 21.4 C 11.62 g/m*3 21.4 C 0 km/h
3098 22-09-2006 12:30:02 21.6 C 11.38 g/m*3 21.6 C 0 km/h
3099 22-09-2006 12:40:02 21.8 C 11.7 g/m*3 21.8 C 0 km/h
3100 22-09-2006 12:50:01 22.5 C 11.19 g/m*3 22.5 C 0 km/h
Sensor: Nr:Datum:Temp:Abs-Feuchte:Windchill:Wind:
Aussen-T/F 3101 22-09-2006 13:00:01 23.1 C 10.34 g/m*3 23.1 C 0 km/h
3102 22-09-2006 13:10:02 23.6 C 10.42 g/m*3 23.6 C 0 km/h
3103 22-09-2006 13:20:02 24.1 C 10.72 g/m*3 24.1 C 0 km/h
3104 22-09-2006 13:30:02 24.6 C 9 g/m*3 24.6 C 0 km/h
3105 22-09-2006 13:40:02 25.7 C 8.38 g/m*3 25.7 C 0 km/h
3106 22-09-2006 13:50:02 25.8 C 8.43 g/m*3 25.8 C 0 km/h
3107 22-09-2006 14:00:02 26.3 C 8.66 g/m*3 26.3 C 0 km/h
3108 22-09-2006 14:10:03 26.7 C 8.1 g/m*3 26.7 C 0 km/h
3109 22-09-2006 14:20:03 26.8 C 8.14 g/m*3 26.8 C 0 km/h
3110 22-09-2006 14:30:03 27.1 C 8.02 g/m*3 27.1 C 0 km/h
3111 22-09-2006 14:40:02 27.7 C 8.29 g/m*3 27.7 C 0 km/h
3112 22-09-2006 14:50:02 28.1 C 7.93 g/m*3 28.1 C 0 km/h
3113 22-09-2006 15:00:02 28.3 C 7.46 g/m*3 28.3 C 0 km/h
3114 22-09-2006 15:10:02 28.2 C 7.42 g/m*3 28.2 C 0 km/h
3115 22-09-2006 15:20:02 28.6 C 7.59 g/m*3 28.6 C 0 km/h
3116 22-09-2006 15:30:02 29.7 C 7.76 g/m*3 29.7 C 0 km/h
3117 22-09-2006 15:40:02 30 C 8.49 g/m*3 30 C 0 km/h
3118 22-09-2006 15:50:02 29.7 C 7.76 g/m*3 29.7 C 0 km/h
3119 22-09-2006 16:00:02 29.5 C 7.67 g/m*3 29.5 C 0 km/h
3120 22-09-2006 16:10:03 29.2 C 8.42 g/m*3 29.2 C 0 km/h
3121 22-09-2006 16:20:02 28.1 C 9.57 g/m*3 28.1 C 0 km/h
3122 22-09-2006 16:30:02 28.2 C 9.9 g/m*3 28.2 C 0 km/h
3123 22-09-2006 16:40:02 28.6 C 9.84 g/m*3 28.6 C 0 km/h
3124 22-09-2006 16:50:02 28.5 C 9.78 g/m*3 28.5 C 0 km/h
3125 22-09-2006 17:00:02 28.5 C 8.66 g/m*3 28.5 C 0 km/h
Sensor: Nr:Datum:Temp:Abs-Feuchte:Windchill:Wind:
Aussen-T/F 3126 22-09-2006 17:10:02 27.6 C 8.78 g/m*3 27.6 C 0 km/h
3127 22-09-2006 17:20:01 27.1 C 8.8 g/m*3 27.1 C 0 km/h
3128 22-09-2006 17:30:01 26.6 C 9.57 g/m*3 26.6 C 0 km/h
3129 22-09-2006 17:40:02 26.3 C 9.41 g/m*3 26.3 C 0 km/h
3130 22-09-2006 17:50:02 26.3 C 9.9 g/m*3 26.3 C 0 km/h
3131 22-09-2006 18:00:02 26 C 9.49 g/m*3 26 C 0 km/h
3132 22-09-2006 18:10:02 25.7 C 9.58 g/m*3 25.7 C 0 km/h
3133 22-09-2006 18:20:02 25.6 C 10 g/m*3 25.6 C 0 km/h
3134 22-09-2006 18:30:02 24.9 C 10.07 g/m*3 24.9 C 0 km/h
3135 22-09-2006 18:40:01 24.5 C 9.62 g/m*3 24.5 C 0 km/h
3136 22-09-2006 18:50:02 23.8 C 10.33 g/m*3 23.8 C 0 km/h
3137 22-09-2006 19:00:02 23.5 C 10.15 g/m*3 23.5 C 0 km/h
3138 22-09-2006 19:10:03 23.1 C 9.92 g/m*3 23.1 C 0 km/h
3139 22-09-2006 19:20:02 23.1 C 9.92 g/m*3 23.1 C 0 km/h
3140 22-09-2006 19:30:02 22.7 C 10.3 g/m*3 22.7 C 0 km/h
3141 22-09-2006 19:40:02 22.5 C 9.79 g/m*3 22.5 C 0 km/h
3142 22-09-2006 19:50:02 22.5 C 10.19 g/m*3 22.5 C 0 km/h
3143 22-09-2006 20:00:03 22.4 C 9.93 g/m*3 22.4 C 0 km/h
3144 22-09-2006 20:10:03 22.2 C 10.01 g/m*3 22.2 C 0 km/h
3145 22-09-2006 20:20:02 22.1 C 9.96 g/m*3 22.1 C 0 km/h
3146 22-09-2006 20:30:02 22.3 C 9.68 g/m*3 22.3 C 0 km/h
3147 22-09-2006 20:40:02 22.4 C 9.73 g/m*3 22.4 C 0 km/h
3148 22-09-2006 20:50:02 22.4 C 9.73 g/m*3 22.4 C 0 km/h
3149 22-09-2006 21:00:02 22.3 C 9.68 g/m*3 22.3 C 0 km/h
3150 22-09-2006 21:10:02 22.3 C 9.48 g/m*3 22.3 C 0 km/h
Sensor: Nr:Datum:Temp:Abs-Feuchte:Windchill:Wind:
Aussen-T/F 3151 22-09-2006 21:20:02 22.3 C 9.68 g/m*3 22.3 C 0 km/h
3152 22-09-2006 21:30:02 22.1 C 9.56 g/m*3 22.1 C 0 km/h
3153 22-09-2006 21:40:01 22.1 C 9.76 g/m*3 22.1 C 0 km/h
3154 22-09-2006 21:50:02 21.6 C 10.24 g/m*3 21.6 C 0 km/h
3155 22-09-2006 22:00:02 21.4 C 10.5 g/m*3 21.4 C 0 km/h
3156 22-09-2006 22:10:02 20.9 C 10.56 g/m*3 20.9 C 0 km/h
3157 22-09-2006 22:20:01 20.5 C 10.5 g/m*3 20.5 C 0 km/h
3158 22-09-2006 22:30:01 20.3 C 10.73 g/m*3 20.3 C 0 km/h
3159 22-09-2006 22:40:02 20.1 C 10.6 g/m*3 20.1 C 0 km/h
3160 22-09-2006 22:50:02 20 C 10.54 g/m*3 20 C 0 km/h
3161 22-09-2006 23:00:02 20 C 10.71 g/m*3 20 C 0 km/h
3162 22-09-2006 23:10:02 19.7 C 10.7 g/m*3 19.7 C 0 km/h
3163 22-09-2006 23:20:01 19.6 C 10.8 g/m*3 19.6 C 0 km/h
3164 22-09-2006 23:30:01 19.4 C 10.84 g/m*3 19.4 C 0 km/h
3165 22-09-2006 23:40:02 19.2 C 11.05 g/m*3 19.2 C 0 km/h
3166 22-09-2006 23:50:02 19.1 C 11.15 g/m*3 19.1 C 0 km/h
3167 23-09-2006 00:00:02 18.9 C 11.18 g/m*3 18.9 C 0 km/h
3168 23-09-2006 00:10:01 18.7 C 11.21 g/m*3 18.7 C 0 km/h
3169 23-09-2006 00:20:02 18.6 C 11.14 g/m*3 18.6 C 0 km/h
3170 23-09-2006 00:30:02 18.4 C 11.17 g/m*3 18.4 C 0 km/h
3171 23-09-2006 00:40:02 18.2 C 11.04 g/m*3 18.2 C 0 km/h
3172 23-09-2006 00:50:03 18 C 11.21 g/m*3 18 C 0 km/h
3173 23-09-2006 01:00:03 17.9 C 11.3 g/m*3 17.9 C 0 km/h
3174 23-09-2006 01:10:03 17.7 C 11.16 g/m*3 17.7 C 0 km/h
3175 23-09-2006 01:20:03 17.7 C 11.32 g/m*3 17.7 C 0 km/h
Sensor: Nr:Datum:Temp:Abs-Feuchte:Windchill:Wind:
Aussen-T/F 3176 23-09-2006 01:30:03 17.5 C 11.18 g/m*3 17.5 C 0 km/h
3177 23-09-2006 01:40:03 17.4 C 11.12 g/m*3 17.4 C 0 km/h
3178 23-09-2006 01:50:02 17.2 C 10.98 g/m*3 17.2 C 0 km/h
3179 23-09-2006 02:00:02 17.2 C 10.98 g/m*3 17.2 C 0 km/h
3180 23-09-2006 02:10:03 17 C 11 g/m*3 17 C 0 km/h
3181 23-09-2006 02:20:02 17 C 11 g/m*3 17 C 0 km/h
3182 23-09-2006 02:30:03 16.8 C 11.15 g/m*3 16.8 C 0 km/h
3183 23-09-2006 02:40:02 16.6 C 11.02 g/m*3 16.6 C 0 km/h
3184 23-09-2006 02:51:03 16.6 C 11.16 g/m*3 16.6 C 0 km/h
3185 23-09-2006 03:01:04 16.5 C 11.09 g/m*3 16.5 C 0 km/h
3186 23-09-2006 03:11:04 16.4 C 11.03 g/m*3 16.4 C 0 km/h
3187 23-09-2006 03:21:04 16.2 C 11.03 g/m*3 16.2 C 0 km/h
3188 23-09-2006 03:31:02 16.2 C 11.03 g/m*3 16.2 C 0 km/h
3189 23-09-2006 03:41:02 16.1 C 11.1 g/m*3 16.1 C 0 km/h
3190 23-09-2006 03:51:03 16 C 11.04 g/m*3 16 C 0 km/h
3191 23-09-2006 04:01:02 15.9 C 11.1 g/m*3 15.9 C 0 km/h
3192 23-09-2006 04:11:03 15.8 C 11.04 g/m*3 15.8 C 0 km/h
3193 23-09-2006 04:21:02 15.7 C 11.11 g/m*3 15.7 C 0 km/h
3194 23-09-2006 04:31:02 15.6 C 11.04 g/m*3 15.6 C 0 km/h
3195 23-09-2006 04:41:02 15.5 C 10.97 g/m*3 15.5 C 0 km/h
3196 23-09-2006 04:51:02 15.4 C 10.9 g/m*3 15.4 C 0 km/h
3197 23-09-2006 05:01:02 15.2 C 10.9 g/m*3 15.2 C 0 km/h
3198 23-09-2006 05:11:02 15.2 C 10.9 g/m*3 15.2 C 0 km/h
3199 23-09-2006 05:21:02 15.1 C 10.84 g/m*3 15.1 C 0 km/h
3200 23-09-2006 05:31:02 15.1 C 10.84 g/m*3 15.1 C 0 km/h
Sensor: Nr:Datum:Temp:Abs-Feuchte:Windchill:Wind:
Aussen-T/F 3201 23-09-2006 05:41:02 14.9 C 10.83 g/m*3 14.9 C 0 km/h
3202 23-09-2006 05:51:03 14.8 C 10.77 g/m*3 14.8 C 0 km/h
3203 23-09-2006 06:01:02 14.7 C 10.7 g/m*3 14.7 C 0 km/h
3204 23-09-2006 06:11:02 14.6 C 10.64 g/m*3 14.6 C 0 km/h
3205 23-09-2006 06:21:02 14.6 C 10.76 g/m*3 14.6 C 0 km/h
3206 23-09-2006 06:31:02 14.5 C 10.7 g/m*3 14.5 C 0 km/h
3207 23-09-2006 06:41:02 14.4 C 10.63 g/m*3 14.4 C 0 km/h
3208 23-09-2006 06:51:02 14.4 C 10.75 g/m*3 14.4 C 0 km/h
3209 23-09-2006 07:01:01 14.3 C 10.69 g/m*3 14.3 C 0 km/h
3210 23-09-2006 07:11:01 14.3 C 10.69 g/m*3 14.3 C 0 km/h
3211 23-09-2006 07:21:01 14.5 C 10.94 g/m*3 14.5 C 0 km/h
3212 23-09-2006 07:31:01 14.5 C 10.94 g/m*3 14.5 C 0 km/h
3213 23-09-2006 07:41:01 14.6 C 10.89 g/m*3 14.6 C 0 km/h
3214 23-09-2006 07:51:02 14.7 C 11.08 g/m*3 14.7 C 0 km/h
3215 23-09-2006 08:01:01 15 C 11.16 g/m*3 15 C 0 km/h
3216 23-09-2006 08:11:01 15.1 C 11.09 g/m*3 15.1 C 0 km/h
3217 23-09-2006 08:21:01 15.4 C 11.3 g/m*3 15.4 C 0 km/h
3218 23-09-2006 08:31:01 15.4 C 11.17 g/m*3 15.4 C 0 km/h
3219 23-09-2006 08:41:01 15.4 C 11.17 g/m*3 15.4 C 0 km/h
3220 23-09-2006 08:51:02 15.5 C 11.1 g/m*3 15.5 C 0 km/h
3221 23-09-2006 09:01:02 15.6 C 11.3 g/m*3 15.6 C 0 km/h
3222 23-09-2006 09:11:02 15.6 C 11.3 g/m*3 15.6 C 0 km/h
3223 23-09-2006 09:21:02 15.8 C 11.44 g/m*3 15.8 C 0 km/h
3224 23-09-2006 09:31:02 16.2 C 11.45 g/m*3 16.2 C 0 km/h
3225 23-09-2006 09:41:02 16.8 C 11.44 g/m*3 16.8 C 0 km/h
Sensor: Nr:Datum: